<?xml version="1.0" encoding="UTF-8" standalone="no" ?>
<gpx xmlns="http://www.topografix.com/GPX/1/1" xmlns:xsi="http://www.w3.org/2001/XMLSchema-instance" xsi:schemaLocation="http://www.topografix.com/GPX/1/1 http://www.topografix.com/GPX/1/1/gpx.xsd" version="1.1" creator="VisuGPX - https://www.visugpx.com">
  <metadata>
    <name>Rocher de l'Alevoux et crête du Faz depuis St. Pierre de Chérennes</name>
    <desc><![CDATA[Boucle au départ de Saint Pierre de Chérennes avec de belles vues sur la vallée de l'Isère et Royans. Montée au Pas de Pré Bourret par le Rocher de l'Alevoux, retour par les crêtes du Faz et Château Vieux.]]></desc>
  </metadata>
  <trk>
    <name><![CDATA[2021-10-28 15:48:31]]></name>
    <trkseg>
      <trkpt lat="45.12083" lon="5.3629">
        <ele>376.01</ele>
        <time>2021-10-28T06:58:38Z</time>
      </trkpt>
      <trkpt lat="45.12077" lon="5.36282">
        <ele>376.01</ele>
        <time>2021-10-28T06:58:53Z</time>
      </trkpt>
      <trkpt lat="45.12069" lon="5.36269">
        <ele>376.01</ele>
        <time>2021-10-28T06:59:12Z</time>
      </trkpt>
      <trkpt lat="45.12061" lon="5.36279">
        <ele>377.94</ele>
        <time>2021-10-28T06:59:27Z</time>
      </trkpt>
      <trkpt lat="45.12059" lon="5.36286">
        <ele>378.42</ele>
        <time>2021-10-28T06:59:34Z</time>
      </trkpt>
      <trkpt lat="45.12057" lon="5.36315">
        <ele>378.9</ele>
        <time>2021-10-28T06:59:53Z</time>
      </trkpt>
      <trkpt lat="45.12058" lon="5.36316">
        <ele>378.9</ele>
        <time>2021-10-28T06:59:54Z</time>
      </trkpt>
      <trkpt lat="45.12058" lon="5.36341">
        <ele>379.86</ele>
        <time>2021-10-28T07:00:09Z</time>
      </trkpt>
      <trkpt lat="45.12057" lon="5.36361">
        <ele>380.82</ele>
        <time>2021-10-28T07:00:23Z</time>
      </trkpt>
      <trkpt lat="45.1206" lon="5.36386">
        <ele>382.26</ele>
        <time>2021-10-28T07:00:42Z</time>
      </trkpt>
      <trkpt lat="45.12061" lon="5.36411">
        <ele>383.22</ele>
        <time>2021-10-28T07:00:57Z</time>
      </trkpt>
      <trkpt lat="45.12059" lon="5.36437">
        <ele>384.18</ele>
        <time>2021-10-28T07:01:13Z</time>
      </trkpt>
      <trkpt lat="45.12053" lon="5.36462">
        <ele>385.15</ele>
        <time>2021-10-28T07:01:29Z</time>
      </trkpt>
      <trkpt lat="45.12047" lon="5.36486">
        <ele>386.59</ele>
        <time>2021-10-28T07:01:46Z</time>
      </trkpt>
      <trkpt lat="45.12045" lon="5.36498">
        <ele>387.07</ele>
        <time>2021-10-28T07:01:54Z</time>
      </trkpt>
      <trkpt lat="45.12048" lon="5.36528">
        <ele>387.07</ele>
        <time>2021-10-28T07:02:11Z</time>
      </trkpt>
      <trkpt lat="45.12051" lon="5.36553">
        <ele>387.07</ele>
        <time>2021-10-28T07:02:26Z</time>
      </trkpt>
      <trkpt lat="45.12054" lon="5.36581">
        <ele>387.07</ele>
        <time>2021-10-28T07:02:43Z</time>
      </trkpt>
      <trkpt lat="45.12054" lon="5.36606">
        <ele>387.55</ele>
        <time>2021-10-28T07:02:59Z</time>
      </trkpt>
      <trkpt lat="45.12051" lon="5.36627">
        <ele>388.99</ele>
        <time>2021-10-28T07:03:16Z</time>
      </trkpt>
      <trkpt lat="45.12046" lon="5.36653">
        <ele>390.91</ele>
        <time>2021-10-28T07:03:35Z</time>
      </trkpt>
      <trkpt lat="45.12042" lon="5.36673">
        <ele>392.36</ele>
        <time>2021-10-28T07:03:49Z</time>
      </trkpt>
      <trkpt lat="45.12033" lon="5.36696">
        <ele>393.8</ele>
        <time>2021-10-28T07:04:04Z</time>
      </trkpt>
      <trkpt lat="45.12027" lon="5.36714">
        <ele>395.72</ele>
        <time>2021-10-28T07:04:18Z</time>
      </trkpt>
      <trkpt lat="45.12021" lon="5.36736">
        <ele>397.16</ele>
        <time>2021-10-28T07:04:31Z</time>
      </trkpt>
      <trkpt lat="45.12017" lon="5.36759">
        <ele>399.57</ele>
        <time>2021-10-28T07:04:47Z</time>
      </trkpt>
      <trkpt lat="45.12016" lon="5.36778">
        <ele>401.49</ele>
        <time>2021-10-28T07:05:00Z</time>
      </trkpt>
      <trkpt lat="45.12022" lon="5.36794">
        <ele>403.89</ele>
        <time>2021-10-28T07:05:15Z</time>
      </trkpt>
      <trkpt lat="45.12031" lon="5.36793">
        <ele>404.85</ele>
        <time>2021-10-28T07:05:27Z</time>
      </trkpt>
      <trkpt lat="45.12033" lon="5.36791">
        <ele>405.33</ele>
        <time>2021-10-28T07:05:30Z</time>
      </trkpt>
      <trkpt lat="45.12042" lon="5.36786">
        <ele>405.33</ele>
        <time>2021-10-28T07:05:37Z</time>
      </trkpt>
      <trkpt lat="45.1206" lon="5.36788">
        <ele>405.33</ele>
        <time>2021-10-28T07:05:50Z</time>
      </trkpt>
      <trkpt lat="45.12077" lon="5.36771">
        <ele>406.77</ele>
        <time>2021-10-28T07:06:07Z</time>
      </trkpt>
      <trkpt lat="45.12088" lon="5.36763">
        <ele>407.74</ele>
        <time>2021-10-28T07:06:22Z</time>
      </trkpt>
      <trkpt lat="45.12098" lon="5.36754">
        <ele>409.66</ele>
        <time>2021-10-28T07:06:36Z</time>
      </trkpt>
      <trkpt lat="45.12107" lon="5.36745">
        <ele>412.06</ele>
        <time>2021-10-28T07:06:53Z</time>
      </trkpt>
      <trkpt lat="45.12108" lon="5.36753">
        <ele>415.43</ele>
        <time>2021-10-28T07:07:07Z</time>
      </trkpt>
      <trkpt lat="45.12105" lon="5.36766">
        <ele>417.83</ele>
        <time>2021-10-28T07:07:21Z</time>
      </trkpt>
      <trkpt lat="45.121" lon="5.3678">
        <ele>419.75</ele>
        <time>2021-10-28T07:07:36Z</time>
      </trkpt>
      <trkpt lat="45.12096" lon="5.36793">
        <ele>422.64</ele>
        <time>2021-10-28T07:07:51Z</time>
      </trkpt>
      <trkpt lat="45.12094" lon="5.36809">
        <ele>425.52</ele>
        <time>2021-10-28T07:08:06Z</time>
      </trkpt>
      <trkpt lat="45.12091" lon="5.36821">
        <ele>427.92</ele>
        <time>2021-10-28T07:08:22Z</time>
      </trkpt>
      <trkpt lat="45.12088" lon="5.36834">
        <ele>430.81</ele>
        <time>2021-10-28T07:08:38Z</time>
      </trkpt>
      <trkpt lat="45.1209" lon="5.36851">
        <ele>434.17</ele>
        <time>2021-10-28T07:08:55Z</time>
      </trkpt>
      <trkpt lat="45.12092" lon="5.3687">
        <ele>437.54</ele>
        <time>2021-10-28T07:09:14Z</time>
      </trkpt>
      <trkpt lat="45.12092" lon="5.36882">
        <ele>438.98</ele>
        <time>2021-10-28T07:09:28Z</time>
      </trkpt>
      <trkpt lat="45.12099" lon="5.36893">
        <ele>440.42</ele>
        <time>2021-10-28T07:09:46Z</time>
      </trkpt>
      <trkpt lat="45.12101" lon="5.36897">
        <ele>441.86</ele>
        <time>2021-10-28T07:13:08Z</time>
      </trkpt>
      <trkpt lat="45.12108" lon="5.36916">
        <ele>443.79</ele>
        <time>2021-10-28T07:13:27Z</time>
      </trkpt>
      <trkpt lat="45.12114" lon="5.36929">
        <ele>445.71</ele>
        <time>2021-10-28T07:13:42Z</time>
      </trkpt>
      <trkpt lat="45.1212" lon="5.36943">
        <ele>447.63</ele>
        <time>2021-10-28T07:13:56Z</time>
      </trkpt>
      <trkpt lat="45.12129" lon="5.36959">
        <ele>450.03</ele>
        <time>2021-10-28T07:14:11Z</time>
      </trkpt>
      <trkpt lat="45.12136" lon="5.36973">
        <ele>452.92</ele>
        <time>2021-10-28T07:14:29Z</time>
      </trkpt>
      <trkpt lat="45.12143" lon="5.36991">
        <ele>455.32</ele>
        <time>2021-10-28T07:14:44Z</time>
      </trkpt>
      <trkpt lat="45.12151" lon="5.37006">
        <ele>457.72</ele>
        <time>2021-10-28T07:14:59Z</time>
      </trkpt>
      <trkpt lat="45.12159" lon="5.37019">
        <ele>459.65</ele>
        <time>2021-10-28T07:15:15Z</time>
      </trkpt>
      <trkpt lat="45.12167" lon="5.3703">
        <ele>462.05</ele>
        <time>2021-10-28T07:15:31Z</time>
      </trkpt>
      <trkpt lat="45.12177" lon="5.37039">
        <ele>464.45</ele>
        <time>2021-10-28T07:15:48Z</time>
      </trkpt>
      <trkpt lat="45.12184" lon="5.37047">
        <ele>467.34</ele>
        <time>2021-10-28T07:16:05Z</time>
      </trkpt>
      <trkpt lat="45.12194" lon="5.37049">
        <ele>470.22</ele>
        <time>2021-10-28T07:16:23Z</time>
      </trkpt>
      <trkpt lat="45.12206" lon="5.37052">
        <ele>473.11</ele>
        <time>2021-10-28T07:16:39Z</time>
      </trkpt>
      <trkpt lat="45.12217" lon="5.37057">
        <ele>475.51</ele>
        <time>2021-10-28T07:16:56Z</time>
      </trkpt>
      <trkpt lat="45.12227" lon="5.37068">
        <ele>478.39</ele>
        <time>2021-10-28T07:17:13Z</time>
      </trkpt>
      <trkpt lat="45.12229" lon="5.37078">
        <ele>480.8</ele>
        <time>2021-10-28T07:17:29Z</time>
      </trkpt>
      <trkpt lat="45.12224" lon="5.37088">
        <ele>483.68</ele>
        <time>2021-10-28T07:17:50Z</time>
      </trkpt>
      <trkpt lat="45.1222" lon="5.37099">
        <ele>486.56</ele>
        <time>2021-10-28T07:18:07Z</time>
      </trkpt>
      <trkpt lat="45.12217" lon="5.37106">
        <ele>489.93</ele>
        <time>2021-10-28T07:18:24Z</time>
      </trkpt>
      <trkpt lat="45.12217" lon="5.37116">
        <ele>492.33</ele>
        <time>2021-10-28T07:18:41Z</time>
      </trkpt>
      <trkpt lat="45.12216" lon="5.37125">
        <ele>495.7</ele>
        <time>2021-10-28T07:19:00Z</time>
      </trkpt>
      <trkpt lat="45.12217" lon="5.37139">
        <ele>498.58</ele>
        <time>2021-10-28T07:19:17Z</time>
      </trkpt>
      <trkpt lat="45.1222" lon="5.3715">
        <ele>501.95</ele>
        <time>2021-10-28T07:19:33Z</time>
      </trkpt>
      <trkpt lat="45.12225" lon="5.37158">
        <ele>503.87</ele>
        <time>2021-10-28T07:19:49Z</time>
      </trkpt>
      <trkpt lat="45.12226" lon="5.37169">
        <ele>507.23</ele>
        <time>2021-10-28T07:20:09Z</time>
      </trkpt>
      <trkpt lat="45.12226" lon="5.37175">
        <ele>510.12</ele>
        <time>2021-10-28T07:20:24Z</time>
      </trkpt>
      <trkpt lat="45.12228" lon="5.37183">
        <ele>513</ele>
        <time>2021-10-28T07:20:41Z</time>
      </trkpt>
      <trkpt lat="45.1223" lon="5.37195">
        <ele>516.37</ele>
        <time>2021-10-28T07:21:00Z</time>
      </trkpt>
      <trkpt lat="45.12232" lon="5.37202">
        <ele>518.77</ele>
        <time>2021-10-28T07:21:15Z</time>
      </trkpt>
      <trkpt lat="45.12234" lon="5.37212">
        <ele>521.65</ele>
        <time>2021-10-28T07:21:30Z</time>
      </trkpt>
      <trkpt lat="45.12238" lon="5.37218">
        <ele>524.54</ele>
        <time>2021-10-28T07:21:48Z</time>
      </trkpt>
      <trkpt lat="45.12243" lon="5.37226">
        <ele>527.9</ele>
        <time>2021-10-28T07:22:05Z</time>
      </trkpt>
      <trkpt lat="45.12244" lon="5.37242">
        <ele>530.3</ele>
        <time>2021-10-28T07:22:23Z</time>
      </trkpt>
      <trkpt lat="45.12248" lon="5.37252">
        <ele>533.19</ele>
        <time>2021-10-28T07:22:41Z</time>
      </trkpt>
      <trkpt lat="45.12251" lon="5.3726">
        <ele>536.55</ele>
        <time>2021-10-28T07:23:01Z</time>
      </trkpt>
      <trkpt lat="45.12255" lon="5.37267">
        <ele>538.96</ele>
        <time>2021-10-28T07:23:17Z</time>
      </trkpt>
      <trkpt lat="45.12259" lon="5.37276">
        <ele>541.36</ele>
        <time>2021-10-28T07:23:34Z</time>
      </trkpt>
      <trkpt lat="45.12261" lon="5.37286">
        <ele>544.24</ele>
        <time>2021-10-28T07:23:50Z</time>
      </trkpt>
      <trkpt lat="45.12263" lon="5.37295">
        <ele>546.17</ele>
        <time>2021-10-28T07:24:05Z</time>
      </trkpt>
      <trkpt lat="45.12262" lon="5.37297">
        <ele>548.57</ele>
        <time>2021-10-28T07:24:21Z</time>
      </trkpt>
      <trkpt lat="45.12259" lon="5.37296">
        <ele>551.45</ele>
        <time>2021-10-28T07:24:34Z</time>
      </trkpt>
      <trkpt lat="45.12251" lon="5.37297">
        <ele>553.86</ele>
        <time>2021-10-28T07:24:53Z</time>
      </trkpt>
      <trkpt lat="45.12246" lon="5.37298">
        <ele>557.22</ele>
        <time>2021-10-28T07:25:09Z</time>
      </trkpt>
      <trkpt lat="45.12239" lon="5.37302">
        <ele>559.62</ele>
        <time>2021-10-28T07:25:26Z</time>
      </trkpt>
      <trkpt lat="45.12234" lon="5.37306">
        <ele>561.55</ele>
        <time>2021-10-28T07:25:40Z</time>
      </trkpt>
      <trkpt lat="45.12228" lon="5.37307">
        <ele>564.43</ele>
        <time>2021-10-28T07:25:55Z</time>
      </trkpt>
      <trkpt lat="45.1222" lon="5.373">
        <ele>567.32</ele>
        <time>2021-10-28T07:26:11Z</time>
      </trkpt>
      <trkpt lat="45.12211" lon="5.37295">
        <ele>569.72</ele>
        <time>2021-10-28T07:26:27Z</time>
      </trkpt>
      <trkpt lat="45.12203" lon="5.37295">
        <ele>572.6</ele>
        <time>2021-10-28T07:26:47Z</time>
      </trkpt>
      <trkpt lat="45.12196" lon="5.37296">
        <ele>576.45</ele>
        <time>2021-10-28T07:27:07Z</time>
      </trkpt>
      <trkpt lat="45.12189" lon="5.37296">
        <ele>578.37</ele>
        <time>2021-10-28T07:27:23Z</time>
      </trkpt>
      <trkpt lat="45.12182" lon="5.37296">
        <ele>581.25</ele>
        <time>2021-10-28T07:27:41Z</time>
      </trkpt>
      <trkpt lat="45.12182" lon="5.3731">
        <ele>584.62</ele>
        <time>2021-10-28T07:27:58Z</time>
      </trkpt>
      <trkpt lat="45.12186" lon="5.37321">
        <ele>587.5</ele>
        <time>2021-10-28T07:28:17Z</time>
      </trkpt>
      <trkpt lat="45.12189" lon="5.37334">
        <ele>590.39</ele>
        <time>2021-10-28T07:28:35Z</time>
      </trkpt>
      <trkpt lat="45.1219" lon="5.37341">
        <ele>592.31</ele>
        <time>2021-10-28T07:28:48Z</time>
      </trkpt>
      <trkpt lat="45.12195" lon="5.37352">
        <ele>594.71</ele>
        <time>2021-10-28T07:29:07Z</time>
      </trkpt>
      <trkpt lat="45.12198" lon="5.3736">
        <ele>597.12</ele>
        <time>2021-10-28T07:29:25Z</time>
      </trkpt>
      <trkpt lat="45.12203" lon="5.37367">
        <ele>600</ele>
        <time>2021-10-28T07:29:43Z</time>
      </trkpt>
      <trkpt lat="45.12205" lon="5.3738">
        <ele>602.88</ele>
        <time>2021-10-28T07:30:00Z</time>
      </trkpt>
      <trkpt lat="45.12209" lon="5.37388">
        <ele>605.77</ele>
        <time>2021-10-28T07:30:19Z</time>
      </trkpt>
      <trkpt lat="45.12212" lon="5.37398">
        <ele>608.65</ele>
        <time>2021-10-28T07:30:38Z</time>
      </trkpt>
      <trkpt lat="45.12214" lon="5.37409">
        <ele>612.02</ele>
        <time>2021-10-28T07:30:55Z</time>
      </trkpt>
      <trkpt lat="45.12217" lon="5.37418">
        <ele>614.9</ele>
        <time>2021-10-28T07:31:13Z</time>
      </trkpt>
      <trkpt lat="45.1221" lon="5.37408">
        <ele>617.78</ele>
        <time>2021-10-28T07:31:32Z</time>
      </trkpt>
      <trkpt lat="45.122" lon="5.37405">
        <ele>620.19</ele>
        <time>2021-10-28T07:31:49Z</time>
      </trkpt>
      <trkpt lat="45.12192" lon="5.374">
        <ele>622.11</ele>
        <time>2021-10-28T07:32:07Z</time>
      </trkpt>
      <trkpt lat="45.12181" lon="5.37393">
        <ele>624.03</ele>
        <time>2021-10-28T07:32:21Z</time>
      </trkpt>
      <trkpt lat="45.12171" lon="5.37389">
        <ele>626.44</ele>
        <time>2021-10-28T07:32:36Z</time>
      </trkpt>
      <trkpt lat="45.12164" lon="5.3739">
        <ele>628.36</ele>
        <time>2021-10-28T07:32:53Z</time>
      </trkpt>
      <trkpt lat="45.12156" lon="5.37388">
        <ele>631.24</ele>
        <time>2021-10-28T07:33:09Z</time>
      </trkpt>
      <trkpt lat="45.12146" lon="5.37386">
        <ele>634.13</ele>
        <time>2021-10-28T07:33:26Z</time>
      </trkpt>
      <trkpt lat="45.12137" lon="5.37381">
        <ele>637.01</ele>
        <time>2021-10-28T07:33:43Z</time>
      </trkpt>
      <trkpt lat="45.12132" lon="5.37383">
        <ele>638.93</ele>
        <time>2021-10-28T07:34:00Z</time>
      </trkpt>
      <trkpt lat="45.12128" lon="5.37387">
        <ele>641.82</ele>
        <time>2021-10-28T07:34:16Z</time>
      </trkpt>
      <trkpt lat="45.12123" lon="5.37386">
        <ele>645.18</ele>
        <time>2021-10-28T07:34:31Z</time>
      </trkpt>
      <trkpt lat="45.12117" lon="5.37383">
        <ele>647.1</ele>
        <time>2021-10-28T07:34:44Z</time>
      </trkpt>
      <trkpt lat="45.12108" lon="5.37381">
        <ele>649.99</ele>
        <time>2021-10-28T07:35:02Z</time>
      </trkpt>
      <trkpt lat="45.12107" lon="5.37384">
        <ele>650.95</ele>
        <time>2021-10-28T07:35:16Z</time>
      </trkpt>
      <trkpt lat="45.12101" lon="5.3738">
        <ele>654.31</ele>
        <time>2021-10-28T07:35:33Z</time>
      </trkpt>
      <trkpt lat="45.12093" lon="5.37376">
        <ele>656.24</ele>
        <time>2021-10-28T07:35:50Z</time>
      </trkpt>
      <trkpt lat="45.12086" lon="5.37373">
        <ele>658.64</ele>
        <time>2021-10-28T07:36:05Z</time>
      </trkpt>
      <trkpt lat="45.12079" lon="5.37373">
        <ele>661.52</ele>
        <time>2021-10-28T07:36:20Z</time>
      </trkpt>
      <trkpt lat="45.12073" lon="5.37369">
        <ele>663.93</ele>
        <time>2021-10-28T07:36:39Z</time>
      </trkpt>
      <trkpt lat="45.12068" lon="5.37364">
        <ele>666.81</ele>
        <time>2021-10-28T07:36:57Z</time>
      </trkpt>
      <trkpt lat="45.12063" lon="5.37362">
        <ele>668.73</ele>
        <time>2021-10-28T07:37:13Z</time>
      </trkpt>
      <trkpt lat="45.12059" lon="5.37357">
        <ele>671.14</ele>
        <time>2021-10-28T07:37:29Z</time>
      </trkpt>
      <trkpt lat="45.12056" lon="5.37353">
        <ele>673.06</ele>
        <time>2021-10-28T07:37:46Z</time>
      </trkpt>
      <trkpt lat="45.1205" lon="5.37349">
        <ele>675.94</ele>
        <time>2021-10-28T07:38:03Z</time>
      </trkpt>
      <trkpt lat="45.12044" lon="5.37348">
        <ele>680.27</ele>
        <time>2021-10-28T07:40:13Z</time>
      </trkpt>
      <trkpt lat="45.12043" lon="5.37352">
        <ele>681.71</ele>
        <time>2021-10-28T07:40:31Z</time>
      </trkpt>
      <trkpt lat="45.12038" lon="5.37354">
        <ele>684.6</ele>
        <time>2021-10-28T07:40:52Z</time>
      </trkpt>
      <trkpt lat="45.12031" lon="5.37358">
        <ele>687.48</ele>
        <time>2021-10-28T07:41:08Z</time>
      </trkpt>
      <trkpt lat="45.12033" lon="5.37365">
        <ele>689.88</ele>
        <time>2021-10-28T07:41:26Z</time>
      </trkpt>
      <trkpt lat="45.12034" lon="5.37377">
        <ele>693.25</ele>
        <time>2021-10-28T07:41:43Z</time>
      </trkpt>
      <trkpt lat="45.12031" lon="5.37379">
        <ele>696.13</ele>
        <time>2021-10-28T07:41:59Z</time>
      </trkpt>
      <trkpt lat="45.12024" lon="5.37377">
        <ele>699.02</ele>
        <time>2021-10-28T07:42:17Z</time>
      </trkpt>
      <trkpt lat="45.12018" lon="5.3738">
        <ele>700.94</ele>
        <time>2021-10-28T07:42:34Z</time>
      </trkpt>
      <trkpt lat="45.12018" lon="5.37386">
        <ele>703.82</ele>
        <time>2021-10-28T07:42:47Z</time>
      </trkpt>
      <trkpt lat="45.12021" lon="5.37389">
        <ele>706.71</ele>
        <time>2021-10-28T07:43:02Z</time>
      </trkpt>
      <trkpt lat="45.12026" lon="5.37397">
        <ele>709.59</ele>
        <time>2021-10-28T07:43:21Z</time>
      </trkpt>
      <trkpt lat="45.12023" lon="5.37397">
        <ele>712.47</ele>
        <time>2021-10-28T07:43:37Z</time>
      </trkpt>
      <trkpt lat="45.12017" lon="5.37401">
        <ele>714.4</ele>
        <time>2021-10-28T07:43:53Z</time>
      </trkpt>
      <trkpt lat="45.12011" lon="5.37403">
        <ele>717.28</ele>
        <time>2021-10-28T07:44:08Z</time>
      </trkpt>
      <trkpt lat="45.12004" lon="5.37405">
        <ele>720.16</ele>
        <time>2021-10-28T07:44:26Z</time>
      </trkpt>
      <trkpt lat="45.11998" lon="5.37407">
        <ele>722.09</ele>
        <time>2021-10-28T07:44:43Z</time>
      </trkpt>
      <trkpt lat="45.11991" lon="5.37407">
        <ele>724.49</ele>
        <time>2021-10-28T07:44:57Z</time>
      </trkpt>
      <trkpt lat="45.11991" lon="5.37411">
        <ele>726.89</ele>
        <time>2021-10-28T07:45:13Z</time>
      </trkpt>
      <trkpt lat="45.11993" lon="5.37417">
        <ele>729.78</ele>
        <time>2021-10-28T07:45:29Z</time>
      </trkpt>
      <trkpt lat="45.11989" lon="5.37421">
        <ele>731.7</ele>
        <time>2021-10-28T07:45:45Z</time>
      </trkpt>
      <trkpt lat="45.11984" lon="5.37421">
        <ele>734.1</ele>
        <time>2021-10-28T07:46:01Z</time>
      </trkpt>
      <trkpt lat="45.1198" lon="5.37424">
        <ele>735.55</ele>
        <time>2021-10-28T07:46:15Z</time>
      </trkpt>
      <trkpt lat="45.11974" lon="5.37426">
        <ele>738.43</ele>
        <time>2021-10-28T07:46:32Z</time>
      </trkpt>
      <trkpt lat="45.11966" lon="5.37425">
        <ele>740.35</ele>
        <time>2021-10-28T07:46:49Z</time>
      </trkpt>
      <trkpt lat="45.11965" lon="5.37428">
        <ele>741.79</ele>
        <time>2021-10-28T07:47:05Z</time>
      </trkpt>
      <trkpt lat="45.11971" lon="5.3743">
        <ele>746.6</ele>
        <time>2021-10-28T07:50:29Z</time>
      </trkpt>
      <trkpt lat="45.11977" lon="5.37435">
        <ele>748.52</ele>
        <time>2021-10-28T07:50:44Z</time>
      </trkpt>
      <trkpt lat="45.11985" lon="5.37444">
        <ele>750.45</ele>
        <time>2021-10-28T07:51:00Z</time>
      </trkpt>
      <trkpt lat="45.11992" lon="5.37453">
        <ele>753.81</ele>
        <time>2021-10-28T07:51:16Z</time>
      </trkpt>
      <trkpt lat="45.12001" lon="5.37462">
        <ele>755.25</ele>
        <time>2021-10-28T07:51:33Z</time>
      </trkpt>
      <trkpt lat="45.1201" lon="5.37472">
        <ele>757.18</ele>
        <time>2021-10-28T07:51:49Z</time>
      </trkpt>
      <trkpt lat="45.12017" lon="5.37478">
        <ele>758.62</ele>
        <time>2021-10-28T07:52:03Z</time>
      </trkpt>
      <trkpt lat="45.12024" lon="5.3748">
        <ele>758.62</ele>
        <time>2021-10-28T07:52:19Z</time>
      </trkpt>
      <trkpt lat="45.12035" lon="5.37485">
        <ele>758.62</ele>
        <time>2021-10-28T07:52:34Z</time>
      </trkpt>
      <trkpt lat="45.12047" lon="5.37495">
        <ele>759.1</ele>
        <time>2021-10-28T07:52:49Z</time>
      </trkpt>
      <trkpt lat="45.1206" lon="5.37503">
        <ele>759.58</ele>
        <time>2021-10-28T07:53:07Z</time>
      </trkpt>
      <trkpt lat="45.12073" lon="5.37513">
        <ele>761.5</ele>
        <time>2021-10-28T07:53:24Z</time>
      </trkpt>
      <trkpt lat="45.12085" lon="5.37521">
        <ele>761.5</ele>
        <time>2021-10-28T07:53:40Z</time>
      </trkpt>
      <trkpt lat="45.12096" lon="5.37533">
        <ele>762.94</ele>
        <time>2021-10-28T07:53:56Z</time>
      </trkpt>
      <trkpt lat="45.12107" lon="5.37543">
        <ele>765.35</ele>
        <time>2021-10-28T07:54:11Z</time>
      </trkpt>
      <trkpt lat="45.12118" lon="5.37551">
        <ele>766.31</ele>
        <time>2021-10-28T07:54:28Z</time>
      </trkpt>
      <trkpt lat="45.1213" lon="5.37558">
        <ele>766.79</ele>
        <time>2021-10-28T07:54:44Z</time>
      </trkpt>
      <trkpt lat="45.12137" lon="5.37567">
        <ele>768.23</ele>
        <time>2021-10-28T07:54:58Z</time>
      </trkpt>
      <trkpt lat="45.12146" lon="5.37577">
        <ele>769.19</ele>
        <time>2021-10-28T07:55:14Z</time>
      </trkpt>
      <trkpt lat="45.12157" lon="5.37593">
        <ele>770.63</ele>
        <time>2021-10-28T07:55:30Z</time>
      </trkpt>
      <trkpt lat="45.12165" lon="5.37603">
        <ele>773.04</ele>
        <time>2021-10-28T07:55:48Z</time>
      </trkpt>
      <trkpt lat="45.12174" lon="5.37613">
        <ele>773.04</ele>
        <time>2021-10-28T07:56:03Z</time>
      </trkpt>
      <trkpt lat="45.12183" lon="5.37618">
        <ele>774</ele>
        <time>2021-10-28T07:56:19Z</time>
      </trkpt>
      <trkpt lat="45.12184" lon="5.37619">
        <ele>772.56</ele>
        <time>2021-10-28T07:56:21Z</time>
      </trkpt>
      <trkpt lat="45.12195" lon="5.37629">
        <ele>770.63</ele>
        <time>2021-10-28T07:56:37Z</time>
      </trkpt>
      <trkpt lat="45.12204" lon="5.37638">
        <ele>771.6</ele>
        <time>2021-10-28T07:56:51Z</time>
      </trkpt>
      <trkpt lat="45.12213" lon="5.37654">
        <ele>772.08</ele>
        <time>2021-10-28T07:57:07Z</time>
      </trkpt>
      <trkpt lat="45.12224" lon="5.3766">
        <ele>772.08</ele>
        <time>2021-10-28T07:57:21Z</time>
      </trkpt>
      <trkpt lat="45.12235" lon="5.37672">
        <ele>772.08</ele>
        <time>2021-10-28T07:57:37Z</time>
      </trkpt>
      <trkpt lat="45.12237" lon="5.37674">
        <ele>770.63</ele>
        <time>2021-10-28T07:57:39Z</time>
      </trkpt>
      <trkpt lat="45.12246" lon="5.37687">
        <ele>768.71</ele>
        <time>2021-10-28T07:57:53Z</time>
      </trkpt>
      <trkpt lat="45.12252" lon="5.37703">
        <ele>766.31</ele>
        <time>2021-10-28T07:58:10Z</time>
      </trkpt>
      <trkpt lat="45.12256" lon="5.37722">
        <ele>768.23</ele>
        <time>2021-10-28T07:58:25Z</time>
      </trkpt>
      <trkpt lat="45.12257" lon="5.37734">
        <ele>768.71</ele>
        <time>2021-10-28T07:58:40Z</time>
      </trkpt>
      <trkpt lat="45.12265" lon="5.3775">
        <ele>768.71</ele>
        <time>2021-10-28T07:58:55Z</time>
      </trkpt>
      <trkpt lat="45.12276" lon="5.37757">
        <ele>768.71</ele>
        <time>2021-10-28T07:59:10Z</time>
      </trkpt>
      <trkpt lat="45.12292" lon="5.37769">
        <ele>770.63</ele>
        <time>2021-10-28T07:59:24Z</time>
      </trkpt>
      <trkpt lat="45.12295" lon="5.3778">
        <ele>772.56</ele>
        <time>2021-10-28T07:59:38Z</time>
      </trkpt>
      <trkpt lat="45.12296" lon="5.37799">
        <ele>772.56</ele>
        <time>2021-10-28T07:59:53Z</time>
      </trkpt>
      <trkpt lat="45.12299" lon="5.37816">
        <ele>772.56</ele>
        <time>2021-10-28T08:00:08Z</time>
      </trkpt>
      <trkpt lat="45.12305" lon="5.3784">
        <ele>773.52</ele>
        <time>2021-10-28T08:00:24Z</time>
      </trkpt>
      <trkpt lat="45.12311" lon="5.37856">
        <ele>774.96</ele>
        <time>2021-10-28T08:00:38Z</time>
      </trkpt>
      <trkpt lat="45.12322" lon="5.37875">
        <ele>776.4</ele>
        <time>2021-10-28T08:00:54Z</time>
      </trkpt>
      <trkpt lat="45.12334" lon="5.37886">
        <ele>779.29</ele>
        <time>2021-10-28T08:01:10Z</time>
      </trkpt>
      <trkpt lat="45.12341" lon="5.37892">
        <ele>780.73</ele>
        <time>2021-10-28T08:01:24Z</time>
      </trkpt>
      <trkpt lat="45.12353" lon="5.37896">
        <ele>784.09</ele>
        <time>2021-10-28T08:01:40Z</time>
      </trkpt>
      <trkpt lat="45.12365" lon="5.37901">
        <ele>786.02</ele>
        <time>2021-10-28T08:01:54Z</time>
      </trkpt>
      <trkpt lat="45.12375" lon="5.37909">
        <ele>789.38</ele>
        <time>2021-10-28T08:02:10Z</time>
      </trkpt>
      <trkpt lat="45.12371" lon="5.37922">
        <ele>791.78</ele>
        <time>2021-10-28T08:02:29Z</time>
      </trkpt>
      <trkpt lat="45.12363" lon="5.37929">
        <ele>793.71</ele>
        <time>2021-10-28T08:02:44Z</time>
      </trkpt>
      <trkpt lat="45.12352" lon="5.37936">
        <ele>795.63</ele>
        <time>2021-10-28T08:02:59Z</time>
      </trkpt>
      <trkpt lat="45.12341" lon="5.37943">
        <ele>796.59</ele>
        <time>2021-10-28T08:03:14Z</time>
      </trkpt>
      <trkpt lat="45.12332" lon="5.37954">
        <ele>799.47</ele>
        <time>2021-10-28T08:03:28Z</time>
      </trkpt>
      <trkpt lat="45.12323" lon="5.37961">
        <ele>801.4</ele>
        <time>2021-10-28T08:03:40Z</time>
      </trkpt>
      <trkpt lat="45.12313" lon="5.37971">
        <ele>803.8</ele>
        <time>2021-10-28T08:03:57Z</time>
      </trkpt>
      <trkpt lat="45.12303" lon="5.37978">
        <ele>805.72</ele>
        <time>2021-10-28T08:04:11Z</time>
      </trkpt>
      <trkpt lat="45.12296" lon="5.37992">
        <ele>808.61</ele>
        <time>2021-10-28T08:04:29Z</time>
      </trkpt>
      <trkpt lat="45.12288" lon="5.38004">
        <ele>811.01</ele>
        <time>2021-10-28T08:04:43Z</time>
      </trkpt>
      <trkpt lat="45.12286" lon="5.3801">
        <ele>812.93</ele>
        <time>2021-10-28T08:04:57Z</time>
      </trkpt>
      <trkpt lat="45.12285" lon="5.38012">
        <ele>813.41</ele>
        <time>2021-10-28T08:05:13Z</time>
      </trkpt>
      <trkpt lat="45.12283" lon="5.38024">
        <ele>813.41</ele>
        <time>2021-10-28T08:05:36Z</time>
      </trkpt>
      <trkpt lat="45.12288" lon="5.38033">
        <ele>811.97</ele>
        <time>2021-10-28T08:05:49Z</time>
      </trkpt>
      <trkpt lat="45.12293" lon="5.38039">
        <ele>811.01</ele>
        <time>2021-10-28T08:06:05Z</time>
      </trkpt>
      <trkpt lat="45.12296" lon="5.38041">
        <ele>812.45</ele>
        <time>2021-10-28T08:06:12Z</time>
      </trkpt>
      <trkpt lat="45.12306" lon="5.38043">
        <ele>813.41</ele>
        <time>2021-10-28T08:06:27Z</time>
      </trkpt>
      <trkpt lat="45.12319" lon="5.38046">
        <ele>815.82</ele>
        <time>2021-10-28T08:06:42Z</time>
      </trkpt>
      <trkpt lat="45.1233" lon="5.38048">
        <ele>817.74</ele>
        <time>2021-10-28T08:06:57Z</time>
      </trkpt>
      <trkpt lat="45.12343" lon="5.38055">
        <ele>818.7</ele>
        <time>2021-10-28T08:07:13Z</time>
      </trkpt>
      <trkpt lat="45.12355" lon="5.38067">
        <ele>820.62</ele>
        <time>2021-10-28T08:07:28Z</time>
      </trkpt>
      <trkpt lat="45.12363" lon="5.38082">
        <ele>823.51</ele>
        <time>2021-10-28T08:07:44Z</time>
      </trkpt>
      <trkpt lat="45.1237" lon="5.38096">
        <ele>824.95</ele>
        <time>2021-10-28T08:07:59Z</time>
      </trkpt>
      <trkpt lat="45.12374" lon="5.38109">
        <ele>827.83</ele>
        <time>2021-10-28T08:08:14Z</time>
      </trkpt>
      <trkpt lat="45.12379" lon="5.38121">
        <ele>830.24</ele>
        <time>2021-10-28T08:08:28Z</time>
      </trkpt>
      <trkpt lat="45.12386" lon="5.38132">
        <ele>832.64</ele>
        <time>2021-10-28T08:08:46Z</time>
      </trkpt>
      <trkpt lat="45.12394" lon="5.38146">
        <ele>834.08</ele>
        <time>2021-10-28T08:09:03Z</time>
      </trkpt>
      <trkpt lat="45.12403" lon="5.38163">
        <ele>835.04</ele>
        <time>2021-10-28T08:09:20Z</time>
      </trkpt>
      <trkpt lat="45.12409" lon="5.38178">
        <ele>836.48</ele>
        <time>2021-10-28T08:09:35Z</time>
      </trkpt>
      <trkpt lat="45.12411" lon="5.38195">
        <ele>839.37</ele>
        <time>2021-10-28T08:09:50Z</time>
      </trkpt>
      <trkpt lat="45.1241" lon="5.38216">
        <ele>842.25</ele>
        <time>2021-10-28T08:10:08Z</time>
      </trkpt>
      <trkpt lat="45.12409" lon="5.38229">
        <ele>845.14</ele>
        <time>2021-10-28T08:10:24Z</time>
      </trkpt>
      <trkpt lat="45.124" lon="5.38233">
        <ele>847.54</ele>
        <time>2021-10-28T08:10:42Z</time>
      </trkpt>
      <trkpt lat="45.12388" lon="5.38236">
        <ele>850.9</ele>
        <time>2021-10-28T08:11:00Z</time>
      </trkpt>
      <trkpt lat="45.12375" lon="5.38236">
        <ele>852.35</ele>
        <time>2021-10-28T08:11:18Z</time>
      </trkpt>
      <trkpt lat="45.12363" lon="5.38234">
        <ele>853.79</ele>
        <time>2021-10-28T08:11:35Z</time>
      </trkpt>
      <trkpt lat="45.1235" lon="5.38232">
        <ele>855.71</ele>
        <time>2021-10-28T08:11:52Z</time>
      </trkpt>
      <trkpt lat="45.12339" lon="5.3823">
        <ele>857.15</ele>
        <time>2021-10-28T08:12:08Z</time>
      </trkpt>
      <trkpt lat="45.1233" lon="5.38233">
        <ele>859.08</ele>
        <time>2021-10-28T08:12:22Z</time>
      </trkpt>
      <trkpt lat="45.12327" lon="5.38245">
        <ele>861</ele>
        <time>2021-10-28T08:12:37Z</time>
      </trkpt>
      <trkpt lat="45.12327" lon="5.38257">
        <ele>862.92</ele>
        <time>2021-10-28T08:12:53Z</time>
      </trkpt>
      <trkpt lat="45.12327" lon="5.38269">
        <ele>863.88</ele>
        <time>2021-10-28T08:13:07Z</time>
      </trkpt>
      <trkpt lat="45.12327" lon="5.38271">
        <ele>866.29</ele>
        <time>2021-10-28T08:17:14Z</time>
      </trkpt>
      <trkpt lat="45.12329" lon="5.38271">
        <ele>866.29</ele>
        <time>2021-10-28T08:17:38Z</time>
      </trkpt>
      <trkpt lat="45.12341" lon="5.38279">
        <ele>864.36</ele>
        <time>2021-10-28T08:17:55Z</time>
      </trkpt>
      <trkpt lat="45.12355" lon="5.3829">
        <ele>863.4</ele>
        <time>2021-10-28T08:18:12Z</time>
      </trkpt>
      <trkpt lat="45.1237" lon="5.383">
        <ele>862.92</ele>
        <time>2021-10-28T08:18:26Z</time>
      </trkpt>
      <trkpt lat="45.12382" lon="5.38308">
        <ele>862.92</ele>
        <time>2021-10-28T08:18:39Z</time>
      </trkpt>
      <trkpt lat="45.12386" lon="5.38311">
        <ele>862.92</ele>
        <time>2021-10-28T08:18:43Z</time>
      </trkpt>
      <trkpt lat="45.12396" lon="5.38318">
        <ele>862.92</ele>
        <time>2021-10-28T08:18:52Z</time>
      </trkpt>
      <trkpt lat="45.12411" lon="5.38328">
        <ele>862.92</ele>
        <time>2021-10-28T08:19:08Z</time>
      </trkpt>
      <trkpt lat="45.12421" lon="5.38327">
        <ele>861.96</ele>
        <time>2021-10-28T08:19:23Z</time>
      </trkpt>
      <trkpt lat="45.12432" lon="5.38333">
        <ele>861</ele>
        <time>2021-10-28T08:19:37Z</time>
      </trkpt>
      <trkpt lat="45.12444" lon="5.38338">
        <ele>859.08</ele>
        <time>2021-10-28T08:19:53Z</time>
      </trkpt>
      <trkpt lat="45.12458" lon="5.38345">
        <ele>856.19</ele>
        <time>2021-10-28T08:20:09Z</time>
      </trkpt>
      <trkpt lat="45.12473" lon="5.38351">
        <ele>853.79</ele>
        <time>2021-10-28T08:20:25Z</time>
      </trkpt>
      <trkpt lat="45.12489" lon="5.38359">
        <ele>850.9</ele>
        <time>2021-10-28T08:20:41Z</time>
      </trkpt>
      <trkpt lat="45.12501" lon="5.38369">
        <ele>848.02</ele>
        <time>2021-10-28T08:20:55Z</time>
      </trkpt>
      <trkpt lat="45.12515" lon="5.38375">
        <ele>845.14</ele>
        <time>2021-10-28T08:21:11Z</time>
      </trkpt>
      <trkpt lat="45.12528" lon="5.38384">
        <ele>841.77</ele>
        <time>2021-10-28T08:21:23Z</time>
      </trkpt>
      <trkpt lat="45.1254" lon="5.38398">
        <ele>839.37</ele>
        <time>2021-10-28T08:21:40Z</time>
      </trkpt>
      <trkpt lat="45.12547" lon="5.3842">
        <ele>836.96</ele>
        <time>2021-10-28T08:21:56Z</time>
      </trkpt>
      <trkpt lat="45.12552" lon="5.38441">
        <ele>835.04</ele>
        <time>2021-10-28T08:22:11Z</time>
      </trkpt>
      <trkpt lat="45.12555" lon="5.38454">
        <ele>832.64</ele>
        <time>2021-10-28T08:22:25Z</time>
      </trkpt>
      <trkpt lat="45.12561" lon="5.3847">
        <ele>829.27</ele>
        <time>2021-10-28T08:22:40Z</time>
      </trkpt>
      <trkpt lat="45.12569" lon="5.38491">
        <ele>826.39</ele>
        <time>2021-10-28T08:22:56Z</time>
      </trkpt>
      <trkpt lat="45.12573" lon="5.38507">
        <ele>823.51</ele>
        <time>2021-10-28T08:23:11Z</time>
      </trkpt>
      <trkpt lat="45.1258" lon="5.38522">
        <ele>820.62</ele>
        <time>2021-10-28T08:23:25Z</time>
      </trkpt>
      <trkpt lat="45.12585" lon="5.38539">
        <ele>817.26</ele>
        <time>2021-10-28T08:23:41Z</time>
      </trkpt>
      <trkpt lat="45.12592" lon="5.38554">
        <ele>813.89</ele>
        <time>2021-10-28T08:23:55Z</time>
      </trkpt>
      <trkpt lat="45.12597" lon="5.38571">
        <ele>811.49</ele>
        <time>2021-10-28T08:24:11Z</time>
      </trkpt>
      <trkpt lat="45.12599" lon="5.38585">
        <ele>809.57</ele>
        <time>2021-10-28T08:24:25Z</time>
      </trkpt>
      <trkpt lat="45.12602" lon="5.386">
        <ele>806.68</ele>
        <time>2021-10-28T08:24:40Z</time>
      </trkpt>
      <trkpt lat="45.12609" lon="5.38614">
        <ele>803.8</ele>
        <time>2021-10-28T08:24:53Z</time>
      </trkpt>
      <trkpt lat="45.12615" lon="5.38631">
        <ele>801.4</ele>
        <time>2021-10-28T08:25:09Z</time>
      </trkpt>
      <trkpt lat="45.12612" lon="5.3865">
        <ele>798.99</ele>
        <time>2021-10-28T08:25:26Z</time>
      </trkpt>
      <trkpt lat="45.12611" lon="5.38667">
        <ele>796.59</ele>
        <time>2021-10-28T08:25:40Z</time>
      </trkpt>
      <trkpt lat="45.12608" lon="5.38689">
        <ele>793.71</ele>
        <time>2021-10-28T08:25:56Z</time>
      </trkpt>
      <trkpt lat="45.12605" lon="5.38702">
        <ele>793.22</ele>
        <time>2021-10-28T08:26:12Z</time>
      </trkpt>
      <trkpt lat="45.126" lon="5.38713">
        <ele>793.22</ele>
        <time>2021-10-28T08:26:27Z</time>
      </trkpt>
      <trkpt lat="45.12604" lon="5.38734">
        <ele>792.74</ele>
        <time>2021-10-28T08:26:44Z</time>
      </trkpt>
      <trkpt lat="45.12609" lon="5.38756">
        <ele>794.19</ele>
        <time>2021-10-28T08:26:59Z</time>
      </trkpt>
      <trkpt lat="45.12615" lon="5.38778">
        <ele>794.19</ele>
        <time>2021-10-28T08:27:16Z</time>
      </trkpt>
      <trkpt lat="45.12616" lon="5.38791">
        <ele>794.67</ele>
        <time>2021-10-28T08:27:28Z</time>
      </trkpt>
      <trkpt lat="45.12618" lon="5.38807">
        <ele>795.63</ele>
        <time>2021-10-28T08:27:40Z</time>
      </trkpt>
      <trkpt lat="45.12617" lon="5.38833">
        <ele>796.11</ele>
        <time>2021-10-28T08:27:54Z</time>
      </trkpt>
      <trkpt lat="45.12615" lon="5.38854">
        <ele>796.59</ele>
        <time>2021-10-28T08:28:09Z</time>
      </trkpt>
      <trkpt lat="45.12613" lon="5.38855">
        <ele>797.07</ele>
        <time>2021-10-28T08:28:55Z</time>
      </trkpt>
      <trkpt lat="45.12609" lon="5.38864">
        <ele>797.55</ele>
        <time>2021-10-28T08:29:10Z</time>
      </trkpt>
      <trkpt lat="45.12608" lon="5.38866">
        <ele>796.11</ele>
        <time>2021-10-28T08:29:13Z</time>
      </trkpt>
      <trkpt lat="45.12607" lon="5.38875">
        <ele>794.19</ele>
        <time>2021-10-28T08:29:28Z</time>
      </trkpt>
      <trkpt lat="45.12609" lon="5.38885">
        <ele>791.3</ele>
        <time>2021-10-28T08:29:47Z</time>
      </trkpt>
      <trkpt lat="45.12614" lon="5.38885">
        <ele>789.38</ele>
        <time>2021-10-28T08:30:07Z</time>
      </trkpt>
      <trkpt lat="45.12622" lon="5.38876">
        <ele>791.78</ele>
        <time>2021-10-28T08:30:26Z</time>
      </trkpt>
      <trkpt lat="45.12629" lon="5.38869">
        <ele>793.71</ele>
        <time>2021-10-28T08:30:40Z</time>
      </trkpt>
      <trkpt lat="45.12635" lon="5.38865">
        <ele>794.67</ele>
        <time>2021-10-28T08:30:55Z</time>
      </trkpt>
      <trkpt lat="45.12639" lon="5.38863">
        <ele>796.11</ele>
        <time>2021-10-28T08:31:12Z</time>
      </trkpt>
      <trkpt lat="45.12637" lon="5.38854">
        <ele>796.11</ele>
        <time>2021-10-28T08:31:36Z</time>
      </trkpt>
      <trkpt lat="45.12641" lon="5.38848">
        <ele>795.15</ele>
        <time>2021-10-28T08:31:49Z</time>
      </trkpt>
      <trkpt lat="45.12646" lon="5.38833">
        <ele>793.71</ele>
        <time>2021-10-28T08:32:03Z</time>
      </trkpt>
      <trkpt lat="45.12651" lon="5.38821">
        <ele>791.78</ele>
        <time>2021-10-28T08:32:18Z</time>
      </trkpt>
      <trkpt lat="45.12651" lon="5.3882">
        <ele>791.3</ele>
        <time>2021-10-28T08:32:19Z</time>
      </trkpt>
      <trkpt lat="45.12652" lon="5.38805">
        <ele>790.34</ele>
        <time>2021-10-28T08:32:34Z</time>
      </trkpt>
      <trkpt lat="45.12651" lon="5.38776">
        <ele>790.34</ele>
        <time>2021-10-28T08:32:48Z</time>
      </trkpt>
      <trkpt lat="45.12649" lon="5.3876">
        <ele>791.3</ele>
        <time>2021-10-28T08:33:00Z</time>
      </trkpt>
      <trkpt lat="45.12647" lon="5.38758">
        <ele>791.3</ele>
        <time>2021-10-28T08:33:01Z</time>
      </trkpt>
      <trkpt lat="45.12651" lon="5.38743">
        <ele>791.78</ele>
        <time>2021-10-28T08:33:19Z</time>
      </trkpt>
      <trkpt lat="45.12654" lon="5.38735">
        <ele>791.78</ele>
        <time>2021-10-28T08:33:37Z</time>
      </trkpt>
      <trkpt lat="45.12663" lon="5.3872">
        <ele>791.78</ele>
        <time>2021-10-28T08:33:52Z</time>
      </trkpt>
      <trkpt lat="45.12676" lon="5.38703">
        <ele>790.34</ele>
        <time>2021-10-28T08:34:08Z</time>
      </trkpt>
      <trkpt lat="45.12688" lon="5.38687">
        <ele>789.38</ele>
        <time>2021-10-28T08:34:23Z</time>
      </trkpt>
      <trkpt lat="45.12695" lon="5.38661">
        <ele>786.98</ele>
        <time>2021-10-28T08:34:38Z</time>
      </trkpt>
      <trkpt lat="45.12697" lon="5.38647">
        <ele>785.05</ele>
        <time>2021-10-28T08:34:52Z</time>
      </trkpt>
      <trkpt lat="45.1269" lon="5.38633">
        <ele>786.02</ele>
        <time>2021-10-28T08:35:05Z</time>
      </trkpt>
      <trkpt lat="45.12686" lon="5.38615">
        <ele>788.9</ele>
        <time>2021-10-28T08:35:21Z</time>
      </trkpt>
      <trkpt lat="45.12688" lon="5.38602">
        <ele>790.34</ele>
        <time>2021-10-28T08:35:34Z</time>
      </trkpt>
      <trkpt lat="45.1269" lon="5.38584">
        <ele>792.26</ele>
        <time>2021-10-28T08:35:48Z</time>
      </trkpt>
      <trkpt lat="45.12691" lon="5.38572">
        <ele>793.71</ele>
        <time>2021-10-28T08:35:59Z</time>
      </trkpt>
      <trkpt lat="45.12694" lon="5.3855">
        <ele>796.11</ele>
        <time>2021-10-28T08:36:15Z</time>
      </trkpt>
      <trkpt lat="45.12706" lon="5.38524">
        <ele>797.55</ele>
        <time>2021-10-28T08:36:39Z</time>
      </trkpt>
      <trkpt lat="45.12714" lon="5.38513">
        <ele>798.51</ele>
        <time>2021-10-28T08:36:51Z</time>
      </trkpt>
      <trkpt lat="45.12722" lon="5.38502">
        <ele>799.95</ele>
        <time>2021-10-28T08:37:05Z</time>
      </trkpt>
      <trkpt lat="45.12733" lon="5.38495">
        <ele>801.4</ele>
        <time>2021-10-28T08:37:19Z</time>
      </trkpt>
      <trkpt lat="45.12747" lon="5.3849">
        <ele>802.36</ele>
        <time>2021-10-28T08:37:34Z</time>
      </trkpt>
      <trkpt lat="45.12759" lon="5.38492">
        <ele>803.32</ele>
        <time>2021-10-28T08:37:48Z</time>
      </trkpt>
      <trkpt lat="45.12773" lon="5.38496">
        <ele>804.76</ele>
        <time>2021-10-28T08:38:04Z</time>
      </trkpt>
      <trkpt lat="45.12788" lon="5.38503">
        <ele>806.2</ele>
        <time>2021-10-28T08:38:21Z</time>
      </trkpt>
      <trkpt lat="45.12804" lon="5.3851">
        <ele>807.16</ele>
        <time>2021-10-28T08:38:37Z</time>
      </trkpt>
      <trkpt lat="45.12818" lon="5.38517">
        <ele>808.61</ele>
        <time>2021-10-28T08:38:52Z</time>
      </trkpt>
      <trkpt lat="45.12833" lon="5.38525">
        <ele>810.53</ele>
        <time>2021-10-28T08:39:08Z</time>
      </trkpt>
      <trkpt lat="45.1285" lon="5.38538">
        <ele>811.97</ele>
        <time>2021-10-28T08:39:23Z</time>
      </trkpt>
      <trkpt lat="45.1286" lon="5.38551">
        <ele>812.93</ele>
        <time>2021-10-28T08:39:38Z</time>
      </trkpt>
      <trkpt lat="45.12866" lon="5.38559">
        <ele>812.93</ele>
        <time>2021-10-28T08:39:46Z</time>
      </trkpt>
      <trkpt lat="45.12876" lon="5.38574">
        <ele>813.41</ele>
        <time>2021-10-28T08:40:01Z</time>
      </trkpt>
      <trkpt lat="45.12888" lon="5.38592">
        <ele>813.89</ele>
        <time>2021-10-28T08:40:18Z</time>
      </trkpt>
      <trkpt lat="45.129" lon="5.38608">
        <ele>813.89</ele>
        <time>2021-10-28T08:40:35Z</time>
      </trkpt>
      <trkpt lat="45.12911" lon="5.38624">
        <ele>814.37</ele>
        <time>2021-10-28T08:40:50Z</time>
      </trkpt>
      <trkpt lat="45.12924" lon="5.38642">
        <ele>814.37</ele>
        <time>2021-10-28T08:41:04Z</time>
      </trkpt>
      <trkpt lat="45.12932" lon="5.38662">
        <ele>814.37</ele>
        <time>2021-10-28T08:41:19Z</time>
      </trkpt>
      <trkpt lat="45.1294" lon="5.3868">
        <ele>814.37</ele>
        <time>2021-10-28T08:41:36Z</time>
      </trkpt>
      <trkpt lat="45.12943" lon="5.38697">
        <ele>812.93</ele>
        <time>2021-10-28T08:41:59Z</time>
      </trkpt>
      <trkpt lat="45.1294" lon="5.38699">
        <ele>813.41</ele>
        <time>2021-10-28T08:42:24Z</time>
      </trkpt>
      <trkpt lat="45.12942" lon="5.38698">
        <ele>813.41</ele>
        <time>2021-10-28T08:42:50Z</time>
      </trkpt>
      <trkpt lat="45.12939" lon="5.38694">
        <ele>815.34</ele>
        <time>2021-10-28T08:43:05Z</time>
      </trkpt>
      <trkpt lat="45.12933" lon="5.38682">
        <ele>816.78</ele>
        <time>2021-10-28T08:43:23Z</time>
      </trkpt>
      <trkpt lat="45.12927" lon="5.38671">
        <ele>818.7</ele>
        <time>2021-10-28T08:43:37Z</time>
      </trkpt>
      <trkpt lat="45.12917" lon="5.38661">
        <ele>820.14</ele>
        <time>2021-10-28T08:43:51Z</time>
      </trkpt>
      <trkpt lat="45.12906" lon="5.38653">
        <ele>822.06</ele>
        <time>2021-10-28T08:44:05Z</time>
      </trkpt>
      <trkpt lat="45.12896" lon="5.38645">
        <ele>824.47</ele>
        <time>2021-10-28T08:44:19Z</time>
      </trkpt>
      <trkpt lat="45.12884" lon="5.3864">
        <ele>826.39</ele>
        <time>2021-10-28T08:44:35Z</time>
      </trkpt>
      <trkpt lat="45.1287" lon="5.38636">
        <ele>828.79</ele>
        <time>2021-10-28T08:44:50Z</time>
      </trkpt>
      <trkpt lat="45.12858" lon="5.38638">
        <ele>831.68</ele>
        <time>2021-10-28T08:45:07Z</time>
      </trkpt>
      <trkpt lat="45.12844" lon="5.38646">
        <ele>833.6</ele>
        <time>2021-10-28T08:45:21Z</time>
      </trkpt>
      <trkpt lat="45.12835" lon="5.38653">
        <ele>835.52</ele>
        <time>2021-10-28T08:45:34Z</time>
      </trkpt>
      <trkpt lat="45.12825" lon="5.38661">
        <ele>837.93</ele>
        <time>2021-10-28T08:45:49Z</time>
      </trkpt>
      <trkpt lat="45.12814" lon="5.38671">
        <ele>839.85</ele>
        <time>2021-10-28T08:46:06Z</time>
      </trkpt>
      <trkpt lat="45.12804" lon="5.3868">
        <ele>841.77</ele>
        <time>2021-10-28T08:46:21Z</time>
      </trkpt>
      <trkpt lat="45.12791" lon="5.3869">
        <ele>843.21</ele>
        <time>2021-10-28T08:46:37Z</time>
      </trkpt>
      <trkpt lat="45.12779" lon="5.387">
        <ele>844.66</ele>
        <time>2021-10-28T08:46:54Z</time>
      </trkpt>
      <trkpt lat="45.12768" lon="5.38709">
        <ele>847.06</ele>
        <time>2021-10-28T08:47:11Z</time>
      </trkpt>
      <trkpt lat="45.12761" lon="5.38721">
        <ele>848.02</ele>
        <time>2021-10-28T08:47:25Z</time>
      </trkpt>
      <trkpt lat="45.12751" lon="5.38735">
        <ele>849.94</ele>
        <time>2021-10-28T08:47:40Z</time>
      </trkpt>
      <trkpt lat="45.12751" lon="5.38746">
        <ele>851.87</ele>
        <time>2021-10-28T08:47:54Z</time>
      </trkpt>
      <trkpt lat="45.12757" lon="5.38761">
        <ele>854.27</ele>
        <time>2021-10-28T08:48:12Z</time>
      </trkpt>
      <trkpt lat="45.12763" lon="5.38774">
        <ele>855.71</ele>
        <time>2021-10-28T08:48:28Z</time>
      </trkpt>
      <trkpt lat="45.1277" lon="5.38789">
        <ele>858.11</ele>
        <time>2021-10-28T08:48:45Z</time>
      </trkpt>
      <trkpt lat="45.12772" lon="5.38802">
        <ele>860.04</ele>
        <time>2021-10-28T08:48:59Z</time>
      </trkpt>
      <trkpt lat="45.12773" lon="5.38818">
        <ele>861.96</ele>
        <time>2021-10-28T08:49:16Z</time>
      </trkpt>
      <trkpt lat="45.12773" lon="5.38834">
        <ele>864.84</ele>
        <time>2021-10-28T08:49:31Z</time>
      </trkpt>
      <trkpt lat="45.12773" lon="5.38853">
        <ele>866.77</ele>
        <time>2021-10-28T08:49:48Z</time>
      </trkpt>
      <trkpt lat="45.12776" lon="5.3887">
        <ele>869.17</ele>
        <time>2021-10-28T08:50:05Z</time>
      </trkpt>
      <trkpt lat="45.12779" lon="5.38891">
        <ele>871.09</ele>
        <time>2021-10-28T08:50:21Z</time>
      </trkpt>
      <trkpt lat="45.12784" lon="5.3891">
        <ele>873.01</ele>
        <time>2021-10-28T08:50:37Z</time>
      </trkpt>
      <trkpt lat="45.12791" lon="5.38926">
        <ele>874.46</ele>
        <time>2021-10-28T08:50:52Z</time>
      </trkpt>
      <trkpt lat="45.12783" lon="5.38932">
        <ele>876.38</ele>
        <time>2021-10-28T08:51:07Z</time>
      </trkpt>
      <trkpt lat="45.12777" lon="5.38932">
        <ele>877.82</ele>
        <time>2021-10-28T08:51:21Z</time>
      </trkpt>
      <trkpt lat="45.12764" lon="5.38933">
        <ele>879.26</ele>
        <time>2021-10-28T08:51:38Z</time>
      </trkpt>
      <trkpt lat="45.1275" lon="5.38935">
        <ele>881.67</ele>
        <time>2021-10-28T08:51:54Z</time>
      </trkpt>
      <trkpt lat="45.12736" lon="5.38937">
        <ele>882.63</ele>
        <time>2021-10-28T08:52:08Z</time>
      </trkpt>
      <trkpt lat="45.12724" lon="5.38944">
        <ele>885.03</ele>
        <time>2021-10-28T08:52:22Z</time>
      </trkpt>
      <trkpt lat="45.12724" lon="5.38951">
        <ele>885.99</ele>
        <time>2021-10-28T08:52:35Z</time>
      </trkpt>
      <trkpt lat="45.12734" lon="5.38969">
        <ele>887.43</ele>
        <time>2021-10-28T08:52:53Z</time>
      </trkpt>
      <trkpt lat="45.12742" lon="5.38983">
        <ele>889.36</ele>
        <time>2021-10-28T08:53:07Z</time>
      </trkpt>
      <trkpt lat="45.12751" lon="5.38994">
        <ele>891.28</ele>
        <time>2021-10-28T08:53:21Z</time>
      </trkpt>
      <trkpt lat="45.12762" lon="5.39007">
        <ele>893.2</ele>
        <time>2021-10-28T08:53:37Z</time>
      </trkpt>
      <trkpt lat="45.12765" lon="5.3901">
        <ele>893.2</ele>
        <time>2021-10-28T08:53:41Z</time>
      </trkpt>
      <trkpt lat="45.12776" lon="5.3902">
        <ele>894.64</ele>
        <time>2021-10-28T08:53:56Z</time>
      </trkpt>
      <trkpt lat="45.12787" lon="5.39032">
        <ele>896.57</ele>
        <time>2021-10-28T08:54:12Z</time>
      </trkpt>
      <trkpt lat="45.12799" lon="5.39047">
        <ele>898.49</ele>
        <time>2021-10-28T08:54:29Z</time>
      </trkpt>
      <trkpt lat="45.1281" lon="5.39062">
        <ele>900.41</ele>
        <time>2021-10-28T08:54:45Z</time>
      </trkpt>
      <trkpt lat="45.12822" lon="5.39074">
        <ele>902.33</ele>
        <time>2021-10-28T08:55:00Z</time>
      </trkpt>
      <trkpt lat="45.12832" lon="5.39086">
        <ele>904.26</ele>
        <time>2021-10-28T08:55:16Z</time>
      </trkpt>
      <trkpt lat="45.12842" lon="5.39101">
        <ele>906.18</ele>
        <time>2021-10-28T08:55:32Z</time>
      </trkpt>
      <trkpt lat="45.12848" lon="5.39108">
        <ele>907.14</ele>
        <time>2021-10-28T08:55:48Z</time>
      </trkpt>
      <trkpt lat="45.12859" lon="5.39124">
        <ele>909.06</ele>
        <time>2021-10-28T08:56:04Z</time>
      </trkpt>
      <trkpt lat="45.12868" lon="5.39139">
        <ele>910.99</ele>
        <time>2021-10-28T08:56:20Z</time>
      </trkpt>
      <trkpt lat="45.12876" lon="5.39152">
        <ele>912.91</ele>
        <time>2021-10-28T08:56:33Z</time>
      </trkpt>
      <trkpt lat="45.12887" lon="5.39169">
        <ele>914.83</ele>
        <time>2021-10-28T08:56:50Z</time>
      </trkpt>
      <trkpt lat="45.12897" lon="5.39187">
        <ele>916.27</ele>
        <time>2021-10-28T08:57:07Z</time>
      </trkpt>
      <trkpt lat="45.12905" lon="5.39204">
        <ele>918.2</ele>
        <time>2021-10-28T08:57:21Z</time>
      </trkpt>
      <trkpt lat="45.1291" lon="5.3921">
        <ele>918.68</ele>
        <time>2021-10-28T08:57:29Z</time>
      </trkpt>
      <trkpt lat="45.12918" lon="5.39225">
        <ele>920.12</ele>
        <time>2021-10-28T08:57:43Z</time>
      </trkpt>
      <trkpt lat="45.12924" lon="5.39243">
        <ele>922.52</ele>
        <time>2021-10-28T08:57:57Z</time>
      </trkpt>
      <trkpt lat="45.12931" lon="5.39258">
        <ele>923.48</ele>
        <time>2021-10-28T08:58:10Z</time>
      </trkpt>
      <trkpt lat="45.12937" lon="5.39274">
        <ele>925.41</ele>
        <time>2021-10-28T08:58:23Z</time>
      </trkpt>
      <trkpt lat="45.12944" lon="5.39291">
        <ele>927.33</ele>
        <time>2021-10-28T08:58:36Z</time>
      </trkpt>
      <trkpt lat="45.12954" lon="5.39306">
        <ele>928.29</ele>
        <time>2021-10-28T08:58:51Z</time>
      </trkpt>
      <trkpt lat="45.12957" lon="5.3931">
        <ele>928.77</ele>
        <time>2021-10-28T08:58:55Z</time>
      </trkpt>
      <trkpt lat="45.12966" lon="5.39325">
        <ele>931.17</ele>
        <time>2021-10-28T08:59:11Z</time>
      </trkpt>
      <trkpt lat="45.12974" lon="5.39339">
        <ele>932.62</ele>
        <time>2021-10-28T08:59:25Z</time>
      </trkpt>
      <trkpt lat="45.1298" lon="5.39355">
        <ele>934.06</ele>
        <time>2021-10-28T08:59:39Z</time>
      </trkpt>
      <trkpt lat="45.12983" lon="5.39358">
        <ele>934.06</ele>
        <time>2021-10-28T08:59:43Z</time>
      </trkpt>
      <trkpt lat="45.12991" lon="5.39372">
        <ele>935.98</ele>
        <time>2021-10-28T08:59:57Z</time>
      </trkpt>
      <trkpt lat="45.12999" lon="5.39391">
        <ele>938.38</ele>
        <time>2021-10-28T09:00:13Z</time>
      </trkpt>
      <trkpt lat="45.13008" lon="5.39406">
        <ele>939.83</ele>
        <time>2021-10-28T09:00:28Z</time>
      </trkpt>
      <trkpt lat="45.13016" lon="5.39416">
        <ele>940.79</ele>
        <time>2021-10-28T09:00:41Z</time>
      </trkpt>
      <trkpt lat="45.13027" lon="5.39428">
        <ele>942.71</ele>
        <time>2021-10-28T09:00:56Z</time>
      </trkpt>
      <trkpt lat="45.13036" lon="5.39441">
        <ele>944.63</ele>
        <time>2021-10-28T09:01:11Z</time>
      </trkpt>
      <trkpt lat="45.13045" lon="5.39454">
        <ele>946.56</ele>
        <time>2021-10-28T09:01:25Z</time>
      </trkpt>
      <trkpt lat="45.13054" lon="5.39466">
        <ele>948.48</ele>
        <time>2021-10-28T09:01:39Z</time>
      </trkpt>
      <trkpt lat="45.13056" lon="5.39481">
        <ele>949.92</ele>
        <time>2021-10-28T09:01:55Z</time>
      </trkpt>
      <trkpt lat="45.13051" lon="5.39483">
        <ele>951.84</ele>
        <time>2021-10-28T09:09:49Z</time>
      </trkpt>
      <trkpt lat="45.13045" lon="5.39485">
        <ele>951.84</ele>
        <time>2021-10-28T09:10:10Z</time>
      </trkpt>
      <trkpt lat="45.13031" lon="5.39489">
        <ele>951.84</ele>
        <time>2021-10-28T09:10:28Z</time>
      </trkpt>
      <trkpt lat="45.13021" lon="5.39489">
        <ele>951.84</ele>
        <time>2021-10-28T09:10:41Z</time>
      </trkpt>
      <trkpt lat="45.13009" lon="5.39486">
        <ele>951.84</ele>
        <time>2021-10-28T09:10:55Z</time>
      </trkpt>
      <trkpt lat="45.12997" lon="5.39484">
        <ele>952.8</ele>
        <time>2021-10-28T09:11:09Z</time>
      </trkpt>
      <trkpt lat="45.12984" lon="5.39482">
        <ele>953.77</ele>
        <time>2021-10-28T09:11:24Z</time>
      </trkpt>
      <trkpt lat="45.12965" lon="5.39483">
        <ele>954.73</ele>
        <time>2021-10-28T09:11:39Z</time>
      </trkpt>
      <trkpt lat="45.1295" lon="5.39487">
        <ele>955.21</ele>
        <time>2021-10-28T09:11:53Z</time>
      </trkpt>
      <trkpt lat="45.12934" lon="5.39495">
        <ele>956.65</ele>
        <time>2021-10-28T09:12:08Z</time>
      </trkpt>
      <trkpt lat="45.12916" lon="5.39506">
        <ele>957.61</ele>
        <time>2021-10-28T09:12:24Z</time>
      </trkpt>
      <trkpt lat="45.12903" lon="5.39521">
        <ele>957.61</ele>
        <time>2021-10-28T09:12:38Z</time>
      </trkpt>
      <trkpt lat="45.12891" lon="5.39544">
        <ele>959.05</ele>
        <time>2021-10-28T09:12:54Z</time>
      </trkpt>
      <trkpt lat="45.12883" lon="5.39558">
        <ele>957.61</ele>
        <time>2021-10-28T09:13:09Z</time>
      </trkpt>
      <trkpt lat="45.12877" lon="5.39578">
        <ele>957.13</ele>
        <time>2021-10-28T09:13:26Z</time>
      </trkpt>
      <trkpt lat="45.12874" lon="5.39598">
        <ele>957.13</ele>
        <time>2021-10-28T09:13:46Z</time>
      </trkpt>
      <trkpt lat="45.12872" lon="5.39611">
        <ele>957.13</ele>
        <time>2021-10-28T09:13:54Z</time>
      </trkpt>
      <trkpt lat="45.12871" lon="5.39619">
        <ele>957.13</ele>
        <time>2021-10-28T09:13:59Z</time>
      </trkpt>
      <trkpt lat="45.12871" lon="5.39636">
        <ele>958.57</ele>
        <time>2021-10-28T09:14:10Z</time>
      </trkpt>
      <trkpt lat="45.12878" lon="5.39642">
        <ele>958.57</ele>
        <time>2021-10-28T09:14:26Z</time>
      </trkpt>
      <trkpt lat="45.12878" lon="5.39642">
        <ele>958.57</ele>
        <time>2021-10-28T09:14:37Z</time>
      </trkpt>
      <trkpt lat="45.12891" lon="5.39656">
        <ele>956.65</ele>
        <time>2021-10-28T09:14:53Z</time>
      </trkpt>
      <trkpt lat="45.12897" lon="5.3968">
        <ele>955.21</ele>
        <time>2021-10-28T09:15:07Z</time>
      </trkpt>
      <trkpt lat="45.12902" lon="5.39705">
        <ele>953.28</ele>
        <time>2021-10-28T09:15:21Z</time>
      </trkpt>
      <trkpt lat="45.12907" lon="5.3973">
        <ele>952.32</ele>
        <time>2021-10-28T09:15:37Z</time>
      </trkpt>
      <trkpt lat="45.12913" lon="5.39753">
        <ele>951.84</ele>
        <time>2021-10-28T09:15:52Z</time>
      </trkpt>
      <trkpt lat="45.12922" lon="5.39778">
        <ele>951.84</ele>
        <time>2021-10-28T09:16:10Z</time>
      </trkpt>
      <trkpt lat="45.12929" lon="5.39805">
        <ele>951.84</ele>
        <time>2021-10-28T09:16:23Z</time>
      </trkpt>
      <trkpt lat="45.12938" lon="5.39824">
        <ele>951.84</ele>
        <time>2021-10-28T09:16:38Z</time>
      </trkpt>
      <trkpt lat="45.1295" lon="5.39846">
        <ele>951.84</ele>
        <time>2021-10-28T09:16:53Z</time>
      </trkpt>
      <trkpt lat="45.12961" lon="5.39865">
        <ele>950.88</ele>
        <time>2021-10-28T09:17:09Z</time>
      </trkpt>
      <trkpt lat="45.12972" lon="5.39882">
        <ele>950.4</ele>
        <time>2021-10-28T09:17:24Z</time>
      </trkpt>
      <trkpt lat="45.12986" lon="5.39892">
        <ele>948.96</ele>
        <time>2021-10-28T09:17:38Z</time>
      </trkpt>
      <trkpt lat="45.12992" lon="5.39876">
        <ele>950.4</ele>
        <time>2021-10-28T09:17:53Z</time>
      </trkpt>
      <trkpt lat="45.12992" lon="5.39875">
        <ele>950.4</ele>
        <time>2021-10-28T09:17:54Z</time>
      </trkpt>
      <trkpt lat="45.12991" lon="5.39869">
        <ele>950.4</ele>
        <time>2021-10-28T09:17:58Z</time>
      </trkpt>
      <trkpt lat="45.12991" lon="5.39859">
        <ele>950.4</ele>
        <time>2021-10-28T09:18:04Z</time>
      </trkpt>
      <trkpt lat="45.12991" lon="5.39847">
        <ele>950.4</ele>
        <time>2021-10-28T09:18:12Z</time>
      </trkpt>
      <trkpt lat="45.12995" lon="5.39825">
        <ele>950.88</ele>
        <time>2021-10-28T09:18:24Z</time>
      </trkpt>
      <trkpt lat="45.12994" lon="5.39814">
        <ele>950.88</ele>
        <time>2021-10-28T09:18:38Z</time>
      </trkpt>
      <trkpt lat="45.12996" lon="5.39811">
        <ele>950.88</ele>
        <time>2021-10-28T09:18:55Z</time>
      </trkpt>
      <trkpt lat="45.13002" lon="5.39798">
        <ele>949.92</ele>
        <time>2021-10-28T09:19:05Z</time>
      </trkpt>
      <trkpt lat="45.13007" lon="5.39791">
        <ele>948.96</ele>
        <time>2021-10-28T09:19:11Z</time>
      </trkpt>
      <trkpt lat="45.13018" lon="5.39775">
        <ele>947.52</ele>
        <time>2021-10-28T09:19:26Z</time>
      </trkpt>
      <trkpt lat="45.13021" lon="5.3977">
        <ele>947.04</ele>
        <time>2021-10-28T09:19:32Z</time>
      </trkpt>
      <trkpt lat="45.13032" lon="5.39764">
        <ele>946.07</ele>
        <time>2021-10-28T09:19:51Z</time>
      </trkpt>
      <trkpt lat="45.13034" lon="5.39764">
        <ele>946.07</ele>
        <time>2021-10-28T09:20:05Z</time>
      </trkpt>
      <trkpt lat="45.13036" lon="5.39767">
        <ele>947.52</ele>
        <time>2021-10-28T09:20:13Z</time>
      </trkpt>
      <trkpt lat="45.13034" lon="5.39779">
        <ele>949.44</ele>
        <time>2021-10-28T09:20:27Z</time>
      </trkpt>
      <trkpt lat="45.13033" lon="5.39792">
        <ele>951.84</ele>
        <time>2021-10-28T09:20:41Z</time>
      </trkpt>
      <trkpt lat="45.1303" lon="5.39805">
        <ele>954.25</ele>
        <time>2021-10-28T09:20:56Z</time>
      </trkpt>
      <trkpt lat="45.13026" lon="5.39817">
        <ele>956.65</ele>
        <time>2021-10-28T09:21:11Z</time>
      </trkpt>
      <trkpt lat="45.13024" lon="5.3983">
        <ele>959.53</ele>
        <time>2021-10-28T09:21:26Z</time>
      </trkpt>
      <trkpt lat="45.13025" lon="5.39847">
        <ele>961.94</ele>
        <time>2021-10-28T09:21:42Z</time>
      </trkpt>
      <trkpt lat="45.13032" lon="5.39861">
        <ele>964.82</ele>
        <time>2021-10-28T09:21:58Z</time>
      </trkpt>
      <trkpt lat="45.13035" lon="5.39874">
        <ele>967.22</ele>
        <time>2021-10-28T09:22:15Z</time>
      </trkpt>
      <trkpt lat="45.1304" lon="5.39886">
        <ele>969.63</ele>
        <time>2021-10-28T09:22:30Z</time>
      </trkpt>
      <trkpt lat="45.1305" lon="5.39899">
        <ele>972.03</ele>
        <time>2021-10-28T09:22:47Z</time>
      </trkpt>
      <trkpt lat="45.13053" lon="5.39909">
        <ele>973.95</ele>
        <time>2021-10-28T09:23:02Z</time>
      </trkpt>
      <trkpt lat="45.1306" lon="5.39914">
        <ele>975.88</ele>
        <time>2021-10-28T09:23:16Z</time>
      </trkpt>
      <trkpt lat="45.13071" lon="5.39922">
        <ele>978.76</ele>
        <time>2021-10-28T09:23:30Z</time>
      </trkpt>
      <trkpt lat="45.13081" lon="5.39928">
        <ele>981.16</ele>
        <time>2021-10-28T09:23:48Z</time>
      </trkpt>
      <trkpt lat="45.13092" lon="5.39937">
        <ele>984.05</ele>
        <time>2021-10-28T09:24:05Z</time>
      </trkpt>
      <trkpt lat="45.13097" lon="5.39949">
        <ele>986.93</ele>
        <time>2021-10-28T09:24:23Z</time>
      </trkpt>
      <trkpt lat="45.13102" lon="5.39963">
        <ele>989.81</ele>
        <time>2021-10-28T09:24:39Z</time>
      </trkpt>
      <trkpt lat="45.13112" lon="5.39974">
        <ele>992.22</ele>
        <time>2021-10-28T09:24:56Z</time>
      </trkpt>
      <trkpt lat="45.13119" lon="5.39984">
        <ele>994.62</ele>
        <time>2021-10-28T09:25:12Z</time>
      </trkpt>
      <trkpt lat="45.13126" lon="5.39998">
        <ele>997.51</ele>
        <time>2021-10-28T09:25:30Z</time>
      </trkpt>
      <trkpt lat="45.13134" lon="5.40008">
        <ele>999.91</ele>
        <time>2021-10-28T09:25:48Z</time>
      </trkpt>
      <trkpt lat="45.13143" lon="5.40013">
        <ele>1002.31</ele>
        <time>2021-10-28T09:26:03Z</time>
      </trkpt>
      <trkpt lat="45.13154" lon="5.40024">
        <ele>1004.23</ele>
        <time>2021-10-28T09:26:18Z</time>
      </trkpt>
      <trkpt lat="45.13164" lon="5.40038">
        <ele>1006.64</ele>
        <time>2021-10-28T09:26:38Z</time>
      </trkpt>
      <trkpt lat="45.13169" lon="5.40049">
        <ele>1008.56</ele>
        <time>2021-10-28T09:26:52Z</time>
      </trkpt>
      <trkpt lat="45.13177" lon="5.40058">
        <ele>1010</ele>
        <time>2021-10-28T09:27:06Z</time>
      </trkpt>
      <trkpt lat="45.1318" lon="5.40062">
        <ele>1010.48</ele>
        <time>2021-10-28T09:27:22Z</time>
      </trkpt>
      <trkpt lat="45.13183" lon="5.40074">
        <ele>1010.96</ele>
        <time>2021-10-28T09:27:44Z</time>
      </trkpt>
      <trkpt lat="45.13192" lon="5.4009">
        <ele>1013.37</ele>
        <time>2021-10-28T09:28:04Z</time>
      </trkpt>
      <trkpt lat="45.13199" lon="5.40106">
        <ele>1016.25</ele>
        <time>2021-10-28T09:28:22Z</time>
      </trkpt>
      <trkpt lat="45.13205" lon="5.40116">
        <ele>1018.17</ele>
        <time>2021-10-28T09:28:36Z</time>
      </trkpt>
      <trkpt lat="45.13213" lon="5.40129">
        <ele>1020.58</ele>
        <time>2021-10-28T09:28:53Z</time>
      </trkpt>
      <trkpt lat="45.13222" lon="5.40136">
        <ele>1022.98</ele>
        <time>2021-10-28T09:29:08Z</time>
      </trkpt>
      <trkpt lat="45.13231" lon="5.40143">
        <ele>1025.38</ele>
        <time>2021-10-28T09:29:23Z</time>
      </trkpt>
      <trkpt lat="45.13238" lon="5.40153">
        <ele>1027.79</ele>
        <time>2021-10-28T09:29:38Z</time>
      </trkpt>
      <trkpt lat="45.13245" lon="5.40163">
        <ele>1029.71</ele>
        <time>2021-10-28T09:29:54Z</time>
      </trkpt>
      <trkpt lat="45.13253" lon="5.40171">
        <ele>1032.11</ele>
        <time>2021-10-28T09:30:09Z</time>
      </trkpt>
      <trkpt lat="45.13256" lon="5.40174">
        <ele>1033.07</ele>
        <time>2021-10-28T09:30:29Z</time>
      </trkpt>
      <trkpt lat="45.13259" lon="5.40179">
        <ele>1034.04</ele>
        <time>2021-10-28T09:31:20Z</time>
      </trkpt>
      <trkpt lat="45.13264" lon="5.40192">
        <ele>1035.48</ele>
        <time>2021-10-28T09:31:36Z</time>
      </trkpt>
      <trkpt lat="45.13272" lon="5.40207">
        <ele>1036.92</ele>
        <time>2021-10-28T09:31:51Z</time>
      </trkpt>
      <trkpt lat="45.1328" lon="5.40226">
        <ele>1038.84</ele>
        <time>2021-10-28T09:32:06Z</time>
      </trkpt>
      <trkpt lat="45.13286" lon="5.4024">
        <ele>1038.36</ele>
        <time>2021-10-28T09:32:21Z</time>
      </trkpt>
      <trkpt lat="45.13297" lon="5.40252">
        <ele>1038.36</ele>
        <time>2021-10-28T09:32:37Z</time>
      </trkpt>
      <trkpt lat="45.13307" lon="5.4027">
        <ele>1036.92</ele>
        <time>2021-10-28T09:32:52Z</time>
      </trkpt>
      <trkpt lat="45.13313" lon="5.40279">
        <ele>1036.44</ele>
        <time>2021-10-28T09:33:00Z</time>
      </trkpt>
      <trkpt lat="45.13319" lon="5.40291">
        <ele>1037.88</ele>
        <time>2021-10-28T09:33:10Z</time>
      </trkpt>
      <trkpt lat="45.13322" lon="5.40311">
        <ele>1039.32</ele>
        <time>2021-10-28T09:33:23Z</time>
      </trkpt>
      <trkpt lat="45.13325" lon="5.40329">
        <ele>1040.28</ele>
        <time>2021-10-28T09:33:37Z</time>
      </trkpt>
      <trkpt lat="45.13329" lon="5.40347">
        <ele>1041.25</ele>
        <time>2021-10-28T09:33:50Z</time>
      </trkpt>
      <trkpt lat="45.13334" lon="5.40368">
        <ele>1043.17</ele>
        <time>2021-10-28T09:34:04Z</time>
      </trkpt>
      <trkpt lat="45.13335" lon="5.40388">
        <ele>1044.61</ele>
        <time>2021-10-28T09:34:19Z</time>
      </trkpt>
      <trkpt lat="45.1334" lon="5.40402">
        <ele>1047.01</ele>
        <time>2021-10-28T09:34:32Z</time>
      </trkpt>
      <trkpt lat="45.13342" lon="5.4042">
        <ele>1049.42</ele>
        <time>2021-10-28T09:34:47Z</time>
      </trkpt>
      <trkpt lat="45.13341" lon="5.40437">
        <ele>1050.86</ele>
        <time>2021-10-28T09:35:00Z</time>
      </trkpt>
      <trkpt lat="45.13342" lon="5.40446">
        <ele>1052.78</ele>
        <time>2021-10-28T09:35:15Z</time>
      </trkpt>
      <trkpt lat="45.13344" lon="5.40459">
        <ele>1054.7</ele>
        <time>2021-10-28T09:35:30Z</time>
      </trkpt>
      <trkpt lat="45.13345" lon="5.40476">
        <ele>1056.63</ele>
        <time>2021-10-28T09:35:45Z</time>
      </trkpt>
      <trkpt lat="45.13345" lon="5.40495">
        <ele>1059.51</ele>
        <time>2021-10-28T09:36:03Z</time>
      </trkpt>
      <trkpt lat="45.13349" lon="5.40512">
        <ele>1061.43</ele>
        <time>2021-10-28T09:36:18Z</time>
      </trkpt>
      <trkpt lat="45.13349" lon="5.40528">
        <ele>1064.32</ele>
        <time>2021-10-28T09:36:35Z</time>
      </trkpt>
      <trkpt lat="45.13349" lon="5.40539">
        <ele>1065.28</ele>
        <time>2021-10-28T09:36:48Z</time>
      </trkpt>
      <trkpt lat="45.13347" lon="5.40553">
        <ele>1066.24</ele>
        <time>2021-10-28T09:37:01Z</time>
      </trkpt>
      <trkpt lat="45.1335" lon="5.40566">
        <ele>1068.16</ele>
        <time>2021-10-28T09:37:19Z</time>
      </trkpt>
      <trkpt lat="45.13347" lon="5.40572">
        <ele>1068.64</ele>
        <time>2021-10-28T09:37:35Z</time>
      </trkpt>
      <trkpt lat="45.13348" lon="5.40582">
        <ele>1068.64</ele>
        <time>2021-10-28T09:37:54Z</time>
      </trkpt>
      <trkpt lat="45.13347" lon="5.40588">
        <ele>1069.6</ele>
        <time>2021-10-28T09:38:06Z</time>
      </trkpt>
      <trkpt lat="45.13345" lon="5.40601">
        <ele>1070.08</ele>
        <time>2021-10-28T09:38:23Z</time>
      </trkpt>
      <trkpt lat="45.1334" lon="5.40618">
        <ele>1072.01</ele>
        <time>2021-10-28T09:38:40Z</time>
      </trkpt>
      <trkpt lat="45.13336" lon="5.40634">
        <ele>1074.41</ele>
        <time>2021-10-28T09:38:56Z</time>
      </trkpt>
      <trkpt lat="45.13334" lon="5.40651">
        <ele>1076.33</ele>
        <time>2021-10-28T09:39:13Z</time>
      </trkpt>
      <trkpt lat="45.13338" lon="5.40668">
        <ele>1078.74</ele>
        <time>2021-10-28T09:39:29Z</time>
      </trkpt>
      <trkpt lat="45.13341" lon="5.40681">
        <ele>1080.18</ele>
        <time>2021-10-28T09:39:43Z</time>
      </trkpt>
      <trkpt lat="45.13345" lon="5.40694">
        <ele>1081.62</ele>
        <time>2021-10-28T09:39:56Z</time>
      </trkpt>
      <trkpt lat="45.13348" lon="5.40705">
        <ele>1082.58</ele>
        <time>2021-10-28T09:40:14Z</time>
      </trkpt>
      <trkpt lat="45.13351" lon="5.40715">
        <ele>1084.02</ele>
        <time>2021-10-28T09:40:30Z</time>
      </trkpt>
      <trkpt lat="45.13354" lon="5.40724">
        <ele>1085.47</ele>
        <time>2021-10-28T09:40:42Z</time>
      </trkpt>
      <trkpt lat="45.1336" lon="5.40718">
        <ele>1087.87</ele>
        <time>2021-10-28T09:40:57Z</time>
      </trkpt>
      <trkpt lat="45.13362" lon="5.40706">
        <ele>1089.31</ele>
        <time>2021-10-28T09:41:10Z</time>
      </trkpt>
      <trkpt lat="45.13363" lon="5.40699">
        <ele>1090.75</ele>
        <time>2021-10-28T09:41:16Z</time>
      </trkpt>
      <trkpt lat="45.13367" lon="5.40682">
        <ele>1092.2</ele>
        <time>2021-10-28T09:41:30Z</time>
      </trkpt>
      <trkpt lat="45.13375" lon="5.40673">
        <ele>1093.64</ele>
        <time>2021-10-28T09:41:44Z</time>
      </trkpt>
      <trkpt lat="45.13386" lon="5.40668">
        <ele>1095.56</ele>
        <time>2021-10-28T09:41:57Z</time>
      </trkpt>
      <trkpt lat="45.13395" lon="5.40661">
        <ele>1096.04</ele>
        <time>2021-10-28T09:42:10Z</time>
      </trkpt>
      <trkpt lat="45.134" lon="5.40648">
        <ele>1097.96</ele>
        <time>2021-10-28T09:42:23Z</time>
      </trkpt>
      <trkpt lat="45.13406" lon="5.40634">
        <ele>1100.37</ele>
        <time>2021-10-28T09:42:37Z</time>
      </trkpt>
      <trkpt lat="45.13412" lon="5.4062">
        <ele>1102.29</ele>
        <time>2021-10-28T09:42:51Z</time>
      </trkpt>
      <trkpt lat="45.13419" lon="5.40612">
        <ele>1104.69</ele>
        <time>2021-10-28T09:43:07Z</time>
      </trkpt>
      <trkpt lat="45.1342" lon="5.40628">
        <ele>1106.61</ele>
        <time>2021-10-28T09:43:23Z</time>
      </trkpt>
      <trkpt lat="45.13418" lon="5.40645">
        <ele>1108.06</ele>
        <time>2021-10-28T09:43:37Z</time>
      </trkpt>
      <trkpt lat="45.13417" lon="5.40661">
        <ele>1109.98</ele>
        <time>2021-10-28T09:43:50Z</time>
      </trkpt>
      <trkpt lat="45.13414" lon="5.40676">
        <ele>1110.94</ele>
        <time>2021-10-28T09:44:04Z</time>
      </trkpt>
      <trkpt lat="45.13411" lon="5.4069">
        <ele>1112.86</ele>
        <time>2021-10-28T09:44:18Z</time>
      </trkpt>
      <trkpt lat="45.13408" lon="5.40706">
        <ele>1114.79</ele>
        <time>2021-10-28T09:44:32Z</time>
      </trkpt>
      <trkpt lat="45.13408" lon="5.40726">
        <ele>1116.71</ele>
        <time>2021-10-28T09:44:47Z</time>
      </trkpt>
      <trkpt lat="45.13412" lon="5.40739">
        <ele>1118.15</ele>
        <time>2021-10-28T09:45:00Z</time>
      </trkpt>
      <trkpt lat="45.13415" lon="5.40751">
        <ele>1120.55</ele>
        <time>2021-10-28T09:45:14Z</time>
      </trkpt>
      <trkpt lat="45.13418" lon="5.40768">
        <ele>1122</ele>
        <time>2021-10-28T09:45:29Z</time>
      </trkpt>
      <trkpt lat="45.13422" lon="5.40781">
        <ele>1123.44</ele>
        <time>2021-10-28T09:45:43Z</time>
      </trkpt>
      <trkpt lat="45.13426" lon="5.40796">
        <ele>1125.84</ele>
        <time>2021-10-28T09:45:59Z</time>
      </trkpt>
      <trkpt lat="45.13429" lon="5.40808">
        <ele>1127.76</ele>
        <time>2021-10-28T09:46:13Z</time>
      </trkpt>
      <trkpt lat="45.13429" lon="5.40824">
        <ele>1129.69</ele>
        <time>2021-10-28T09:46:28Z</time>
      </trkpt>
      <trkpt lat="45.13428" lon="5.40841">
        <ele>1131.61</ele>
        <time>2021-10-28T09:46:41Z</time>
      </trkpt>
      <trkpt lat="45.13434" lon="5.40847">
        <ele>1133.05</ele>
        <time>2021-10-28T09:46:52Z</time>
      </trkpt>
      <trkpt lat="45.13441" lon="5.40838">
        <ele>1135.45</ele>
        <time>2021-10-28T09:47:06Z</time>
      </trkpt>
      <trkpt lat="45.13448" lon="5.40821">
        <ele>1137.86</ele>
        <time>2021-10-28T09:47:22Z</time>
      </trkpt>
      <trkpt lat="45.13457" lon="5.40807">
        <ele>1139.3</ele>
        <time>2021-10-28T09:47:37Z</time>
      </trkpt>
      <trkpt lat="45.1346" lon="5.4079">
        <ele>1140.74</ele>
        <time>2021-10-28T09:47:51Z</time>
      </trkpt>
      <trkpt lat="45.13458" lon="5.40777">
        <ele>1141.7</ele>
        <time>2021-10-28T09:48:03Z</time>
      </trkpt>
      <trkpt lat="45.13458" lon="5.4076">
        <ele>1143.63</ele>
        <time>2021-10-28T09:48:16Z</time>
      </trkpt>
      <trkpt lat="45.13461" lon="5.40746">
        <ele>1146.03</ele>
        <time>2021-10-28T09:48:30Z</time>
      </trkpt>
      <trkpt lat="45.13464" lon="5.40738">
        <ele>1147.47</ele>
        <time>2021-10-28T09:48:38Z</time>
      </trkpt>
      <trkpt lat="45.13472" lon="5.40729">
        <ele>1149.87</ele>
        <time>2021-10-28T09:48:53Z</time>
      </trkpt>
      <trkpt lat="45.13478" lon="5.40718">
        <ele>1151.32</ele>
        <time>2021-10-28T09:49:09Z</time>
      </trkpt>
      <trkpt lat="45.13482" lon="5.40702">
        <ele>1153.24</ele>
        <time>2021-10-28T09:49:23Z</time>
      </trkpt>
      <trkpt lat="45.13486" lon="5.40686">
        <ele>1154.68</ele>
        <time>2021-10-28T09:49:37Z</time>
      </trkpt>
      <trkpt lat="45.13491" lon="5.40677">
        <ele>1155.64</ele>
        <time>2021-10-28T09:49:53Z</time>
      </trkpt>
      <trkpt lat="45.1349" lon="5.40677">
        <ele>1155.64</ele>
        <time>2021-10-28T09:50:13Z</time>
      </trkpt>
      <trkpt lat="45.13486" lon="5.40681">
        <ele>1155.64</ele>
        <time>2021-10-28T09:50:40Z</time>
      </trkpt>
      <trkpt lat="45.1349" lon="5.4068">
        <ele>1156.6</ele>
        <time>2021-10-28T09:51:02Z</time>
      </trkpt>
      <trkpt lat="45.13498" lon="5.40689">
        <ele>1158.53</ele>
        <time>2021-10-28T09:51:17Z</time>
      </trkpt>
      <trkpt lat="45.13504" lon="5.407">
        <ele>1159.01</ele>
        <time>2021-10-28T09:51:30Z</time>
      </trkpt>
      <trkpt lat="45.1351" lon="5.40714">
        <ele>1159.97</ele>
        <time>2021-10-28T09:51:43Z</time>
      </trkpt>
      <trkpt lat="45.13513" lon="5.4073">
        <ele>1162.37</ele>
        <time>2021-10-28T09:51:58Z</time>
      </trkpt>
      <trkpt lat="45.13514" lon="5.40752">
        <ele>1164.29</ele>
        <time>2021-10-28T09:52:15Z</time>
      </trkpt>
      <trkpt lat="45.13516" lon="5.4077">
        <ele>1165.74</ele>
        <time>2021-10-28T09:52:29Z</time>
      </trkpt>
      <trkpt lat="45.13516" lon="5.40778">
        <ele>1165.74</ele>
        <time>2021-10-28T09:52:36Z</time>
      </trkpt>
      <trkpt lat="45.13512" lon="5.40797">
        <ele>1167.66</ele>
        <time>2021-10-28T09:52:51Z</time>
      </trkpt>
      <trkpt lat="45.1351" lon="5.40817">
        <ele>1170.06</ele>
        <time>2021-10-28T09:53:06Z</time>
      </trkpt>
      <trkpt lat="45.13509" lon="5.4084">
        <ele>1171.5</ele>
        <time>2021-10-28T09:53:23Z</time>
      </trkpt>
      <trkpt lat="45.13507" lon="5.40858">
        <ele>1172.95</ele>
        <time>2021-10-28T09:53:37Z</time>
      </trkpt>
      <trkpt lat="45.13506" lon="5.40873">
        <ele>1174.39</ele>
        <time>2021-10-28T09:53:50Z</time>
      </trkpt>
      <trkpt lat="45.13501" lon="5.4089">
        <ele>1176.79</ele>
        <time>2021-10-28T09:54:06Z</time>
      </trkpt>
      <trkpt lat="45.13496" lon="5.40911">
        <ele>1178.23</ele>
        <time>2021-10-28T09:54:24Z</time>
      </trkpt>
      <trkpt lat="45.13493" lon="5.40929">
        <ele>1181.12</ele>
        <time>2021-10-28T09:54:39Z</time>
      </trkpt>
      <trkpt lat="45.13491" lon="5.40945">
        <ele>1182.56</ele>
        <time>2021-10-28T09:54:54Z</time>
      </trkpt>
      <trkpt lat="45.13491" lon="5.40954">
        <ele>1183.52</ele>
        <time>2021-10-28T09:55:10Z</time>
      </trkpt>
      <trkpt lat="45.13486" lon="5.40966">
        <ele>1184.96</ele>
        <time>2021-10-28T09:55:26Z</time>
      </trkpt>
      <trkpt lat="45.1348" lon="5.4098">
        <ele>1187.37</ele>
        <time>2021-10-28T09:55:42Z</time>
      </trkpt>
      <trkpt lat="45.13478" lon="5.40995">
        <ele>1189.77</ele>
        <time>2021-10-28T09:55:57Z</time>
      </trkpt>
      <trkpt lat="45.13482" lon="5.41002">
        <ele>1190.25</ele>
        <time>2021-10-28T09:56:04Z</time>
      </trkpt>
      <trkpt lat="45.13493" lon="5.41015">
        <ele>1190.73</ele>
        <time>2021-10-28T09:56:19Z</time>
      </trkpt>
      <trkpt lat="45.13503" lon="5.41033">
        <ele>1191.21</ele>
        <time>2021-10-28T09:56:34Z</time>
      </trkpt>
      <trkpt lat="45.13507" lon="5.4104">
        <ele>1191.69</ele>
        <time>2021-10-28T09:56:40Z</time>
      </trkpt>
      <trkpt lat="45.13508" lon="5.41043">
        <ele>1191.69</ele>
        <time>2021-10-28T09:56:42Z</time>
      </trkpt>
      <trkpt lat="45.13517" lon="5.41059">
        <ele>1191.69</ele>
        <time>2021-10-28T09:56:55Z</time>
      </trkpt>
      <trkpt lat="45.13518" lon="5.4106">
        <ele>1191.69</ele>
        <time>2021-10-28T09:56:56Z</time>
      </trkpt>
      <trkpt lat="45.13522" lon="5.41069">
        <ele>1191.69</ele>
        <time>2021-10-28T09:57:03Z</time>
      </trkpt>
      <trkpt lat="45.13526" lon="5.41082">
        <ele>1191.69</ele>
        <time>2021-10-28T09:57:17Z</time>
      </trkpt>
      <trkpt lat="45.13527" lon="5.41098">
        <ele>1193.13</ele>
        <time>2021-10-28T10:00:35Z</time>
      </trkpt>
      <trkpt lat="45.13525" lon="5.41098">
        <ele>1194.09</ele>
        <time>2021-10-28T10:00:56Z</time>
      </trkpt>
      <trkpt lat="45.1352" lon="5.41098">
        <ele>1195.54</ele>
        <time>2021-10-28T10:01:10Z</time>
      </trkpt>
      <trkpt lat="45.13516" lon="5.41095">
        <ele>1196.02</ele>
        <time>2021-10-28T10:01:16Z</time>
      </trkpt>
      <trkpt lat="45.13509" lon="5.41086">
        <ele>1197.46</ele>
        <time>2021-10-28T10:01:31Z</time>
      </trkpt>
      <trkpt lat="45.13503" lon="5.4108">
        <ele>1198.42</ele>
        <time>2021-10-28T10:01:45Z</time>
      </trkpt>
      <trkpt lat="45.13497" lon="5.41078">
        <ele>1199.38</ele>
        <time>2021-10-28T10:01:57Z</time>
      </trkpt>
      <trkpt lat="45.13486" lon="5.41069">
        <ele>1201.79</ele>
        <time>2021-10-28T10:02:10Z</time>
      </trkpt>
      <trkpt lat="45.13477" lon="5.41063">
        <ele>1202.75</ele>
        <time>2021-10-28T10:02:23Z</time>
      </trkpt>
      <trkpt lat="45.13467" lon="5.41058">
        <ele>1203.71</ele>
        <time>2021-10-28T10:02:38Z</time>
      </trkpt>
      <trkpt lat="45.1346" lon="5.41059">
        <ele>1204.67</ele>
        <time>2021-10-28T10:02:51Z</time>
      </trkpt>
      <trkpt lat="45.13453" lon="5.41055">
        <ele>1205.63</ele>
        <time>2021-10-28T10:03:04Z</time>
      </trkpt>
      <trkpt lat="45.13448" lon="5.41054">
        <ele>1206.11</ele>
        <time>2021-10-28T10:03:11Z</time>
      </trkpt>
      <trkpt lat="45.13436" lon="5.41055">
        <ele>1208.51</ele>
        <time>2021-10-28T10:03:26Z</time>
      </trkpt>
      <trkpt lat="45.13435" lon="5.41055">
        <ele>1208.51</ele>
        <time>2021-10-28T10:03:27Z</time>
      </trkpt>
      <trkpt lat="45.13425" lon="5.41051">
        <ele>1209.48</ele>
        <time>2021-10-28T10:03:40Z</time>
      </trkpt>
      <trkpt lat="45.13417" lon="5.41053">
        <ele>1210.44</ele>
        <time>2021-10-28T10:03:50Z</time>
      </trkpt>
      <trkpt lat="45.13419" lon="5.41059">
        <ele>1212.36</ele>
        <time>2021-10-28T10:04:01Z</time>
      </trkpt>
      <trkpt lat="45.13423" lon="5.4107">
        <ele>1213.8</ele>
        <time>2021-10-28T10:04:15Z</time>
      </trkpt>
      <trkpt lat="45.1343" lon="5.41083">
        <ele>1215.24</ele>
        <time>2021-10-28T10:04:29Z</time>
      </trkpt>
      <trkpt lat="45.13434" lon="5.41098">
        <ele>1217.17</ele>
        <time>2021-10-28T10:04:45Z</time>
      </trkpt>
      <trkpt lat="45.1344" lon="5.41112">
        <ele>1218.61</ele>
        <time>2021-10-28T10:05:00Z</time>
      </trkpt>
      <trkpt lat="45.13442" lon="5.41134">
        <ele>1220.53</ele>
        <time>2021-10-28T10:05:17Z</time>
      </trkpt>
      <trkpt lat="45.13444" lon="5.4115">
        <ele>1222.45</ele>
        <time>2021-10-28T10:05:32Z</time>
      </trkpt>
      <trkpt lat="45.13446" lon="5.41165">
        <ele>1223.9</ele>
        <time>2021-10-28T10:05:45Z</time>
      </trkpt>
      <trkpt lat="45.13449" lon="5.4118">
        <ele>1225.34</ele>
        <time>2021-10-28T10:05:59Z</time>
      </trkpt>
      <trkpt lat="45.13452" lon="5.41194">
        <ele>1226.3</ele>
        <time>2021-10-28T10:06:14Z</time>
      </trkpt>
      <trkpt lat="45.13454" lon="5.4121">
        <ele>1227.74</ele>
        <time>2021-10-28T10:06:29Z</time>
      </trkpt>
      <trkpt lat="45.13456" lon="5.41225">
        <ele>1229.18</ele>
        <time>2021-10-28T10:06:44Z</time>
      </trkpt>
      <trkpt lat="45.13461" lon="5.41244">
        <ele>1231.59</ele>
        <time>2021-10-28T10:07:01Z</time>
      </trkpt>
      <trkpt lat="45.13464" lon="5.41265">
        <ele>1233.03</ele>
        <time>2021-10-28T10:07:17Z</time>
      </trkpt>
      <trkpt lat="45.13465" lon="5.41278">
        <ele>1234.47</ele>
        <time>2021-10-28T10:07:29Z</time>
      </trkpt>
      <trkpt lat="45.13468" lon="5.41292">
        <ele>1236.39</ele>
        <time>2021-10-28T10:07:42Z</time>
      </trkpt>
      <trkpt lat="45.13464" lon="5.41301">
        <ele>1238.32</ele>
        <time>2021-10-28T10:07:55Z</time>
      </trkpt>
      <trkpt lat="45.13461" lon="5.41302">
        <ele>1238.8</ele>
        <time>2021-10-28T10:08:12Z</time>
      </trkpt>
      <trkpt lat="45.1346" lon="5.41301">
        <ele>1238.8</ele>
        <time>2021-10-28T10:08:33Z</time>
      </trkpt>
      <trkpt lat="45.1346" lon="5.413">
        <ele>1239.76</ele>
        <time>2021-10-28T10:09:49Z</time>
      </trkpt>
      <trkpt lat="45.13457" lon="5.41296">
        <ele>1240.24</ele>
        <time>2021-10-28T10:10:11Z</time>
      </trkpt>
      <trkpt lat="45.13448" lon="5.41287">
        <ele>1242.16</ele>
        <time>2021-10-28T10:10:26Z</time>
      </trkpt>
      <trkpt lat="45.13441" lon="5.41282">
        <ele>1243.12</ele>
        <time>2021-10-28T10:10:36Z</time>
      </trkpt>
      <trkpt lat="45.13432" lon="5.41271">
        <ele>1244.56</ele>
        <time>2021-10-28T10:10:50Z</time>
      </trkpt>
      <trkpt lat="45.13422" lon="5.41261">
        <ele>1246.01</ele>
        <time>2021-10-28T10:11:04Z</time>
      </trkpt>
      <trkpt lat="45.13412" lon="5.41254">
        <ele>1247.45</ele>
        <time>2021-10-28T10:11:17Z</time>
      </trkpt>
      <trkpt lat="45.134" lon="5.41247">
        <ele>1248.41</ele>
        <time>2021-10-28T10:11:32Z</time>
      </trkpt>
      <trkpt lat="45.13389" lon="5.4124">
        <ele>1249.85</ele>
        <time>2021-10-28T10:11:46Z</time>
      </trkpt>
      <trkpt lat="45.13377" lon="5.41232">
        <ele>1251.29</ele>
        <time>2021-10-28T10:12:02Z</time>
      </trkpt>
      <trkpt lat="45.13372" lon="5.41229">
        <ele>1251.77</ele>
        <time>2021-10-28T10:12:08Z</time>
      </trkpt>
      <trkpt lat="45.13367" lon="5.41226">
        <ele>1252.74</ele>
        <time>2021-10-28T10:12:14Z</time>
      </trkpt>
      <trkpt lat="45.13356" lon="5.4122">
        <ele>1254.18</ele>
        <time>2021-10-28T10:12:27Z</time>
      </trkpt>
      <trkpt lat="45.13349" lon="5.41217">
        <ele>1254.66</ele>
        <time>2021-10-28T10:12:36Z</time>
      </trkpt>
      <trkpt lat="45.13337" lon="5.41214">
        <ele>1256.58</ele>
        <time>2021-10-28T10:12:50Z</time>
      </trkpt>
      <trkpt lat="45.13323" lon="5.41212">
        <ele>1257.54</ele>
        <time>2021-10-28T10:13:04Z</time>
      </trkpt>
      <trkpt lat="45.13307" lon="5.41211">
        <ele>1258.5</ele>
        <time>2021-10-28T10:13:20Z</time>
      </trkpt>
      <trkpt lat="45.13293" lon="5.41214">
        <ele>1259.46</ele>
        <time>2021-10-28T10:13:35Z</time>
      </trkpt>
      <trkpt lat="45.13282" lon="5.41217">
        <ele>1260.91</ele>
        <time>2021-10-28T10:13:48Z</time>
      </trkpt>
      <trkpt lat="45.13276" lon="5.41218">
        <ele>1261.39</ele>
        <time>2021-10-28T10:14:05Z</time>
      </trkpt>
      <trkpt lat="45.13273" lon="5.4122">
        <ele>1261.87</ele>
        <time>2021-10-28T10:14:20Z</time>
      </trkpt>
      <trkpt lat="45.13266" lon="5.41231">
        <ele>1272.92</ele>
        <time>2021-10-28T11:04:35Z</time>
      </trkpt>
      <trkpt lat="45.13261" lon="5.41235">
        <ele>1272.92</ele>
        <time>2021-10-28T11:04:51Z</time>
      </trkpt>
      <trkpt lat="45.13255" lon="5.41243">
        <ele>1274.36</ele>
        <time>2021-10-28T11:05:11Z</time>
      </trkpt>
      <trkpt lat="45.13247" lon="5.41258">
        <ele>1276.29</ele>
        <time>2021-10-28T11:05:26Z</time>
      </trkpt>
      <trkpt lat="45.1324" lon="5.41263">
        <ele>1277.25</ele>
        <time>2021-10-28T11:05:36Z</time>
      </trkpt>
      <trkpt lat="45.13229" lon="5.4127">
        <ele>1279.17</ele>
        <time>2021-10-28T11:05:51Z</time>
      </trkpt>
      <trkpt lat="45.13219" lon="5.41276">
        <ele>1281.09</ele>
        <time>2021-10-28T11:06:06Z</time>
      </trkpt>
      <trkpt lat="45.13211" lon="5.41283">
        <ele>1283.5</ele>
        <time>2021-10-28T11:06:22Z</time>
      </trkpt>
      <trkpt lat="45.13201" lon="5.41294">
        <ele>1285.9</ele>
        <time>2021-10-28T11:06:41Z</time>
      </trkpt>
      <trkpt lat="45.13195" lon="5.41299">
        <ele>1287.82</ele>
        <time>2021-10-28T11:06:52Z</time>
      </trkpt>
      <trkpt lat="45.13185" lon="5.41306">
        <ele>1289.27</ele>
        <time>2021-10-28T11:07:08Z</time>
      </trkpt>
      <trkpt lat="45.1318" lon="5.41309">
        <ele>1289.75</ele>
        <time>2021-10-28T11:07:22Z</time>
      </trkpt>
      <trkpt lat="45.13173" lon="5.41311">
        <ele>1290.23</ele>
        <time>2021-10-28T11:07:34Z</time>
      </trkpt>
      <trkpt lat="45.13161" lon="5.41315">
        <ele>1291.67</ele>
        <time>2021-10-28T11:07:48Z</time>
      </trkpt>
      <trkpt lat="45.13151" lon="5.41317">
        <ele>1292.63</ele>
        <time>2021-10-28T11:08:03Z</time>
      </trkpt>
      <trkpt lat="45.13141" lon="5.41319">
        <ele>1294.55</ele>
        <time>2021-10-28T11:08:16Z</time>
      </trkpt>
      <trkpt lat="45.13129" lon="5.41324">
        <ele>1296.48</ele>
        <time>2021-10-28T11:08:30Z</time>
      </trkpt>
      <trkpt lat="45.13125" lon="5.4133">
        <ele>1295.99</ele>
        <time>2021-10-28T11:08:49Z</time>
      </trkpt>
      <trkpt lat="45.13117" lon="5.41328">
        <ele>1294.07</ele>
        <time>2021-10-28T11:10:11Z</time>
      </trkpt>
      <trkpt lat="45.13103" lon="5.41319">
        <ele>1293.11</ele>
        <time>2021-10-28T11:10:27Z</time>
      </trkpt>
      <trkpt lat="45.13093" lon="5.41309">
        <ele>1292.15</ele>
        <time>2021-10-28T11:10:39Z</time>
      </trkpt>
      <trkpt lat="45.13078" lon="5.41299">
        <ele>1290.71</ele>
        <time>2021-10-28T11:10:54Z</time>
      </trkpt>
      <trkpt lat="45.13071" lon="5.41294">
        <ele>1290.23</ele>
        <time>2021-10-28T11:11:01Z</time>
      </trkpt>
      <trkpt lat="45.13061" lon="5.41285">
        <ele>1290.23</ele>
        <time>2021-10-28T11:11:18Z</time>
      </trkpt>
      <trkpt lat="45.13053" lon="5.41283">
        <ele>1289.75</ele>
        <time>2021-10-28T11:15:27Z</time>
      </trkpt>
      <trkpt lat="45.1305" lon="5.41285">
        <ele>1289.75</ele>
        <time>2021-10-28T11:15:46Z</time>
      </trkpt>
      <trkpt lat="45.13045" lon="5.41287">
        <ele>1288.78</ele>
        <time>2021-10-28T11:16:01Z</time>
      </trkpt>
      <trkpt lat="45.13036" lon="5.41294">
        <ele>1287.34</ele>
        <time>2021-10-28T11:16:16Z</time>
      </trkpt>
      <trkpt lat="45.13021" lon="5.41307">
        <ele>1284.46</ele>
        <time>2021-10-28T11:16:31Z</time>
      </trkpt>
      <trkpt lat="45.13006" lon="5.41306">
        <ele>1281.09</ele>
        <time>2021-10-28T11:16:44Z</time>
      </trkpt>
      <trkpt lat="45.1299" lon="5.41298">
        <ele>1280.13</ele>
        <time>2021-10-28T11:17:01Z</time>
      </trkpt>
      <trkpt lat="45.12977" lon="5.41304">
        <ele>1277.25</ele>
        <time>2021-10-28T11:17:15Z</time>
      </trkpt>
      <trkpt lat="45.1296" lon="5.41304">
        <ele>1274.36</ele>
        <time>2021-10-28T11:17:29Z</time>
      </trkpt>
      <trkpt lat="45.1294" lon="5.41296">
        <ele>1271.48</ele>
        <time>2021-10-28T11:17:44Z</time>
      </trkpt>
      <trkpt lat="45.12927" lon="5.41296">
        <ele>1270.04</ele>
        <time>2021-10-28T11:17:56Z</time>
      </trkpt>
      <trkpt lat="45.12912" lon="5.413">
        <ele>1268.12</ele>
        <time>2021-10-28T11:18:10Z</time>
      </trkpt>
      <trkpt lat="45.12897" lon="5.41304">
        <ele>1266.67</ele>
        <time>2021-10-28T11:18:23Z</time>
      </trkpt>
      <trkpt lat="45.12872" lon="5.41308">
        <ele>1265.71</ele>
        <time>2021-10-28T11:18:40Z</time>
      </trkpt>
      <trkpt lat="45.12852" lon="5.41307">
        <ele>1262.35</ele>
        <time>2021-10-28T11:18:54Z</time>
      </trkpt>
      <trkpt lat="45.12832" lon="5.41302">
        <ele>1259.46</ele>
        <time>2021-10-28T11:19:10Z</time>
      </trkpt>
      <trkpt lat="45.12818" lon="5.41294">
        <ele>1258.02</ele>
        <time>2021-10-28T11:19:24Z</time>
      </trkpt>
      <trkpt lat="45.12808" lon="5.41287">
        <ele>1257.54</ele>
        <time>2021-10-28T11:19:36Z</time>
      </trkpt>
      <trkpt lat="45.12788" lon="5.41275">
        <ele>1255.62</ele>
        <time>2021-10-28T11:19:52Z</time>
      </trkpt>
      <trkpt lat="45.12773" lon="5.41266">
        <ele>1254.18</ele>
        <time>2021-10-28T11:20:07Z</time>
      </trkpt>
      <trkpt lat="45.12758" lon="5.41259">
        <ele>1253.7</ele>
        <time>2021-10-28T11:20:18Z</time>
      </trkpt>
      <trkpt lat="45.12739" lon="5.41245">
        <ele>1249.85</ele>
        <time>2021-10-28T11:20:32Z</time>
      </trkpt>
      <trkpt lat="45.12727" lon="5.41231">
        <ele>1246.97</ele>
        <time>2021-10-28T11:20:46Z</time>
      </trkpt>
      <trkpt lat="45.12717" lon="5.4122">
        <ele>1244.56</ele>
        <time>2021-10-28T11:20:59Z</time>
      </trkpt>
      <trkpt lat="45.12708" lon="5.41221">
        <ele>1242.64</ele>
        <time>2021-10-28T11:21:09Z</time>
      </trkpt>
      <trkpt lat="45.12689" lon="5.41211">
        <ele>1239.76</ele>
        <time>2021-10-28T11:21:24Z</time>
      </trkpt>
      <trkpt lat="45.12677" lon="5.41208">
        <ele>1237.83</ele>
        <time>2021-10-28T11:22:30Z</time>
      </trkpt>
      <trkpt lat="45.12667" lon="5.41203">
        <ele>1237.83</ele>
        <time>2021-10-28T11:22:53Z</time>
      </trkpt>
      <trkpt lat="45.12656" lon="5.412">
        <ele>1234.95</ele>
        <time>2021-10-28T11:23:06Z</time>
      </trkpt>
      <trkpt lat="45.12645" lon="5.41195">
        <ele>1233.51</ele>
        <time>2021-10-28T11:23:22Z</time>
      </trkpt>
      <trkpt lat="45.12628" lon="5.41192">
        <ele>1231.59</ele>
        <time>2021-10-28T11:23:38Z</time>
      </trkpt>
      <trkpt lat="45.12611" lon="5.41185">
        <ele>1229.18</ele>
        <time>2021-10-28T11:23:52Z</time>
      </trkpt>
      <trkpt lat="45.12603" lon="5.41178">
        <ele>1226.3</ele>
        <time>2021-10-28T11:24:04Z</time>
      </trkpt>
      <trkpt lat="45.12592" lon="5.41167">
        <ele>1223.42</ele>
        <time>2021-10-28T11:24:16Z</time>
      </trkpt>
      <trkpt lat="45.12585" lon="5.41163">
        <ele>1220.05</ele>
        <time>2021-10-28T11:24:28Z</time>
      </trkpt>
      <trkpt lat="45.12576" lon="5.41158">
        <ele>1216.21</ele>
        <time>2021-10-28T11:24:41Z</time>
      </trkpt>
      <trkpt lat="45.1257" lon="5.41155">
        <ele>1213.32</ele>
        <time>2021-10-28T11:24:50Z</time>
      </trkpt>
      <trkpt lat="45.12555" lon="5.41148">
        <ele>1210.92</ele>
        <time>2021-10-28T11:25:04Z</time>
      </trkpt>
      <trkpt lat="45.12542" lon="5.41136">
        <ele>1207.55</ele>
        <time>2021-10-28T11:25:18Z</time>
      </trkpt>
      <trkpt lat="45.12536" lon="5.41125">
        <ele>1207.07</ele>
        <time>2021-10-28T11:25:31Z</time>
      </trkpt>
      <trkpt lat="45.12531" lon="5.41115">
        <ele>1206.59</ele>
        <time>2021-10-28T11:25:39Z</time>
      </trkpt>
      <trkpt lat="45.12527" lon="5.41108">
        <ele>1205.63</ele>
        <time>2021-10-28T11:25:47Z</time>
      </trkpt>
      <trkpt lat="45.12512" lon="5.41096">
        <ele>1204.19</ele>
        <time>2021-10-28T11:26:01Z</time>
      </trkpt>
      <trkpt lat="45.12497" lon="5.41074">
        <ele>1202.75</ele>
        <time>2021-10-28T11:26:14Z</time>
      </trkpt>
      <trkpt lat="45.12488" lon="5.41061">
        <ele>1202.75</ele>
        <time>2021-10-28T11:26:27Z</time>
      </trkpt>
      <trkpt lat="45.12474" lon="5.41056">
        <ele>1201.79</ele>
        <time>2021-10-28T11:26:42Z</time>
      </trkpt>
      <trkpt lat="45.12458" lon="5.41041">
        <ele>1198.9</ele>
        <time>2021-10-28T11:26:56Z</time>
      </trkpt>
      <trkpt lat="45.12447" lon="5.41028">
        <ele>1196.5</ele>
        <time>2021-10-28T11:27:10Z</time>
      </trkpt>
      <trkpt lat="45.12435" lon="5.41019">
        <ele>1193.61</ele>
        <time>2021-10-28T11:27:25Z</time>
      </trkpt>
      <trkpt lat="45.12427" lon="5.41016">
        <ele>1190.73</ele>
        <time>2021-10-28T11:27:43Z</time>
      </trkpt>
      <trkpt lat="45.12418" lon="5.41009">
        <ele>1187.37</ele>
        <time>2021-10-28T11:27:55Z</time>
      </trkpt>
      <trkpt lat="45.12406" lon="5.40999">
        <ele>1184</ele>
        <time>2021-10-28T11:28:07Z</time>
      </trkpt>
      <trkpt lat="45.12398" lon="5.40986">
        <ele>1180.64</ele>
        <time>2021-10-28T11:28:20Z</time>
      </trkpt>
      <trkpt lat="45.12392" lon="5.40974">
        <ele>1177.75</ele>
        <time>2021-10-28T11:28:31Z</time>
      </trkpt>
      <trkpt lat="45.12387" lon="5.4096">
        <ele>1174.39</ele>
        <time>2021-10-28T11:28:41Z</time>
      </trkpt>
      <trkpt lat="45.1238" lon="5.4095">
        <ele>1171.02</ele>
        <time>2021-10-28T11:28:53Z</time>
      </trkpt>
      <trkpt lat="45.12367" lon="5.40944">
        <ele>1168.62</ele>
        <time>2021-10-28T11:29:07Z</time>
      </trkpt>
      <trkpt lat="45.12355" lon="5.40936">
        <ele>1165.74</ele>
        <time>2021-10-28T11:29:20Z</time>
      </trkpt>
      <trkpt lat="45.12344" lon="5.40932">
        <ele>1161.89</ele>
        <time>2021-10-28T11:29:33Z</time>
      </trkpt>
      <trkpt lat="45.1233" lon="5.40929">
        <ele>1159.49</ele>
        <time>2021-10-28T11:29:46Z</time>
      </trkpt>
      <trkpt lat="45.1232" lon="5.40921">
        <ele>1156.12</ele>
        <time>2021-10-28T11:30:00Z</time>
      </trkpt>
      <trkpt lat="45.12316" lon="5.40916">
        <ele>1155.16</ele>
        <time>2021-10-28T11:30:17Z</time>
      </trkpt>
      <trkpt lat="45.12322" lon="5.40907">
        <ele>1153.72</ele>
        <time>2021-10-28T11:31:41Z</time>
      </trkpt>
      <trkpt lat="45.1232" lon="5.4089">
        <ele>1150.35</ele>
        <time>2021-10-28T11:31:54Z</time>
      </trkpt>
      <trkpt lat="45.12315" lon="5.40871">
        <ele>1147.47</ele>
        <time>2021-10-28T11:32:08Z</time>
      </trkpt>
      <trkpt lat="45.12309" lon="5.40853">
        <ele>1144.11</ele>
        <time>2021-10-28T11:32:22Z</time>
      </trkpt>
      <trkpt lat="45.12303" lon="5.40839">
        <ele>1140.74</ele>
        <time>2021-10-28T11:32:36Z</time>
      </trkpt>
      <trkpt lat="45.12297" lon="5.40822">
        <ele>1137.86</ele>
        <time>2021-10-28T11:32:50Z</time>
      </trkpt>
      <trkpt lat="45.12292" lon="5.40808">
        <ele>1134.97</ele>
        <time>2021-10-28T11:33:02Z</time>
      </trkpt>
      <trkpt lat="45.1228" lon="5.40793">
        <ele>1132.09</ele>
        <time>2021-10-28T11:33:18Z</time>
      </trkpt>
      <trkpt lat="45.12264" lon="5.40779">
        <ele>1128.73</ele>
        <time>2021-10-28T11:33:33Z</time>
      </trkpt>
      <trkpt lat="45.12252" lon="5.40776">
        <ele>1125.84</ele>
        <time>2021-10-28T11:33:50Z</time>
      </trkpt>
      <trkpt lat="45.1224" lon="5.40769">
        <ele>1123.44</ele>
        <time>2021-10-28T11:34:04Z</time>
      </trkpt>
      <trkpt lat="45.12231" lon="5.40764">
        <ele>1120.55</ele>
        <time>2021-10-28T11:34:17Z</time>
      </trkpt>
      <trkpt lat="45.12222" lon="5.40754">
        <ele>1118.15</ele>
        <time>2021-10-28T11:34:31Z</time>
      </trkpt>
      <trkpt lat="45.12211" lon="5.40741">
        <ele>1114.79</ele>
        <time>2021-10-28T11:34:46Z</time>
      </trkpt>
      <trkpt lat="45.12199" lon="5.40734">
        <ele>1111.9</ele>
        <time>2021-10-28T11:35:01Z</time>
      </trkpt>
      <trkpt lat="45.1219" lon="5.40728">
        <ele>1109.98</ele>
        <time>2021-10-28T11:35:11Z</time>
      </trkpt>
      <trkpt lat="45.12173" lon="5.40714">
        <ele>1107.58</ele>
        <time>2021-10-28T11:35:24Z</time>
      </trkpt>
      <trkpt lat="45.12157" lon="5.40701">
        <ele>1104.21</ele>
        <time>2021-10-28T11:35:40Z</time>
      </trkpt>
      <trkpt lat="45.12144" lon="5.40688">
        <ele>1102.29</ele>
        <time>2021-10-28T11:35:54Z</time>
      </trkpt>
      <trkpt lat="45.12133" lon="5.40668">
        <ele>1100.37</ele>
        <time>2021-10-28T11:36:11Z</time>
      </trkpt>
      <trkpt lat="45.12128" lon="5.40663">
        <ele>1100.37</ele>
        <time>2021-10-28T11:36:16Z</time>
      </trkpt>
      <trkpt lat="45.12117" lon="5.40651">
        <ele>1098.92</ele>
        <time>2021-10-28T11:36:27Z</time>
      </trkpt>
      <trkpt lat="45.121" lon="5.40638">
        <ele>1097.48</ele>
        <time>2021-10-28T11:36:42Z</time>
      </trkpt>
      <trkpt lat="45.12085" lon="5.40626">
        <ele>1095.56</ele>
        <time>2021-10-28T11:36:57Z</time>
      </trkpt>
      <trkpt lat="45.12072" lon="5.40613">
        <ele>1094.12</ele>
        <time>2021-10-28T11:37:07Z</time>
      </trkpt>
      <trkpt lat="45.12063" lon="5.40608">
        <ele>1093.64</ele>
        <time>2021-10-28T11:37:14Z</time>
      </trkpt>
      <trkpt lat="45.12056" lon="5.40603">
        <ele>1093.16</ele>
        <time>2021-10-28T11:37:19Z</time>
      </trkpt>
      <trkpt lat="45.12051" lon="5.40601">
        <ele>1093.16</ele>
        <time>2021-10-28T11:37:23Z</time>
      </trkpt>
      <trkpt lat="45.12039" lon="5.40587">
        <ele>1091.23</ele>
        <time>2021-10-28T11:37:39Z</time>
      </trkpt>
      <trkpt lat="45.12025" lon="5.40572">
        <ele>1090.75</ele>
        <time>2021-10-28T11:37:54Z</time>
      </trkpt>
      <trkpt lat="45.12011" lon="5.40557">
        <ele>1090.27</ele>
        <time>2021-10-28T11:38:09Z</time>
      </trkpt>
      <trkpt lat="45.11994" lon="5.40549">
        <ele>1091.71</ele>
        <time>2021-10-28T11:38:24Z</time>
      </trkpt>
      <trkpt lat="45.11979" lon="5.40534">
        <ele>1092.2</ele>
        <time>2021-10-28T11:38:38Z</time>
      </trkpt>
      <trkpt lat="45.11972" lon="5.40512">
        <ele>1092.68</ele>
        <time>2021-10-28T11:38:52Z</time>
      </trkpt>
      <trkpt lat="45.11966" lon="5.40491">
        <ele>1093.16</ele>
        <time>2021-10-28T11:39:06Z</time>
      </trkpt>
      <trkpt lat="45.11963" lon="5.40471">
        <ele>1091.71</ele>
        <time>2021-10-28T11:39:19Z</time>
      </trkpt>
      <trkpt lat="45.11958" lon="5.40458">
        <ele>1090.27</ele>
        <time>2021-10-28T11:41:57Z</time>
      </trkpt>
      <trkpt lat="45.11951" lon="5.40448">
        <ele>1086.91</ele>
        <time>2021-10-28T11:42:11Z</time>
      </trkpt>
      <trkpt lat="45.11937" lon="5.40437">
        <ele>1084.02</ele>
        <time>2021-10-28T11:42:27Z</time>
      </trkpt>
      <trkpt lat="45.11934" lon="5.40435">
        <ele>1083.54</ele>
        <time>2021-10-28T11:42:29Z</time>
      </trkpt>
      <trkpt lat="45.11917" lon="5.40424">
        <ele>1080.18</ele>
        <time>2021-10-28T11:42:45Z</time>
      </trkpt>
      <trkpt lat="45.11905" lon="5.40414">
        <ele>1076.81</ele>
        <time>2021-10-28T11:42:58Z</time>
      </trkpt>
      <trkpt lat="45.11895" lon="5.40404">
        <ele>1073.93</ele>
        <time>2021-10-28T11:43:11Z</time>
      </trkpt>
      <trkpt lat="45.1189" lon="5.40398">
        <ele>1072.01</ele>
        <time>2021-10-28T11:43:24Z</time>
      </trkpt>
      <trkpt lat="45.1189" lon="5.40397">
        <ele>1072.01</ele>
        <time>2021-10-28T11:43:28Z</time>
      </trkpt>
      <trkpt lat="45.1189" lon="5.4039">
        <ele>1072.49</ele>
        <time>2021-10-28T11:46:34Z</time>
      </trkpt>
      <trkpt lat="45.11889" lon="5.40382">
        <ele>1069.12</ele>
        <time>2021-10-28T11:46:49Z</time>
      </trkpt>
      <trkpt lat="45.11884" lon="5.40376">
        <ele>1066.24</ele>
        <time>2021-10-28T11:46:59Z</time>
      </trkpt>
      <trkpt lat="45.11879" lon="5.40368">
        <ele>1062.87</ele>
        <time>2021-10-28T11:47:09Z</time>
      </trkpt>
      <trkpt lat="45.11877" lon="5.40354">
        <ele>1059.51</ele>
        <time>2021-10-28T11:47:23Z</time>
      </trkpt>
      <trkpt lat="45.1188" lon="5.40343">
        <ele>1056.63</ele>
        <time>2021-10-28T11:47:34Z</time>
      </trkpt>
      <trkpt lat="45.11888" lon="5.40338">
        <ele>1053.74</ele>
        <time>2021-10-28T11:47:47Z</time>
      </trkpt>
      <trkpt lat="45.11891" lon="5.40338">
        <ele>1051.82</ele>
        <time>2021-10-28T11:47:52Z</time>
      </trkpt>
      <trkpt lat="45.11896" lon="5.40341">
        <ele>1048.94</ele>
        <time>2021-10-28T11:48:04Z</time>
      </trkpt>
      <trkpt lat="45.11911" lon="5.4034">
        <ele>1046.05</ele>
        <time>2021-10-28T11:48:19Z</time>
      </trkpt>
      <trkpt lat="45.11917" lon="5.40338">
        <ele>1046.05</ele>
        <time>2021-10-28T11:48:40Z</time>
      </trkpt>
      <trkpt lat="45.11916" lon="5.40333">
        <ele>1045.09</ele>
        <time>2021-10-28T11:49:01Z</time>
      </trkpt>
      <trkpt lat="45.11914" lon="5.40327">
        <ele>1044.61</ele>
        <time>2021-10-28T11:49:21Z</time>
      </trkpt>
      <trkpt lat="45.11913" lon="5.4032">
        <ele>1041.73</ele>
        <time>2021-10-28T11:49:36Z</time>
      </trkpt>
      <trkpt lat="45.11909" lon="5.4031">
        <ele>1038.36</ele>
        <time>2021-10-28T11:49:48Z</time>
      </trkpt>
      <trkpt lat="45.119" lon="5.40301">
        <ele>1036.44</ele>
        <time>2021-10-28T11:50:03Z</time>
      </trkpt>
      <trkpt lat="45.119" lon="5.403">
        <ele>1036.44</ele>
        <time>2021-10-28T11:50:04Z</time>
      </trkpt>
      <trkpt lat="45.11899" lon="5.40298">
        <ele>1036.44</ele>
        <time>2021-10-28T11:50:07Z</time>
      </trkpt>
      <trkpt lat="45.11893" lon="5.40292">
        <ele>1035.48</ele>
        <time>2021-10-28T11:50:15Z</time>
      </trkpt>
      <trkpt lat="45.11885" lon="5.40282">
        <ele>1034.04</ele>
        <time>2021-10-28T11:50:29Z</time>
      </trkpt>
      <trkpt lat="45.11878" lon="5.40275">
        <ele>1033.55</ele>
        <time>2021-10-28T11:50:42Z</time>
      </trkpt>
      <trkpt lat="45.11868" lon="5.40271">
        <ele>1033.07</ele>
        <time>2021-10-28T11:50:55Z</time>
      </trkpt>
      <trkpt lat="45.11853" lon="5.40268">
        <ele>1031.63</ele>
        <time>2021-10-28T11:51:11Z</time>
      </trkpt>
      <trkpt lat="45.11835" lon="5.40261">
        <ele>1030.19</ele>
        <time>2021-10-28T11:51:26Z</time>
      </trkpt>
      <trkpt lat="45.11832" lon="5.40258">
        <ele>1029.71</ele>
        <time>2021-10-28T11:51:29Z</time>
      </trkpt>
      <trkpt lat="45.11812" lon="5.40237">
        <ele>1028.75</ele>
        <time>2021-10-28T11:51:49Z</time>
      </trkpt>
      <trkpt lat="45.11798" lon="5.40225">
        <ele>1028.27</ele>
        <time>2021-10-28T11:52:04Z</time>
      </trkpt>
      <trkpt lat="45.11781" lon="5.40206">
        <ele>1027.79</ele>
        <time>2021-10-28T11:52:23Z</time>
      </trkpt>
      <trkpt lat="45.11763" lon="5.40186">
        <ele>1026.83</ele>
        <time>2021-10-28T11:52:40Z</time>
      </trkpt>
      <trkpt lat="45.11746" lon="5.40171">
        <ele>1025.86</ele>
        <time>2021-10-28T11:52:54Z</time>
      </trkpt>
      <trkpt lat="45.11729" lon="5.40158">
        <ele>1024.42</ele>
        <time>2021-10-28T11:53:08Z</time>
      </trkpt>
      <trkpt lat="45.11718" lon="5.40148">
        <ele>1023.94</ele>
        <time>2021-10-28T11:53:20Z</time>
      </trkpt>
      <trkpt lat="45.11706" lon="5.40137">
        <ele>1023.94</ele>
        <time>2021-10-28T11:53:35Z</time>
      </trkpt>
      <trkpt lat="45.11688" lon="5.40126">
        <ele>1023.94</ele>
        <time>2021-10-28T11:53:52Z</time>
      </trkpt>
      <trkpt lat="45.11671" lon="5.4012">
        <ele>1023.94</ele>
        <time>2021-10-28T11:54:06Z</time>
      </trkpt>
      <trkpt lat="45.1167" lon="5.4012">
        <ele>1023.94</ele>
        <time>2021-10-28T11:54:07Z</time>
      </trkpt>
      <trkpt lat="45.11654" lon="5.4011">
        <ele>1023.94</ele>
        <time>2021-10-28T11:54:22Z</time>
      </trkpt>
      <trkpt lat="45.11644" lon="5.40101">
        <ele>1022.98</ele>
        <time>2021-10-28T11:54:35Z</time>
      </trkpt>
      <trkpt lat="45.11633" lon="5.40086">
        <ele>1021.06</ele>
        <time>2021-10-28T11:54:49Z</time>
      </trkpt>
      <trkpt lat="45.11609" lon="5.40062">
        <ele>1018.17</ele>
        <time>2021-10-28T11:55:09Z</time>
      </trkpt>
      <trkpt lat="45.11596" lon="5.4005">
        <ele>1016.25</ele>
        <time>2021-10-28T11:55:23Z</time>
      </trkpt>
      <trkpt lat="45.11584" lon="5.40037">
        <ele>1014.33</ele>
        <time>2021-10-28T11:55:39Z</time>
      </trkpt>
      <trkpt lat="45.1157" lon="5.40022">
        <ele>1011.93</ele>
        <time>2021-10-28T11:55:54Z</time>
      </trkpt>
      <trkpt lat="45.11557" lon="5.40007">
        <ele>1009.04</ele>
        <time>2021-10-28T11:56:10Z</time>
      </trkpt>
      <trkpt lat="45.11552" lon="5.40001">
        <ele>1009.04</ele>
        <time>2021-10-28T11:56:29Z</time>
      </trkpt>
      <trkpt lat="45.11551" lon="5.39999">
        <ele>1008.08</ele>
        <time>2021-10-28T11:56:44Z</time>
      </trkpt>
      <trkpt lat="45.1155" lon="5.39998">
        <ele>1008.08</ele>
        <time>2021-10-28T11:57:03Z</time>
      </trkpt>
      <trkpt lat="45.11541" lon="5.39991">
        <ele>1007.12</ele>
        <time>2021-10-28T11:57:15Z</time>
      </trkpt>
      <trkpt lat="45.11527" lon="5.39976">
        <ele>1006.16</ele>
        <time>2021-10-28T11:57:30Z</time>
      </trkpt>
      <trkpt lat="45.11512" lon="5.39959">
        <ele>1006.16</ele>
        <time>2021-10-28T11:57:47Z</time>
      </trkpt>
      <trkpt lat="45.11499" lon="5.39943">
        <ele>1007.6</ele>
        <time>2021-10-28T11:58:04Z</time>
      </trkpt>
      <trkpt lat="45.11484" lon="5.39927">
        <ele>1008.56</ele>
        <time>2021-10-28T11:58:21Z</time>
      </trkpt>
      <trkpt lat="45.11468" lon="5.39917">
        <ele>1009.04</ele>
        <time>2021-10-28T11:58:35Z</time>
      </trkpt>
      <trkpt lat="45.1145" lon="5.39907">
        <ele>1009.04</ele>
        <time>2021-10-28T11:58:51Z</time>
      </trkpt>
      <trkpt lat="45.11444" lon="5.39903">
        <ele>1009.04</ele>
        <time>2021-10-28T11:58:56Z</time>
      </trkpt>
      <trkpt lat="45.11428" lon="5.39895">
        <ele>1007.6</ele>
        <time>2021-10-28T11:59:09Z</time>
      </trkpt>
      <trkpt lat="45.11407" lon="5.39873">
        <ele>1006.64</ele>
        <time>2021-10-28T11:59:30Z</time>
      </trkpt>
      <trkpt lat="45.1139" lon="5.39853">
        <ele>1005.2</ele>
        <time>2021-10-28T11:59:49Z</time>
      </trkpt>
      <trkpt lat="45.11388" lon="5.39851">
        <ele>1005.2</ele>
        <time>2021-10-28T11:59:51Z</time>
      </trkpt>
      <trkpt lat="45.11374" lon="5.39835">
        <ele>1004.72</ele>
        <time>2021-10-28T12:00:09Z</time>
      </trkpt>
      <trkpt lat="45.11363" lon="5.3982">
        <ele>1006.16</ele>
        <time>2021-10-28T12:00:25Z</time>
      </trkpt>
      <trkpt lat="45.11354" lon="5.39808">
        <ele>1008.08</ele>
        <time>2021-10-28T12:00:39Z</time>
      </trkpt>
      <trkpt lat="45.1134" lon="5.39794">
        <ele>1009.52</ele>
        <time>2021-10-28T12:00:57Z</time>
      </trkpt>
      <trkpt lat="45.11331" lon="5.3978">
        <ele>1010.96</ele>
        <time>2021-10-28T12:01:11Z</time>
      </trkpt>
      <trkpt lat="45.11321" lon="5.3976">
        <ele>1012.41</ele>
        <time>2021-10-28T12:01:27Z</time>
      </trkpt>
      <trkpt lat="45.11313" lon="5.39746">
        <ele>1012.89</ele>
        <time>2021-10-28T12:01:42Z</time>
      </trkpt>
      <trkpt lat="45.11303" lon="5.39729">
        <ele>1013.37</ele>
        <time>2021-10-28T12:01:56Z</time>
      </trkpt>
      <trkpt lat="45.11285" lon="5.3971">
        <ele>1013.85</ele>
        <time>2021-10-28T12:02:13Z</time>
      </trkpt>
      <trkpt lat="45.1127" lon="5.39693">
        <ele>1012.41</ele>
        <time>2021-10-28T12:02:28Z</time>
      </trkpt>
      <trkpt lat="45.11247" lon="5.39679">
        <ele>1010.48</ele>
        <time>2021-10-28T12:02:48Z</time>
      </trkpt>
      <trkpt lat="45.11226" lon="5.39672">
        <ele>1007.6</ele>
        <time>2021-10-28T12:03:06Z</time>
      </trkpt>
      <trkpt lat="45.11212" lon="5.3965">
        <ele>1005.2</ele>
        <time>2021-10-28T12:03:22Z</time>
      </trkpt>
      <trkpt lat="45.11198" lon="5.3962">
        <ele>1004.23</ele>
        <time>2021-10-28T12:03:41Z</time>
      </trkpt>
      <trkpt lat="45.11187" lon="5.39598">
        <ele>1004.23</ele>
        <time>2021-10-28T12:03:58Z</time>
      </trkpt>
      <trkpt lat="45.11181" lon="5.39586">
        <ele>1004.23</ele>
        <time>2021-10-28T12:04:07Z</time>
      </trkpt>
      <trkpt lat="45.11168" lon="5.39571">
        <ele>1006.16</ele>
        <time>2021-10-28T12:04:23Z</time>
      </trkpt>
      <trkpt lat="45.1116" lon="5.39553">
        <ele>1008.56</ele>
        <time>2021-10-28T12:04:37Z</time>
      </trkpt>
      <trkpt lat="45.11155" lon="5.3953">
        <ele>1009.52</ele>
        <time>2021-10-28T12:04:51Z</time>
      </trkpt>
      <trkpt lat="45.1115" lon="5.39514">
        <ele>1010</ele>
        <time>2021-10-28T12:05:03Z</time>
      </trkpt>
      <trkpt lat="45.1114" lon="5.39487">
        <ele>1010.48</ele>
        <time>2021-10-28T12:05:21Z</time>
      </trkpt>
      <trkpt lat="45.11136" lon="5.39462">
        <ele>1010.96</ele>
        <time>2021-10-28T12:05:36Z</time>
      </trkpt>
      <trkpt lat="45.11126" lon="5.39439">
        <ele>1009.04</ele>
        <time>2021-10-28T12:05:52Z</time>
      </trkpt>
      <trkpt lat="45.11111" lon="5.39415">
        <ele>1009.04</ele>
        <time>2021-10-28T12:06:10Z</time>
      </trkpt>
      <trkpt lat="45.11094" lon="5.39392">
        <ele>1008.56</ele>
        <time>2021-10-28T12:06:29Z</time>
      </trkpt>
      <trkpt lat="45.11075" lon="5.39373">
        <ele>1008.08</ele>
        <time>2021-10-28T12:06:48Z</time>
      </trkpt>
      <trkpt lat="45.11056" lon="5.39361">
        <ele>1008.08</ele>
        <time>2021-10-28T12:07:05Z</time>
      </trkpt>
      <trkpt lat="45.1104" lon="5.39345">
        <ele>1005.68</ele>
        <time>2021-10-28T12:07:22Z</time>
      </trkpt>
      <trkpt lat="45.1102" lon="5.3933">
        <ele>1004.23</ele>
        <time>2021-10-28T12:07:38Z</time>
      </trkpt>
      <trkpt lat="45.11001" lon="5.39319">
        <ele>1003.27</ele>
        <time>2021-10-28T12:07:53Z</time>
      </trkpt>
      <trkpt lat="45.10981" lon="5.39307">
        <ele>1002.31</ele>
        <time>2021-10-28T12:08:11Z</time>
      </trkpt>
      <trkpt lat="45.10963" lon="5.39291">
        <ele>1001.35</ele>
        <time>2021-10-28T12:08:29Z</time>
      </trkpt>
      <trkpt lat="45.1095" lon="5.39273">
        <ele>999.43</ele>
        <time>2021-10-28T12:08:45Z</time>
      </trkpt>
      <trkpt lat="45.10935" lon="5.39249">
        <ele>998.47</ele>
        <time>2021-10-28T12:09:03Z</time>
      </trkpt>
      <trkpt lat="45.10922" lon="5.39237">
        <ele>997.51</ele>
        <time>2021-10-28T12:09:16Z</time>
      </trkpt>
      <trkpt lat="45.10909" lon="5.39219">
        <ele>995.1</ele>
        <time>2021-10-28T12:09:31Z</time>
      </trkpt>
      <trkpt lat="45.10888" lon="5.39204">
        <ele>994.14</ele>
        <time>2021-10-28T12:09:48Z</time>
      </trkpt>
      <trkpt lat="45.10869" lon="5.39193">
        <ele>993.18</ele>
        <time>2021-10-28T12:10:03Z</time>
      </trkpt>
      <trkpt lat="45.10849" lon="5.39174">
        <ele>992.22</ele>
        <time>2021-10-28T12:10:23Z</time>
      </trkpt>
      <trkpt lat="45.1084" lon="5.39159">
        <ele>991.74</ele>
        <time>2021-10-28T12:10:35Z</time>
      </trkpt>
      <trkpt lat="45.10823" lon="5.39151">
        <ele>990.3</ele>
        <time>2021-10-28T12:10:50Z</time>
      </trkpt>
      <trkpt lat="45.10811" lon="5.3914">
        <ele>989.33</ele>
        <time>2021-10-28T12:11:02Z</time>
      </trkpt>
      <trkpt lat="45.10805" lon="5.39137">
        <ele>989.33</ele>
        <time>2021-10-28T12:11:07Z</time>
      </trkpt>
      <trkpt lat="45.10789" lon="5.39128">
        <ele>987.89</ele>
        <time>2021-10-28T12:11:22Z</time>
      </trkpt>
      <trkpt lat="45.10768" lon="5.39126">
        <ele>986.45</ele>
        <time>2021-10-28T12:11:40Z</time>
      </trkpt>
      <trkpt lat="45.1076" lon="5.39124">
        <ele>985.97</ele>
        <time>2021-10-28T12:11:45Z</time>
      </trkpt>
      <trkpt lat="45.10743" lon="5.3911">
        <ele>984.53</ele>
        <time>2021-10-28T12:12:00Z</time>
      </trkpt>
      <trkpt lat="45.10722" lon="5.39094">
        <ele>982.12</ele>
        <time>2021-10-28T12:12:17Z</time>
      </trkpt>
      <trkpt lat="45.10706" lon="5.39073">
        <ele>980.68</ele>
        <time>2021-10-28T12:12:35Z</time>
      </trkpt>
      <trkpt lat="45.10691" lon="5.39051">
        <ele>980.68</ele>
        <time>2021-10-28T12:12:54Z</time>
      </trkpt>
      <trkpt lat="45.10689" lon="5.39049">
        <ele>980.2</ele>
        <time>2021-10-28T12:12:56Z</time>
      </trkpt>
      <trkpt lat="45.10679" lon="5.39028">
        <ele>979.72</ele>
        <time>2021-10-28T12:13:12Z</time>
      </trkpt>
      <trkpt lat="45.10661" lon="5.39016">
        <ele>979.72</ele>
        <time>2021-10-28T12:13:28Z</time>
      </trkpt>
      <trkpt lat="45.10655" lon="5.39012">
        <ele>979.72</ele>
        <time>2021-10-28T12:13:33Z</time>
      </trkpt>
      <trkpt lat="45.10632" lon="5.38999">
        <ele>981.16</ele>
        <time>2021-10-28T12:15:57Z</time>
      </trkpt>
      <trkpt lat="45.10632" lon="5.38999">
        <ele>981.16</ele>
        <time>2021-10-28T12:16:15Z</time>
      </trkpt>
      <trkpt lat="45.10625" lon="5.38995">
        <ele>981.16</ele>
        <time>2021-10-28T12:16:36Z</time>
      </trkpt>
      <trkpt lat="45.10618" lon="5.38986">
        <ele>981.64</ele>
        <time>2021-10-28T12:16:45Z</time>
      </trkpt>
      <trkpt lat="45.10609" lon="5.38963">
        <ele>982.12</ele>
        <time>2021-10-28T12:17:01Z</time>
      </trkpt>
      <trkpt lat="45.10598" lon="5.38951">
        <ele>982.6</ele>
        <time>2021-10-28T12:17:14Z</time>
      </trkpt>
      <trkpt lat="45.10585" lon="5.38942">
        <ele>983.57</ele>
        <time>2021-10-28T12:17:27Z</time>
      </trkpt>
      <trkpt lat="45.10576" lon="5.38931">
        <ele>984.05</ele>
        <time>2021-10-28T12:17:37Z</time>
      </trkpt>
      <trkpt lat="45.10566" lon="5.38918">
        <ele>984.53</ele>
        <time>2021-10-28T12:17:49Z</time>
      </trkpt>
      <trkpt lat="45.10556" lon="5.38896">
        <ele>983.09</ele>
        <time>2021-10-28T12:18:06Z</time>
      </trkpt>
      <trkpt lat="45.10542" lon="5.38877">
        <ele>980.68</ele>
        <time>2021-10-28T12:18:23Z</time>
      </trkpt>
      <trkpt lat="45.10529" lon="5.38854">
        <ele>979.24</ele>
        <time>2021-10-28T12:18:37Z</time>
      </trkpt>
      <trkpt lat="45.10519" lon="5.38832">
        <ele>977.32</ele>
        <time>2021-10-28T12:18:52Z</time>
      </trkpt>
      <trkpt lat="45.10511" lon="5.38813">
        <ele>974.43</ele>
        <time>2021-10-28T12:19:08Z</time>
      </trkpt>
      <trkpt lat="45.10508" lon="5.388">
        <ele>973.47</ele>
        <time>2021-10-28T12:19:17Z</time>
      </trkpt>
      <trkpt lat="45.10508" lon="5.38796">
        <ele>972.03</ele>
        <time>2021-10-28T12:19:20Z</time>
      </trkpt>
      <trkpt lat="45.10507" lon="5.38787">
        <ele>971.07</ele>
        <time>2021-10-28T12:19:26Z</time>
      </trkpt>
      <trkpt lat="45.10509" lon="5.38781">
        <ele>970.59</ele>
        <time>2021-10-28T12:19:39Z</time>
      </trkpt>
      <trkpt lat="45.10511" lon="5.38775">
        <ele>969.63</ele>
        <time>2021-10-28T12:19:56Z</time>
      </trkpt>
      <trkpt lat="45.10509" lon="5.38761">
        <ele>966.74</ele>
        <time>2021-10-28T12:20:09Z</time>
      </trkpt>
      <trkpt lat="45.10509" lon="5.38759">
        <ele>966.74</ele>
        <time>2021-10-28T12:20:10Z</time>
      </trkpt>
      <trkpt lat="45.10508" lon="5.38739">
        <ele>963.38</ele>
        <time>2021-10-28T12:20:25Z</time>
      </trkpt>
      <trkpt lat="45.10509" lon="5.38723">
        <ele>961.46</ele>
        <time>2021-10-28T12:20:39Z</time>
      </trkpt>
      <trkpt lat="45.10514" lon="5.38708">
        <ele>958.09</ele>
        <time>2021-10-28T12:20:51Z</time>
      </trkpt>
      <trkpt lat="45.10518" lon="5.38693">
        <ele>955.21</ele>
        <time>2021-10-28T12:21:04Z</time>
      </trkpt>
      <trkpt lat="45.10521" lon="5.38683">
        <ele>953.28</ele>
        <time>2021-10-28T12:21:20Z</time>
      </trkpt>
      <trkpt lat="45.10522" lon="5.38678">
        <ele>952.32</ele>
        <time>2021-10-28T12:21:41Z</time>
      </trkpt>
      <trkpt lat="45.10527" lon="5.38669">
        <ele>949.44</ele>
        <time>2021-10-28T12:21:55Z</time>
      </trkpt>
      <trkpt lat="45.10531" lon="5.38655">
        <ele>946.07</ele>
        <time>2021-10-28T12:22:08Z</time>
      </trkpt>
      <trkpt lat="45.10535" lon="5.38646">
        <ele>944.15</ele>
        <time>2021-10-28T12:22:15Z</time>
      </trkpt>
      <trkpt lat="45.1055" lon="5.38631">
        <ele>942.23</ele>
        <time>2021-10-28T12:22:33Z</time>
      </trkpt>
      <trkpt lat="45.10558" lon="5.38615">
        <ele>941.27</ele>
        <time>2021-10-28T12:22:46Z</time>
      </trkpt>
      <trkpt lat="45.10559" lon="5.3861">
        <ele>941.27</ele>
        <time>2021-10-28T12:22:49Z</time>
      </trkpt>
      <trkpt lat="45.10561" lon="5.38606">
        <ele>941.27</ele>
        <time>2021-10-28T12:22:52Z</time>
      </trkpt>
      <trkpt lat="45.10567" lon="5.38586">
        <ele>940.31</ele>
        <time>2021-10-28T12:23:05Z</time>
      </trkpt>
      <trkpt lat="45.10568" lon="5.38576">
        <ele>939.83</ele>
        <time>2021-10-28T12:23:10Z</time>
      </trkpt>
      <trkpt lat="45.10571" lon="5.38564">
        <ele>939.83</ele>
        <time>2021-10-28T12:23:18Z</time>
      </trkpt>
      <trkpt lat="45.10571" lon="5.38561">
        <ele>939.83</ele>
        <time>2021-10-28T12:23:20Z</time>
      </trkpt>
      <trkpt lat="45.10571" lon="5.38536">
        <ele>938.38</ele>
        <time>2021-10-28T12:23:37Z</time>
      </trkpt>
      <trkpt lat="45.10575" lon="5.38514">
        <ele>935.98</ele>
        <time>2021-10-28T12:23:53Z</time>
      </trkpt>
      <trkpt lat="45.10578" lon="5.38493">
        <ele>933.1</ele>
        <time>2021-10-28T12:24:09Z</time>
      </trkpt>
      <trkpt lat="45.10576" lon="5.38469">
        <ele>931.65</ele>
        <time>2021-10-28T12:24:24Z</time>
      </trkpt>
      <trkpt lat="45.10575" lon="5.38465">
        <ele>931.17</ele>
        <time>2021-10-28T12:24:27Z</time>
      </trkpt>
      <trkpt lat="45.10566" lon="5.38451">
        <ele>928.29</ele>
        <time>2021-10-28T12:24:40Z</time>
      </trkpt>
      <trkpt lat="45.10561" lon="5.38442">
        <ele>926.85</ele>
        <time>2021-10-28T12:24:53Z</time>
      </trkpt>
      <trkpt lat="45.10553" lon="5.38441">
        <ele>925.41</ele>
        <time>2021-10-28T12:25:10Z</time>
      </trkpt>
      <trkpt lat="45.1054" lon="5.38435">
        <ele>922.04</ele>
        <time>2021-10-28T12:25:27Z</time>
      </trkpt>
      <trkpt lat="45.10527" lon="5.38427">
        <ele>918.68</ele>
        <time>2021-10-28T12:25:43Z</time>
      </trkpt>
      <trkpt lat="45.10519" lon="5.38416">
        <ele>915.31</ele>
        <time>2021-10-28T12:25:55Z</time>
      </trkpt>
      <trkpt lat="45.10511" lon="5.38404">
        <ele>912.43</ele>
        <time>2021-10-28T12:26:05Z</time>
      </trkpt>
      <trkpt lat="45.10502" lon="5.38388">
        <ele>909.06</ele>
        <time>2021-10-28T12:26:18Z</time>
      </trkpt>
      <trkpt lat="45.10494" lon="5.38373">
        <ele>907.14</ele>
        <time>2021-10-28T12:26:29Z</time>
      </trkpt>
      <trkpt lat="45.10487" lon="5.38365">
        <ele>904.26</ele>
        <time>2021-10-28T12:26:39Z</time>
      </trkpt>
      <trkpt lat="45.10482" lon="5.38353">
        <ele>900.89</ele>
        <time>2021-10-28T12:26:49Z</time>
      </trkpt>
      <trkpt lat="45.10479" lon="5.38336">
        <ele>898.01</ele>
        <time>2021-10-28T12:27:02Z</time>
      </trkpt>
      <trkpt lat="45.10478" lon="5.38322">
        <ele>894.64</ele>
        <time>2021-10-28T12:27:13Z</time>
      </trkpt>
      <trkpt lat="45.10477" lon="5.38309">
        <ele>891.76</ele>
        <time>2021-10-28T12:27:23Z</time>
      </trkpt>
      <trkpt lat="45.10477" lon="5.38306">
        <ele>890.8</ele>
        <time>2021-10-28T12:27:25Z</time>
      </trkpt>
      <trkpt lat="45.10475" lon="5.38291">
        <ele>887.43</ele>
        <time>2021-10-28T12:27:35Z</time>
      </trkpt>
      <trkpt lat="45.10476" lon="5.38274">
        <ele>884.07</ele>
        <time>2021-10-28T12:27:46Z</time>
      </trkpt>
      <trkpt lat="45.10472" lon="5.38257">
        <ele>881.19</ele>
        <time>2021-10-28T12:28:01Z</time>
      </trkpt>
      <trkpt lat="45.10468" lon="5.38239">
        <ele>879.74</ele>
        <time>2021-10-28T12:28:15Z</time>
      </trkpt>
      <trkpt lat="45.10461" lon="5.3822">
        <ele>876.86</ele>
        <time>2021-10-28T12:28:29Z</time>
      </trkpt>
      <trkpt lat="45.10461" lon="5.38218">
        <ele>876.86</ele>
        <time>2021-10-28T12:28:30Z</time>
      </trkpt>
      <trkpt lat="45.10452" lon="5.38196">
        <ele>875.42</ele>
        <time>2021-10-28T12:28:45Z</time>
      </trkpt>
      <trkpt lat="45.10438" lon="5.38189">
        <ele>873.01</ele>
        <time>2021-10-28T12:28:59Z</time>
      </trkpt>
      <trkpt lat="45.10427" lon="5.38185">
        <ele>870.13</ele>
        <time>2021-10-28T12:29:11Z</time>
      </trkpt>
      <trkpt lat="45.10415" lon="5.38173">
        <ele>869.17</ele>
        <time>2021-10-28T12:29:26Z</time>
      </trkpt>
      <trkpt lat="45.10407" lon="5.38159">
        <ele>867.73</ele>
        <time>2021-10-28T12:29:40Z</time>
      </trkpt>
      <trkpt lat="45.10404" lon="5.38148">
        <ele>866.77</ele>
        <time>2021-10-28T12:30:01Z</time>
      </trkpt>
      <trkpt lat="45.10404" lon="5.38142">
        <ele>866.29</ele>
        <time>2021-10-28T12:30:17Z</time>
      </trkpt>
      <trkpt lat="45.10406" lon="5.38132">
        <ele>866.29</ele>
        <time>2021-10-28T12:30:41Z</time>
      </trkpt>
      <trkpt lat="45.10403" lon="5.38123">
        <ele>864.84</ele>
        <time>2021-10-28T12:31:22Z</time>
      </trkpt>
      <trkpt lat="45.10392" lon="5.3811">
        <ele>862.92</ele>
        <time>2021-10-28T12:31:39Z</time>
      </trkpt>
      <trkpt lat="45.10394" lon="5.381">
        <ele>860.52</ele>
        <time>2021-10-28T12:31:53Z</time>
      </trkpt>
      <trkpt lat="45.10405" lon="5.3809">
        <ele>858.59</ele>
        <time>2021-10-28T12:32:06Z</time>
      </trkpt>
      <trkpt lat="45.10409" lon="5.38075">
        <ele>855.71</ele>
        <time>2021-10-28T12:32:21Z</time>
      </trkpt>
      <trkpt lat="45.10409" lon="5.38057">
        <ele>852.35</ele>
        <time>2021-10-28T12:32:34Z</time>
      </trkpt>
      <trkpt lat="45.10409" lon="5.38055">
        <ele>852.35</ele>
        <time>2021-10-28T12:32:35Z</time>
      </trkpt>
      <trkpt lat="45.1041" lon="5.38049">
        <ele>851.87</ele>
        <time>2021-10-28T12:32:38Z</time>
      </trkpt>
      <trkpt lat="45.10408" lon="5.38035">
        <ele>849.46</ele>
        <time>2021-10-28T12:32:48Z</time>
      </trkpt>
      <trkpt lat="45.10398" lon="5.38021">
        <ele>846.1</ele>
        <time>2021-10-28T12:33:00Z</time>
      </trkpt>
      <trkpt lat="45.10388" lon="5.38005">
        <ele>844.18</ele>
        <time>2021-10-28T12:33:14Z</time>
      </trkpt>
      <trkpt lat="45.10387" lon="5.37988">
        <ele>841.77</ele>
        <time>2021-10-28T12:33:27Z</time>
      </trkpt>
      <trkpt lat="45.10392" lon="5.37983">
        <ele>840.33</ele>
        <time>2021-10-28T12:33:43Z</time>
      </trkpt>
      <trkpt lat="45.10392" lon="5.37981">
        <ele>840.33</ele>
        <time>2021-10-28T12:34:04Z</time>
      </trkpt>
      <trkpt lat="45.10391" lon="5.37968">
        <ele>839.37</ele>
        <time>2021-10-28T12:34:19Z</time>
      </trkpt>
      <trkpt lat="45.10391" lon="5.37953">
        <ele>838.41</ele>
        <time>2021-10-28T12:34:35Z</time>
      </trkpt>
      <trkpt lat="45.10388" lon="5.37935">
        <ele>837.93</ele>
        <time>2021-10-28T12:34:49Z</time>
      </trkpt>
      <trkpt lat="45.10387" lon="5.37911">
        <ele>836</ele>
        <time>2021-10-28T12:35:05Z</time>
      </trkpt>
      <trkpt lat="45.1039" lon="5.37894">
        <ele>834.08</ele>
        <time>2021-10-28T12:35:19Z</time>
      </trkpt>
      <trkpt lat="45.10395" lon="5.37881">
        <ele>831.68</ele>
        <time>2021-10-28T12:35:33Z</time>
      </trkpt>
      <trkpt lat="45.10399" lon="5.37867">
        <ele>828.31</ele>
        <time>2021-10-28T12:35:44Z</time>
      </trkpt>
      <trkpt lat="45.10401" lon="5.37841">
        <ele>825.91</ele>
        <time>2021-10-28T12:35:59Z</time>
      </trkpt>
      <trkpt lat="45.104" lon="5.3782">
        <ele>824.95</ele>
        <time>2021-10-28T12:36:12Z</time>
      </trkpt>
      <trkpt lat="45.104" lon="5.37814">
        <ele>824.95</ele>
        <time>2021-10-28T12:36:16Z</time>
      </trkpt>
      <trkpt lat="45.10402" lon="5.37792">
        <ele>824.47</ele>
        <time>2021-10-28T12:36:30Z</time>
      </trkpt>
      <trkpt lat="45.10402" lon="5.37765">
        <ele>823.03</ele>
        <time>2021-10-28T12:36:46Z</time>
      </trkpt>
      <trkpt lat="45.10404" lon="5.37755">
        <ele>822.55</ele>
        <time>2021-10-28T12:36:53Z</time>
      </trkpt>
      <trkpt lat="45.10406" lon="5.37747">
        <ele>821.58</ele>
        <time>2021-10-28T12:37:06Z</time>
      </trkpt>
      <trkpt lat="45.10408" lon="5.3774">
        <ele>820.62</ele>
        <time>2021-10-28T12:41:51Z</time>
      </trkpt>
      <trkpt lat="45.1041" lon="5.37732">
        <ele>820.62</ele>
        <time>2021-10-28T12:41:57Z</time>
      </trkpt>
      <trkpt lat="45.1041" lon="5.3773">
        <ele>820.14</ele>
        <time>2021-10-28T12:41:59Z</time>
      </trkpt>
      <trkpt lat="45.10423" lon="5.37711">
        <ele>818.22</ele>
        <time>2021-10-28T12:42:15Z</time>
      </trkpt>
      <trkpt lat="45.10424" lon="5.37709">
        <ele>817.74</ele>
        <time>2021-10-28T12:42:22Z</time>
      </trkpt>
      <trkpt lat="45.1043" lon="5.37699">
        <ele>816.3</ele>
        <time>2021-10-28T12:42:30Z</time>
      </trkpt>
      <trkpt lat="45.10433" lon="5.37691">
        <ele>815.34</ele>
        <time>2021-10-28T12:42:36Z</time>
      </trkpt>
      <trkpt lat="45.10436" lon="5.37681">
        <ele>813.41</ele>
        <time>2021-10-28T12:42:42Z</time>
      </trkpt>
      <trkpt lat="45.1044" lon="5.37666">
        <ele>811.97</ele>
        <time>2021-10-28T12:42:51Z</time>
      </trkpt>
      <trkpt lat="45.10442" lon="5.37659">
        <ele>811.49</ele>
        <time>2021-10-28T12:42:55Z</time>
      </trkpt>
      <trkpt lat="45.10443" lon="5.37632">
        <ele>807.64</ele>
        <time>2021-10-28T12:43:12Z</time>
      </trkpt>
      <trkpt lat="45.10438" lon="5.3761">
        <ele>804.76</ele>
        <time>2021-10-28T12:43:27Z</time>
      </trkpt>
      <trkpt lat="45.10437" lon="5.37608">
        <ele>804.28</ele>
        <time>2021-10-28T12:43:29Z</time>
      </trkpt>
      <trkpt lat="45.10428" lon="5.37582">
        <ele>801.88</ele>
        <time>2021-10-28T12:43:45Z</time>
      </trkpt>
      <trkpt lat="45.10421" lon="5.37553">
        <ele>800.44</ele>
        <time>2021-10-28T12:44:02Z</time>
      </trkpt>
      <trkpt lat="45.10422" lon="5.37539">
        <ele>797.55</ele>
        <time>2021-10-28T12:44:10Z</time>
      </trkpt>
      <trkpt lat="45.1043" lon="5.37522">
        <ele>794.19</ele>
        <time>2021-10-28T12:44:23Z</time>
      </trkpt>
      <trkpt lat="45.10443" lon="5.37504">
        <ele>790.82</ele>
        <time>2021-10-28T12:44:38Z</time>
      </trkpt>
      <trkpt lat="45.10449" lon="5.37493">
        <ele>789.86</ele>
        <time>2021-10-28T12:44:54Z</time>
      </trkpt>
      <trkpt lat="45.1046" lon="5.37493">
        <ele>788.9</ele>
        <time>2021-10-28T12:45:10Z</time>
      </trkpt>
      <trkpt lat="45.10472" lon="5.37503">
        <ele>787.46</ele>
        <time>2021-10-28T12:45:26Z</time>
      </trkpt>
      <trkpt lat="45.10474" lon="5.37498">
        <ele>786.02</ele>
        <time>2021-10-28T12:45:39Z</time>
      </trkpt>
      <trkpt lat="45.10476" lon="5.37498">
        <ele>785.53</ele>
        <time>2021-10-28T12:45:58Z</time>
      </trkpt>
      <trkpt lat="45.10477" lon="5.37493">
        <ele>785.05</ele>
        <time>2021-10-28T12:46:16Z</time>
      </trkpt>
      <trkpt lat="45.10475" lon="5.37481">
        <ele>783.13</ele>
        <time>2021-10-28T12:46:30Z</time>
      </trkpt>
      <trkpt lat="45.10474" lon="5.37466">
        <ele>781.21</ele>
        <time>2021-10-28T12:46:42Z</time>
      </trkpt>
      <trkpt lat="45.10475" lon="5.37443">
        <ele>777.84</ele>
        <time>2021-10-28T12:46:57Z</time>
      </trkpt>
      <trkpt lat="45.10483" lon="5.37413">
        <ele>774.96</ele>
        <time>2021-10-28T12:47:15Z</time>
      </trkpt>
      <trkpt lat="45.10492" lon="5.37385">
        <ele>773.04</ele>
        <time>2021-10-28T12:47:32Z</time>
      </trkpt>
      <trkpt lat="45.10495" lon="5.37363">
        <ele>769.67</ele>
        <time>2021-10-28T12:47:46Z</time>
      </trkpt>
      <trkpt lat="45.10495" lon="5.3734">
        <ele>766.31</ele>
        <time>2021-10-28T12:47:59Z</time>
      </trkpt>
      <trkpt lat="45.10497" lon="5.37318">
        <ele>762.46</ele>
        <time>2021-10-28T12:48:12Z</time>
      </trkpt>
      <trkpt lat="45.10501" lon="5.37293">
        <ele>759.58</ele>
        <time>2021-10-28T12:48:27Z</time>
      </trkpt>
      <trkpt lat="45.10501" lon="5.37279">
        <ele>758.14</ele>
        <time>2021-10-28T12:48:43Z</time>
      </trkpt>
      <trkpt lat="45.105" lon="5.37253">
        <ele>755.25</ele>
        <time>2021-10-28T12:48:59Z</time>
      </trkpt>
      <trkpt lat="45.105" lon="5.37228">
        <ele>752.85</ele>
        <time>2021-10-28T12:49:14Z</time>
      </trkpt>
      <trkpt lat="45.10499" lon="5.37199">
        <ele>750.45</ele>
        <time>2021-10-28T12:49:29Z</time>
      </trkpt>
      <trkpt lat="45.10499" lon="5.37171">
        <ele>748.52</ele>
        <time>2021-10-28T12:49:45Z</time>
      </trkpt>
      <trkpt lat="45.10498" lon="5.37153">
        <ele>746.6</ele>
        <time>2021-10-28T12:49:57Z</time>
      </trkpt>
      <trkpt lat="45.10497" lon="5.37131">
        <ele>743.24</ele>
        <time>2021-10-28T12:50:11Z</time>
      </trkpt>
      <trkpt lat="45.10498" lon="5.37127">
        <ele>742.28</ele>
        <time>2021-10-28T12:50:14Z</time>
      </trkpt>
      <trkpt lat="45.10507" lon="5.37107">
        <ele>739.87</ele>
        <time>2021-10-28T12:50:29Z</time>
      </trkpt>
      <trkpt lat="45.10515" lon="5.37094">
        <ele>738.91</ele>
        <time>2021-10-28T12:50:43Z</time>
      </trkpt>
      <trkpt lat="45.10525" lon="5.37081">
        <ele>736.03</ele>
        <time>2021-10-28T12:50:56Z</time>
      </trkpt>
      <trkpt lat="45.10535" lon="5.37073">
        <ele>732.66</ele>
        <time>2021-10-28T12:51:08Z</time>
      </trkpt>
      <trkpt lat="45.10545" lon="5.37069">
        <ele>729.78</ele>
        <time>2021-10-28T12:51:21Z</time>
      </trkpt>
      <trkpt lat="45.10551" lon="5.37055">
        <ele>726.41</ele>
        <time>2021-10-28T12:51:34Z</time>
      </trkpt>
      <trkpt lat="45.10553" lon="5.3704">
        <ele>723.53</ele>
        <time>2021-10-28T12:51:47Z</time>
      </trkpt>
      <trkpt lat="45.10553" lon="5.37035">
        <ele>722.09</ele>
        <time>2021-10-28T12:51:51Z</time>
      </trkpt>
      <trkpt lat="45.10553" lon="5.37016">
        <ele>718.24</ele>
        <time>2021-10-28T12:52:05Z</time>
      </trkpt>
      <trkpt lat="45.10559" lon="5.37">
        <ele>714.88</ele>
        <time>2021-10-28T12:52:18Z</time>
      </trkpt>
      <trkpt lat="45.10566" lon="5.36985">
        <ele>711.99</ele>
        <time>2021-10-28T12:52:32Z</time>
      </trkpt>
      <trkpt lat="45.10572" lon="5.36974">
        <ele>708.63</ele>
        <time>2021-10-28T12:52:45Z</time>
      </trkpt>
      <trkpt lat="45.1057" lon="5.36953">
        <ele>705.75</ele>
        <time>2021-10-28T12:53:00Z</time>
      </trkpt>
      <trkpt lat="45.10576" lon="5.36941">
        <ele>702.38</ele>
        <time>2021-10-28T12:53:12Z</time>
      </trkpt>
      <trkpt lat="45.10584" lon="5.36934">
        <ele>699.02</ele>
        <time>2021-10-28T12:53:27Z</time>
      </trkpt>
      <trkpt lat="45.10592" lon="5.36921">
        <ele>695.65</ele>
        <time>2021-10-28T12:53:40Z</time>
      </trkpt>
      <trkpt lat="45.106" lon="5.36905">
        <ele>692.29</ele>
        <time>2021-10-28T12:53:53Z</time>
      </trkpt>
      <trkpt lat="45.10604" lon="5.36882">
        <ele>688.44</ele>
        <time>2021-10-28T12:54:08Z</time>
      </trkpt>
      <trkpt lat="45.10609" lon="5.36861">
        <ele>685.56</ele>
        <time>2021-10-28T12:54:23Z</time>
      </trkpt>
      <trkpt lat="45.1061" lon="5.36858">
        <ele>685.56</ele>
        <time>2021-10-28T12:54:25Z</time>
      </trkpt>
      <trkpt lat="45.10614" lon="5.36832">
        <ele>682.19</ele>
        <time>2021-10-28T12:54:42Z</time>
      </trkpt>
      <trkpt lat="45.1062" lon="5.36807">
        <ele>679.79</ele>
        <time>2021-10-28T12:54:59Z</time>
      </trkpt>
      <trkpt lat="45.10624" lon="5.36787">
        <ele>676.91</ele>
        <time>2021-10-28T12:55:13Z</time>
      </trkpt>
      <trkpt lat="45.10633" lon="5.36762">
        <ele>674.5</ele>
        <time>2021-10-28T12:55:30Z</time>
      </trkpt>
      <trkpt lat="45.10637" lon="5.36752">
        <ele>673.54</ele>
        <time>2021-10-28T12:55:37Z</time>
      </trkpt>
      <trkpt lat="45.10647" lon="5.36731">
        <ele>670.18</ele>
        <time>2021-10-28T12:55:53Z</time>
      </trkpt>
      <trkpt lat="45.10656" lon="5.36713">
        <ele>667.29</ele>
        <time>2021-10-28T12:56:09Z</time>
      </trkpt>
      <trkpt lat="45.10666" lon="5.36695">
        <ele>663.93</ele>
        <time>2021-10-28T12:56:24Z</time>
      </trkpt>
      <trkpt lat="45.10677" lon="5.36681">
        <ele>660.56</ele>
        <time>2021-10-28T12:56:39Z</time>
      </trkpt>
      <trkpt lat="45.10686" lon="5.36665">
        <ele>657.2</ele>
        <time>2021-10-28T12:56:53Z</time>
      </trkpt>
      <trkpt lat="45.10696" lon="5.3665">
        <ele>654.31</ele>
        <time>2021-10-28T12:57:06Z</time>
      </trkpt>
      <trkpt lat="45.10705" lon="5.36628">
        <ele>650.95</ele>
        <time>2021-10-28T12:57:21Z</time>
      </trkpt>
      <trkpt lat="45.10714" lon="5.36602">
        <ele>648.55</ele>
        <time>2021-10-28T12:57:35Z</time>
      </trkpt>
      <trkpt lat="45.1072" lon="5.36586">
        <ele>645.66</ele>
        <time>2021-10-28T12:57:49Z</time>
      </trkpt>
      <trkpt lat="45.10726" lon="5.36561">
        <ele>642.78</ele>
        <time>2021-10-28T12:58:07Z</time>
      </trkpt>
      <trkpt lat="45.1073" lon="5.3654">
        <ele>640.38</ele>
        <time>2021-10-28T12:58:21Z</time>
      </trkpt>
      <trkpt lat="45.10735" lon="5.36528">
        <ele>637.01</ele>
        <time>2021-10-28T12:58:31Z</time>
      </trkpt>
      <trkpt lat="45.10743" lon="5.36516">
        <ele>633.65</ele>
        <time>2021-10-28T12:58:44Z</time>
      </trkpt>
      <trkpt lat="45.10753" lon="5.36502">
        <ele>629.8</ele>
        <time>2021-10-28T12:58:57Z</time>
      </trkpt>
      <trkpt lat="45.10761" lon="5.36492">
        <ele>626.44</ele>
        <time>2021-10-28T12:59:09Z</time>
      </trkpt>
      <trkpt lat="45.1077" lon="5.36481">
        <ele>623.07</ele>
        <time>2021-10-28T12:59:20Z</time>
      </trkpt>
      <trkpt lat="45.10777" lon="5.36472">
        <ele>619.71</ele>
        <time>2021-10-28T12:59:30Z</time>
      </trkpt>
      <trkpt lat="45.10781" lon="5.36465">
        <ele>616.82</ele>
        <time>2021-10-28T12:59:39Z</time>
      </trkpt>
      <trkpt lat="45.10782" lon="5.36451">
        <ele>613.94</ele>
        <time>2021-10-28T12:59:49Z</time>
      </trkpt>
      <trkpt lat="45.10788" lon="5.36438">
        <ele>610.57</ele>
        <time>2021-10-28T13:00:00Z</time>
      </trkpt>
      <trkpt lat="45.10792" lon="5.36419">
        <ele>607.21</ele>
        <time>2021-10-28T13:00:13Z</time>
      </trkpt>
      <trkpt lat="45.10797" lon="5.36398">
        <ele>604.33</ele>
        <time>2021-10-28T13:00:28Z</time>
      </trkpt>
      <trkpt lat="45.10801" lon="5.36377">
        <ele>601.44</ele>
        <time>2021-10-28T13:00:44Z</time>
      </trkpt>
      <trkpt lat="45.10803" lon="5.36372">
        <ele>601.44</ele>
        <time>2021-10-28T13:01:09Z</time>
      </trkpt>
      <trkpt lat="45.10804" lon="5.3637">
        <ele>600.96</ele>
        <time>2021-10-28T13:01:33Z</time>
      </trkpt>
      <trkpt lat="45.10803" lon="5.36369">
        <ele>600.96</ele>
        <time>2021-10-28T13:01:50Z</time>
      </trkpt>
      <trkpt lat="45.10806" lon="5.36367">
        <ele>600.48</ele>
        <time>2021-10-28T13:02:17Z</time>
      </trkpt>
      <trkpt lat="45.10807" lon="5.36361">
        <ele>599.52</ele>
        <time>2021-10-28T13:02:36Z</time>
      </trkpt>
      <trkpt lat="45.10812" lon="5.36347">
        <ele>597.6</ele>
        <time>2021-10-28T13:02:53Z</time>
      </trkpt>
      <trkpt lat="45.10815" lon="5.36332">
        <ele>595.67</ele>
        <time>2021-10-28T13:03:05Z</time>
      </trkpt>
      <trkpt lat="45.10815" lon="5.36318">
        <ele>594.23</ele>
        <time>2021-10-28T13:03:20Z</time>
      </trkpt>
      <trkpt lat="45.10817" lon="5.36311">
        <ele>594.23</ele>
        <time>2021-10-28T13:03:40Z</time>
      </trkpt>
      <trkpt lat="45.10821" lon="5.36296">
        <ele>594.23</ele>
        <time>2021-10-28T13:03:55Z</time>
      </trkpt>
      <trkpt lat="45.10826" lon="5.36282">
        <ele>595.19</ele>
        <time>2021-10-28T13:04:10Z</time>
      </trkpt>
      <trkpt lat="45.10834" lon="5.3627">
        <ele>596.15</ele>
        <time>2021-10-28T13:04:24Z</time>
      </trkpt>
      <trkpt lat="45.10836" lon="5.36268">
        <ele>596.15</ele>
        <time>2021-10-28T13:04:27Z</time>
      </trkpt>
      <trkpt lat="45.10842" lon="5.36268">
        <ele>596.64</ele>
        <time>2021-10-28T13:04:47Z</time>
      </trkpt>
      <trkpt lat="45.10852" lon="5.3626">
        <ele>596.64</ele>
        <time>2021-10-28T13:05:03Z</time>
      </trkpt>
      <trkpt lat="45.10861" lon="5.36253">
        <ele>597.12</ele>
        <time>2021-10-28T13:05:16Z</time>
      </trkpt>
      <trkpt lat="45.10877" lon="5.36249">
        <ele>595.67</ele>
        <time>2021-10-28T13:05:31Z</time>
      </trkpt>
      <trkpt lat="45.10881" lon="5.36246">
        <ele>595.19</ele>
        <time>2021-10-28T13:05:46Z</time>
      </trkpt>
      <trkpt lat="45.10886" lon="5.36247">
        <ele>595.19</ele>
        <time>2021-10-28T13:06:07Z</time>
      </trkpt>
      <trkpt lat="45.10891" lon="5.36245">
        <ele>594.71</ele>
        <time>2021-10-28T13:06:27Z</time>
      </trkpt>
      <trkpt lat="45.10901" lon="5.36239">
        <ele>592.31</ele>
        <time>2021-10-28T13:06:44Z</time>
      </trkpt>
      <trkpt lat="45.10914" lon="5.36227">
        <ele>589.43</ele>
        <time>2021-10-28T13:06:59Z</time>
      </trkpt>
      <trkpt lat="45.10923" lon="5.36216">
        <ele>586.54</ele>
        <time>2021-10-28T13:07:12Z</time>
      </trkpt>
      <trkpt lat="45.10931" lon="5.36199">
        <ele>583.66</ele>
        <time>2021-10-28T13:07:28Z</time>
      </trkpt>
      <trkpt lat="45.10935" lon="5.36188">
        <ele>580.77</ele>
        <time>2021-10-28T13:07:39Z</time>
      </trkpt>
      <trkpt lat="45.10938" lon="5.36172">
        <ele>577.89</ele>
        <time>2021-10-28T13:07:52Z</time>
      </trkpt>
      <trkpt lat="45.10937" lon="5.3616">
        <ele>574.53</ele>
        <time>2021-10-28T13:08:01Z</time>
      </trkpt>
      <trkpt lat="45.10935" lon="5.36147">
        <ele>571.64</ele>
        <time>2021-10-28T13:08:12Z</time>
      </trkpt>
      <trkpt lat="45.1093" lon="5.36132">
        <ele>568.28</ele>
        <time>2021-10-28T13:08:26Z</time>
      </trkpt>
      <trkpt lat="45.10933" lon="5.36112">
        <ele>564.91</ele>
        <time>2021-10-28T13:08:37Z</time>
      </trkpt>
      <trkpt lat="45.10938" lon="5.36093">
        <ele>561.55</ele>
        <time>2021-10-28T13:08:50Z</time>
      </trkpt>
      <trkpt lat="45.10942" lon="5.36078">
        <ele>558.66</ele>
        <time>2021-10-28T13:09:01Z</time>
      </trkpt>
      <trkpt lat="45.10948" lon="5.36066">
        <ele>557.22</ele>
        <time>2021-10-28T13:09:17Z</time>
      </trkpt>
      <trkpt lat="45.10958" lon="5.36074">
        <ele>554.34</ele>
        <time>2021-10-28T13:09:36Z</time>
      </trkpt>
      <trkpt lat="45.10962" lon="5.36081">
        <ele>551.45</ele>
        <time>2021-10-28T13:09:45Z</time>
      </trkpt>
      <trkpt lat="45.10968" lon="5.36085">
        <ele>548.09</ele>
        <time>2021-10-28T13:10:00Z</time>
      </trkpt>
      <trkpt lat="45.10976" lon="5.36084">
        <ele>545.2</ele>
        <time>2021-10-28T13:10:10Z</time>
      </trkpt>
      <trkpt lat="45.10986" lon="5.36083">
        <ele>541.84</ele>
        <time>2021-10-28T13:10:20Z</time>
      </trkpt>
      <trkpt lat="45.10997" lon="5.36086">
        <ele>538.96</ele>
        <time>2021-10-28T13:10:33Z</time>
      </trkpt>
      <trkpt lat="45.11008" lon="5.36093">
        <ele>535.59</ele>
        <time>2021-10-28T13:10:44Z</time>
      </trkpt>
      <trkpt lat="45.11021" lon="5.36093">
        <ele>532.71</ele>
        <time>2021-10-28T13:10:57Z</time>
      </trkpt>
      <trkpt lat="45.11035" lon="5.36087">
        <ele>529.34</ele>
        <time>2021-10-28T13:11:09Z</time>
      </trkpt>
      <trkpt lat="45.11045" lon="5.36078">
        <ele>525.98</ele>
        <time>2021-10-28T13:11:21Z</time>
      </trkpt>
      <trkpt lat="45.11057" lon="5.36067">
        <ele>523.09</ele>
        <time>2021-10-28T13:11:33Z</time>
      </trkpt>
      <trkpt lat="45.11065" lon="5.3606">
        <ele>519.25</ele>
        <time>2021-10-28T13:11:45Z</time>
      </trkpt>
      <trkpt lat="45.11075" lon="5.36049">
        <ele>516.37</ele>
        <time>2021-10-28T13:11:58Z</time>
      </trkpt>
      <trkpt lat="45.11086" lon="5.36037">
        <ele>513.96</ele>
        <time>2021-10-28T13:12:12Z</time>
      </trkpt>
      <trkpt lat="45.111" lon="5.36024">
        <ele>510.6</ele>
        <time>2021-10-28T13:12:27Z</time>
      </trkpt>
      <trkpt lat="45.11115" lon="5.3602">
        <ele>508.19</ele>
        <time>2021-10-28T13:12:43Z</time>
      </trkpt>
      <trkpt lat="45.11126" lon="5.3602">
        <ele>506.75</ele>
        <time>2021-10-28T13:12:56Z</time>
      </trkpt>
      <trkpt lat="45.11139" lon="5.36023">
        <ele>505.79</ele>
        <time>2021-10-28T13:13:10Z</time>
      </trkpt>
      <trkpt lat="45.11154" lon="5.3602">
        <ele>504.35</ele>
        <time>2021-10-28T13:13:23Z</time>
      </trkpt>
      <trkpt lat="45.11169" lon="5.36017">
        <ele>503.39</ele>
        <time>2021-10-28T13:13:35Z</time>
      </trkpt>
      <trkpt lat="45.11189" lon="5.36012">
        <ele>502.43</ele>
        <time>2021-10-28T13:13:51Z</time>
      </trkpt>
      <trkpt lat="45.11197" lon="5.36009">
        <ele>501.95</ele>
        <time>2021-10-28T13:14:10Z</time>
      </trkpt>
      <trkpt lat="45.11202" lon="5.36012">
        <ele>501.95</ele>
        <time>2021-10-28T13:14:54Z</time>
      </trkpt>
      <trkpt lat="45.11206" lon="5.36012">
        <ele>501.46</ele>
        <time>2021-10-28T13:15:09Z</time>
      </trkpt>
      <trkpt lat="45.11222" lon="5.36014">
        <ele>500.02</ele>
        <time>2021-10-28T13:15:24Z</time>
      </trkpt>
      <trkpt lat="45.11227" lon="5.36015">
        <ele>500.02</ele>
        <time>2021-10-28T13:15:29Z</time>
      </trkpt>
      <trkpt lat="45.11246" lon="5.36022">
        <ele>499.06</ele>
        <time>2021-10-28T13:15:48Z</time>
      </trkpt>
      <trkpt lat="45.11267" lon="5.36024">
        <ele>498.1</ele>
        <time>2021-10-28T13:16:06Z</time>
      </trkpt>
      <trkpt lat="45.11289" lon="5.36025">
        <ele>496.18</ele>
        <time>2021-10-28T13:16:24Z</time>
      </trkpt>
      <trkpt lat="45.1131" lon="5.36025">
        <ele>495.22</ele>
        <time>2021-10-28T13:16:40Z</time>
      </trkpt>
      <trkpt lat="45.11333" lon="5.36017">
        <ele>493.29</ele>
        <time>2021-10-28T13:16:59Z</time>
      </trkpt>
      <trkpt lat="45.11353" lon="5.36001">
        <ele>492.81</ele>
        <time>2021-10-28T13:17:17Z</time>
      </trkpt>
      <trkpt lat="45.11357" lon="5.35997">
        <ele>492.81</ele>
        <time>2021-10-28T13:17:21Z</time>
      </trkpt>
      <trkpt lat="45.11375" lon="5.35978">
        <ele>491.37</ele>
        <time>2021-10-28T13:17:39Z</time>
      </trkpt>
      <trkpt lat="45.11391" lon="5.35952">
        <ele>490.41</ele>
        <time>2021-10-28T13:17:58Z</time>
      </trkpt>
      <trkpt lat="45.11395" lon="5.35944">
        <ele>488.97</ele>
        <time>2021-10-28T13:18:12Z</time>
      </trkpt>
      <trkpt lat="45.114" lon="5.35955">
        <ele>489.93</ele>
        <time>2021-10-28T13:18:26Z</time>
      </trkpt>
      <trkpt lat="45.11401" lon="5.35956">
        <ele>489.93</ele>
        <time>2021-10-28T13:18:28Z</time>
      </trkpt>
      <trkpt lat="45.1142" lon="5.35962">
        <ele>488.97</ele>
        <time>2021-10-28T13:18:46Z</time>
      </trkpt>
      <trkpt lat="45.11437" lon="5.35968">
        <ele>487.05</ele>
        <time>2021-10-28T13:19:02Z</time>
      </trkpt>
      <trkpt lat="45.11454" lon="5.35973">
        <ele>485.12</ele>
        <time>2021-10-28T13:19:19Z</time>
      </trkpt>
      <trkpt lat="45.11465" lon="5.35976">
        <ele>482.24</ele>
        <time>2021-10-28T13:19:33Z</time>
      </trkpt>
      <trkpt lat="45.1148" lon="5.35975">
        <ele>479.84</ele>
        <time>2021-10-28T13:19:48Z</time>
      </trkpt>
      <trkpt lat="45.11498" lon="5.35974">
        <ele>477.43</ele>
        <time>2021-10-28T13:20:03Z</time>
      </trkpt>
      <trkpt lat="45.11514" lon="5.35976">
        <ele>475.03</ele>
        <time>2021-10-28T13:20:18Z</time>
      </trkpt>
      <trkpt lat="45.11525" lon="5.35975">
        <ele>472.63</ele>
        <time>2021-10-28T13:20:29Z</time>
      </trkpt>
      <trkpt lat="45.11537" lon="5.35978">
        <ele>469.26</ele>
        <time>2021-10-28T13:20:43Z</time>
      </trkpt>
      <trkpt lat="45.11551" lon="5.35981">
        <ele>465.9</ele>
        <time>2021-10-28T13:20:57Z</time>
      </trkpt>
      <trkpt lat="45.11564" lon="5.35985">
        <ele>463.49</ele>
        <time>2021-10-28T13:21:09Z</time>
      </trkpt>
      <trkpt lat="45.1158" lon="5.35986">
        <ele>461.09</ele>
        <time>2021-10-28T13:21:23Z</time>
      </trkpt>
      <trkpt lat="45.11599" lon="5.35988">
        <ele>459.17</ele>
        <time>2021-10-28T13:21:37Z</time>
      </trkpt>
      <trkpt lat="45.11613" lon="5.35989">
        <ele>457.72</ele>
        <time>2021-10-28T13:21:50Z</time>
      </trkpt>
      <trkpt lat="45.11628" lon="5.35986">
        <ele>454.84</ele>
        <time>2021-10-28T13:22:04Z</time>
      </trkpt>
      <trkpt lat="45.11641" lon="5.35987">
        <ele>452.92</ele>
        <time>2021-10-28T13:22:17Z</time>
      </trkpt>
      <trkpt lat="45.11655" lon="5.35985">
        <ele>451</ele>
        <time>2021-10-28T13:22:29Z</time>
      </trkpt>
      <trkpt lat="45.11668" lon="5.35983">
        <ele>449.07</ele>
        <time>2021-10-28T13:22:41Z</time>
      </trkpt>
      <trkpt lat="45.11683" lon="5.35976">
        <ele>447.15</ele>
        <time>2021-10-28T13:22:53Z</time>
      </trkpt>
      <trkpt lat="45.11707" lon="5.35973">
        <ele>444.27</ele>
        <time>2021-10-28T13:23:09Z</time>
      </trkpt>
      <trkpt lat="45.11714" lon="5.3597">
        <ele>443.31</ele>
        <time>2021-10-28T13:23:22Z</time>
      </trkpt>
      <trkpt lat="45.11726" lon="5.35962">
        <ele>440.42</ele>
        <time>2021-10-28T13:23:38Z</time>
      </trkpt>
      <trkpt lat="45.11745" lon="5.35959">
        <ele>437.06</ele>
        <time>2021-10-28T13:23:53Z</time>
      </trkpt>
      <trkpt lat="45.11763" lon="5.35959">
        <ele>434.65</ele>
        <time>2021-10-28T13:24:07Z</time>
      </trkpt>
      <trkpt lat="45.11766" lon="5.35958">
        <ele>433.69</ele>
        <time>2021-10-28T13:24:31Z</time>
      </trkpt>
      <trkpt lat="45.11767" lon="5.35958">
        <ele>432.73</ele>
        <time>2021-10-28T13:24:45Z</time>
      </trkpt>
      <trkpt lat="45.11769" lon="5.3596">
        <ele>432.73</ele>
        <time>2021-10-28T13:25:00Z</time>
      </trkpt>
      <trkpt lat="45.1177" lon="5.35953">
        <ele>434.17</ele>
        <time>2021-10-28T13:25:23Z</time>
      </trkpt>
      <trkpt lat="45.11774" lon="5.35944">
        <ele>431.29</ele>
        <time>2021-10-28T13:25:38Z</time>
      </trkpt>
      <trkpt lat="45.11779" lon="5.35936">
        <ele>428.4</ele>
        <time>2021-10-28T13:25:50Z</time>
      </trkpt>
      <trkpt lat="45.11789" lon="5.35928">
        <ele>425.04</ele>
        <time>2021-10-28T13:26:03Z</time>
      </trkpt>
      <trkpt lat="45.11796" lon="5.35921">
        <ele>422.16</ele>
        <time>2021-10-28T13:26:14Z</time>
      </trkpt>
      <trkpt lat="45.11803" lon="5.35918">
        <ele>419.27</ele>
        <time>2021-10-28T13:26:28Z</time>
      </trkpt>
      <trkpt lat="45.1181" lon="5.35916">
        <ele>415.91</ele>
        <time>2021-10-28T13:26:39Z</time>
      </trkpt>
      <trkpt lat="45.11822" lon="5.35914">
        <ele>412.54</ele>
        <time>2021-10-28T13:26:53Z</time>
      </trkpt>
      <trkpt lat="45.11827" lon="5.35908">
        <ele>409.66</ele>
        <time>2021-10-28T13:27:03Z</time>
      </trkpt>
      <trkpt lat="45.11835" lon="5.359">
        <ele>405.81</ele>
        <time>2021-10-28T13:27:15Z</time>
      </trkpt>
      <trkpt lat="45.11843" lon="5.35892">
        <ele>403.41</ele>
        <time>2021-10-28T13:27:25Z</time>
      </trkpt>
      <trkpt lat="45.11849" lon="5.35889">
        <ele>400.53</ele>
        <time>2021-10-28T13:27:35Z</time>
      </trkpt>
      <trkpt lat="45.11862" lon="5.35877">
        <ele>397.64</ele>
        <time>2021-10-28T13:27:50Z</time>
      </trkpt>
      <trkpt lat="45.11869" lon="5.35871">
        <ele>394.76</ele>
        <time>2021-10-28T13:28:01Z</time>
      </trkpt>
      <trkpt lat="45.11874" lon="5.3587">
        <ele>391.39</ele>
        <time>2021-10-28T13:28:12Z</time>
      </trkpt>
      <trkpt lat="45.11881" lon="5.35873">
        <ele>388.51</ele>
        <time>2021-10-28T13:28:25Z</time>
      </trkpt>
      <trkpt lat="45.11889" lon="5.3588">
        <ele>385.15</ele>
        <time>2021-10-28T13:28:37Z</time>
      </trkpt>
      <trkpt lat="45.11897" lon="5.35889">
        <ele>381.78</ele>
        <time>2021-10-28T13:28:48Z</time>
      </trkpt>
      <trkpt lat="45.11904" lon="5.35896">
        <ele>379.38</ele>
        <time>2021-10-28T13:29:01Z</time>
      </trkpt>
      <trkpt lat="45.11912" lon="5.35902">
        <ele>376.01</ele>
        <time>2021-10-28T13:29:11Z</time>
      </trkpt>
      <trkpt lat="45.11922" lon="5.35902">
        <ele>373.13</ele>
        <time>2021-10-28T13:29:23Z</time>
      </trkpt>
      <trkpt lat="45.11935" lon="5.35905">
        <ele>369.76</ele>
        <time>2021-10-28T13:29:37Z</time>
      </trkpt>
      <trkpt lat="45.11949" lon="5.35909">
        <ele>366.88</ele>
        <time>2021-10-28T13:29:50Z</time>
      </trkpt>
      <trkpt lat="45.11965" lon="5.35911">
        <ele>365.44</ele>
        <time>2021-10-28T13:30:07Z</time>
      </trkpt>
      <trkpt lat="45.11971" lon="5.35916">
        <ele>364.96</ele>
        <time>2021-10-28T13:30:31Z</time>
      </trkpt>
      <trkpt lat="45.11982" lon="5.35933">
        <ele>362.55</ele>
        <time>2021-10-28T13:30:47Z</time>
      </trkpt>
      <trkpt lat="45.11986" lon="5.35944">
        <ele>361.59</ele>
        <time>2021-10-28T13:31:05Z</time>
      </trkpt>
      <trkpt lat="45.11985" lon="5.35947">
        <ele>360.15</ele>
        <time>2021-10-28T13:33:09Z</time>
      </trkpt>
      <trkpt lat="45.11983" lon="5.35953">
        <ele>360.15</ele>
        <time>2021-10-28T13:33:42Z</time>
      </trkpt>
      <trkpt lat="45.11983" lon="5.35957">
        <ele>360.15</ele>
        <time>2021-10-28T13:34:01Z</time>
      </trkpt>
      <trkpt lat="45.11979" lon="5.35968">
        <ele>358.23</ele>
        <time>2021-10-28T13:34:21Z</time>
      </trkpt>
      <trkpt lat="45.11978" lon="5.35977">
        <ele>354.86</ele>
        <time>2021-10-28T13:34:31Z</time>
      </trkpt>
      <trkpt lat="45.11977" lon="5.35987">
        <ele>351.5</ele>
        <time>2021-10-28T13:34:42Z</time>
      </trkpt>
      <trkpt lat="45.11976" lon="5.35999">
        <ele>348.13</ele>
        <time>2021-10-28T13:34:54Z</time>
      </trkpt>
      <trkpt lat="45.11971" lon="5.36006">
        <ele>345.25</ele>
        <time>2021-10-28T13:35:06Z</time>
      </trkpt>
      <trkpt lat="45.11966" lon="5.36012">
        <ele>342.85</ele>
        <time>2021-10-28T13:35:13Z</time>
      </trkpt>
      <trkpt lat="45.11962" lon="5.36031">
        <ele>339</ele>
        <time>2021-10-28T13:35:26Z</time>
      </trkpt>
      <trkpt lat="45.11952" lon="5.36044">
        <ele>335.64</ele>
        <time>2021-10-28T13:35:38Z</time>
      </trkpt>
      <trkpt lat="45.11934" lon="5.36053">
        <ele>333.71</ele>
        <time>2021-10-28T13:35:53Z</time>
      </trkpt>
      <trkpt lat="45.11923" lon="5.36059">
        <ele>330.35</ele>
        <time>2021-10-28T13:36:07Z</time>
      </trkpt>
      <trkpt lat="45.11914" lon="5.36059">
        <ele>327.47</ele>
        <time>2021-10-28T13:36:19Z</time>
      </trkpt>
      <trkpt lat="45.11898" lon="5.3607">
        <ele>324.58</ele>
        <time>2021-10-28T13:36:32Z</time>
      </trkpt>
      <trkpt lat="45.11888" lon="5.36076">
        <ele>322.18</ele>
        <time>2021-10-28T13:36:45Z</time>
      </trkpt>
      <trkpt lat="45.11885" lon="5.36095">
        <ele>321.22</ele>
        <time>2021-10-28T13:37:00Z</time>
      </trkpt>
      <trkpt lat="45.11889" lon="5.36104">
        <ele>320.74</ele>
        <time>2021-10-28T13:37:20Z</time>
      </trkpt>
      <trkpt lat="45.11893" lon="5.36107">
        <ele>320.74</ele>
        <time>2021-10-28T13:38:20Z</time>
      </trkpt>
      <trkpt lat="45.11898" lon="5.3612">
        <ele>323.14</ele>
        <time>2021-10-28T13:38:34Z</time>
      </trkpt>
      <trkpt lat="45.11906" lon="5.36135">
        <ele>324.1</ele>
        <time>2021-10-28T13:38:49Z</time>
      </trkpt>
      <trkpt lat="45.11915" lon="5.36142">
        <ele>326.02</ele>
        <time>2021-10-28T13:39:02Z</time>
      </trkpt>
      <trkpt lat="45.11921" lon="5.36143">
        <ele>326.5</ele>
        <time>2021-10-28T13:39:07Z</time>
      </trkpt>
      <trkpt lat="45.11934" lon="5.36142">
        <ele>329.39</ele>
        <time>2021-10-28T13:39:22Z</time>
      </trkpt>
      <trkpt lat="45.11942" lon="5.36141">
        <ele>331.79</ele>
        <time>2021-10-28T13:39:36Z</time>
      </trkpt>
      <trkpt lat="45.11954" lon="5.36137">
        <ele>334.68</ele>
        <time>2021-10-28T13:39:50Z</time>
      </trkpt>
      <trkpt lat="45.11967" lon="5.36133">
        <ele>336.6</ele>
        <time>2021-10-28T13:40:06Z</time>
      </trkpt>
      <trkpt lat="45.11977" lon="5.36129">
        <ele>339</ele>
        <time>2021-10-28T13:40:22Z</time>
      </trkpt>
      <trkpt lat="45.11988" lon="5.36131">
        <ele>341.89</ele>
        <time>2021-10-28T13:40:37Z</time>
      </trkpt>
      <trkpt lat="45.11999" lon="5.36129">
        <ele>343.33</ele>
        <time>2021-10-28T13:40:51Z</time>
      </trkpt>
      <trkpt lat="45.1201" lon="5.36126">
        <ele>345.25</ele>
        <time>2021-10-28T13:41:06Z</time>
      </trkpt>
      <trkpt lat="45.12014" lon="5.36126">
        <ele>345.73</ele>
        <time>2021-10-28T13:41:10Z</time>
      </trkpt>
      <trkpt lat="45.12025" lon="5.3612">
        <ele>347.17</ele>
        <time>2021-10-28T13:41:25Z</time>
      </trkpt>
      <trkpt lat="45.12038" lon="5.36112">
        <ele>348.62</ele>
        <time>2021-10-28T13:41:37Z</time>
      </trkpt>
      <trkpt lat="45.12046" lon="5.36107">
        <ele>350.06</ele>
        <time>2021-10-28T13:41:50Z</time>
      </trkpt>
      <trkpt lat="45.12056" lon="5.36108">
        <ele>352.94</ele>
        <time>2021-10-28T13:42:04Z</time>
      </trkpt>
      <trkpt lat="45.12067" lon="5.36104">
        <ele>355.34</ele>
        <time>2021-10-28T13:42:19Z</time>
      </trkpt>
      <trkpt lat="45.12074" lon="5.36102">
        <ele>355.34</ele>
        <time>2021-10-28T13:42:37Z</time>
      </trkpt>
      <trkpt lat="45.12077" lon="5.36098">
        <ele>355.83</ele>
        <time>2021-10-28T13:42:50Z</time>
      </trkpt>
      <trkpt lat="45.12084" lon="5.36091">
        <ele>355.83</ele>
        <time>2021-10-28T13:42:59Z</time>
      </trkpt>
      <trkpt lat="45.12091" lon="5.36082">
        <ele>356.31</ele>
        <time>2021-10-28T13:43:09Z</time>
      </trkpt>
      <trkpt lat="45.12103" lon="5.36077">
        <ele>358.23</ele>
        <time>2021-10-28T13:43:23Z</time>
      </trkpt>
      <trkpt lat="45.12113" lon="5.36081">
        <ele>360.15</ele>
        <time>2021-10-28T13:43:39Z</time>
      </trkpt>
      <trkpt lat="45.12111" lon="5.36094">
        <ele>360.63</ele>
        <time>2021-10-28T13:43:56Z</time>
      </trkpt>
      <trkpt lat="45.12113" lon="5.36099">
        <ele>361.11</ele>
        <time>2021-10-28T13:44:11Z</time>
      </trkpt>
      <trkpt lat="45.12111" lon="5.36113">
        <ele>361.59</ele>
        <time>2021-10-28T13:44:28Z</time>
      </trkpt>
      <trkpt lat="45.12111" lon="5.36127">
        <ele>362.07</ele>
        <time>2021-10-28T13:44:43Z</time>
      </trkpt>
      <trkpt lat="45.12109" lon="5.36143">
        <ele>362.07</ele>
        <time>2021-10-28T13:44:57Z</time>
      </trkpt>
      <trkpt lat="45.12104" lon="5.36163">
        <ele>363.04</ele>
        <time>2021-10-28T13:45:14Z</time>
      </trkpt>
      <trkpt lat="45.12095" lon="5.36179">
        <ele>364</ele>
        <time>2021-10-28T13:45:30Z</time>
      </trkpt>
      <trkpt lat="45.12084" lon="5.36191">
        <ele>364.48</ele>
        <time>2021-10-28T13:45:48Z</time>
      </trkpt>
      <trkpt lat="45.12073" lon="5.36206">
        <ele>364.96</ele>
        <time>2021-10-28T13:46:03Z</time>
      </trkpt>
      <trkpt lat="45.12064" lon="5.36226">
        <ele>365.92</ele>
        <time>2021-10-28T13:46:18Z</time>
      </trkpt>
      <trkpt lat="45.12059" lon="5.36246">
        <ele>366.4</ele>
        <time>2021-10-28T13:46:29Z</time>
      </trkpt>
      <trkpt lat="45.12063" lon="5.36264">
        <ele>366.88</ele>
        <time>2021-10-28T13:46:44Z</time>
      </trkpt>
      <trkpt lat="45.12065" lon="5.36266">
        <ele>366.88</ele>
        <time>2021-10-28T13:46:47Z</time>
      </trkpt>
      <trkpt lat="45.12071" lon="5.36275">
        <ele>365.44</ele>
        <time>2021-10-28T13:46:56Z</time>
      </trkpt>
      <trkpt lat="45.12083" lon="5.36288">
        <ele>364.96</ele>
        <time>2021-10-28T13:47:12Z</time>
      </trkpt>
    </trkseg>
  </trk>
</gpx>